<?xml version="1.0" encoding="UTF-8" standalone="no" ?>
<gpx xmlns="http://www.topografix.com/GPX/1/1" xmlns:xsi="http://www.w3.org/2001/XMLSchema-instance" xsi:schemaLocation="http://www.topografix.com/GPX/1/1 http://www.topografix.com/GPX/1/1/gpx.xsd" version="1.1" creator="VisuGPX - https://www.visugpx.com">
  <metadata>
    <name>83 D+ St Paul en Forêt</name>
    <desc><![CDATA[83 D+ St Paul en Forêt : lac de Meaulx
 2020-03-01-01]]></desc>
  </metadata>
  <trk>
    <name><![CDATA[lac de Meaulx 2020-03-01-01]]></name>
    <extensions>
      <line xmlns="http://www.topografix.com/GPX/gpx_style/0/2">
        <width>4</width>
      </line>
    </extensions>
    <trkseg>
      <trkpt lat="43.56992" lon="6.66126">
        <ele>214.8</ele>
        <time>2020-03-01T08:28:31.000Z</time>
      </trkpt>
      <trkpt lat="43.56992" lon="6.66126">
        <ele>214.8</ele>
        <time>2020-03-01T08:28:32.000Z</time>
      </trkpt>
      <trkpt lat="43.56983" lon="6.66126">
        <ele>215.3</ele>
        <time>2020-03-01T08:31:07.000Z</time>
      </trkpt>
      <trkpt lat="43.56991" lon="6.6612">
        <ele>216</ele>
        <time>2020-03-01T08:34:59.000Z</time>
      </trkpt>
      <trkpt lat="43.56986" lon="6.66109">
        <ele>216</ele>
        <time>2020-03-01T08:35:32.000Z</time>
      </trkpt>
      <trkpt lat="43.56978" lon="6.66103">
        <ele>216.6</ele>
        <time>2020-03-01T08:35:44.000Z</time>
      </trkpt>
      <trkpt lat="43.56969" lon="6.66096">
        <ele>217.5</ele>
        <time>2020-03-01T08:35:55.000Z</time>
      </trkpt>
      <trkpt lat="43.5696" lon="6.66093">
        <ele>217.7</ele>
        <time>2020-03-01T08:36:03.000Z</time>
      </trkpt>
      <trkpt lat="43.56951" lon="6.6609">
        <ele>218.3</ele>
        <time>2020-03-01T08:36:12.000Z</time>
      </trkpt>
      <trkpt lat="43.56942" lon="6.66088">
        <ele>218.6</ele>
        <time>2020-03-01T08:36:21.000Z</time>
      </trkpt>
      <trkpt lat="43.56933" lon="6.66085">
        <ele>219.2</ele>
        <time>2020-03-01T08:36:29.000Z</time>
      </trkpt>
      <trkpt lat="43.56923" lon="6.66081">
        <ele>219.8</ele>
        <time>2020-03-01T08:36:43.000Z</time>
      </trkpt>
      <trkpt lat="43.56914" lon="6.66079">
        <ele>219.8</ele>
        <time>2020-03-01T08:36:52.000Z</time>
      </trkpt>
      <trkpt lat="43.56904" lon="6.66077">
        <ele>219.8</ele>
        <time>2020-03-01T08:37:02.000Z</time>
      </trkpt>
      <trkpt lat="43.56894" lon="6.66075">
        <ele>220.2</ele>
        <time>2020-03-01T08:37:10.000Z</time>
      </trkpt>
      <trkpt lat="43.56886" lon="6.66069">
        <ele>221.2</ele>
        <time>2020-03-01T08:37:19.000Z</time>
      </trkpt>
      <trkpt lat="43.56886" lon="6.66056">
        <ele>221.5</ele>
        <time>2020-03-01T08:37:29.000Z</time>
      </trkpt>
      <trkpt lat="43.56884" lon="6.66044">
        <ele>221.9</ele>
        <time>2020-03-01T08:37:38.000Z</time>
      </trkpt>
      <trkpt lat="43.56879" lon="6.66031">
        <ele>222.2</ele>
        <time>2020-03-01T08:37:46.000Z</time>
      </trkpt>
      <trkpt lat="43.56869" lon="6.66029">
        <ele>222.5</ele>
        <time>2020-03-01T08:37:52.000Z</time>
      </trkpt>
      <trkpt lat="43.56859" lon="6.6603">
        <ele>222.8</ele>
        <time>2020-03-01T08:37:59.000Z</time>
      </trkpt>
      <trkpt lat="43.5685" lon="6.66032">
        <ele>222.9</ele>
        <time>2020-03-01T08:38:08.000Z</time>
      </trkpt>
      <trkpt lat="43.56841" lon="6.6603">
        <ele>222.7</ele>
        <time>2020-03-01T08:38:17.000Z</time>
      </trkpt>
      <trkpt lat="43.56831" lon="6.66026">
        <ele>222.6</ele>
        <time>2020-03-01T08:38:24.000Z</time>
      </trkpt>
      <trkpt lat="43.56822" lon="6.66021">
        <ele>222.6</ele>
        <time>2020-03-01T08:38:32.000Z</time>
      </trkpt>
      <trkpt lat="43.56815" lon="6.66012">
        <ele>222.8</ele>
        <time>2020-03-01T08:38:41.000Z</time>
      </trkpt>
      <trkpt lat="43.56809" lon="6.66002">
        <ele>222</ele>
        <time>2020-03-01T08:38:48.000Z</time>
      </trkpt>
      <trkpt lat="43.568" lon="6.65995">
        <ele>220.8</ele>
        <time>2020-03-01T08:38:56.000Z</time>
      </trkpt>
      <trkpt lat="43.56791" lon="6.6599">
        <ele>220</ele>
        <time>2020-03-01T08:39:03.000Z</time>
      </trkpt>
      <trkpt lat="43.56784" lon="6.65982">
        <ele>219.2</ele>
        <time>2020-03-01T08:39:10.000Z</time>
      </trkpt>
      <trkpt lat="43.56778" lon="6.65972">
        <ele>218.9</ele>
        <time>2020-03-01T08:39:18.000Z</time>
      </trkpt>
      <trkpt lat="43.56774" lon="6.65961">
        <ele>218.1</ele>
        <time>2020-03-01T08:39:27.000Z</time>
      </trkpt>
      <trkpt lat="43.56773" lon="6.65947">
        <ele>217.7</ele>
        <time>2020-03-01T08:39:35.000Z</time>
      </trkpt>
      <trkpt lat="43.56764" lon="6.65942">
        <ele>217</ele>
        <time>2020-03-01T08:39:42.000Z</time>
      </trkpt>
      <trkpt lat="43.56761" lon="6.65929">
        <ele>216.4</ele>
        <time>2020-03-01T08:40:03.000Z</time>
      </trkpt>
      <trkpt lat="43.56759" lon="6.65916">
        <ele>215.9</ele>
        <time>2020-03-01T08:40:13.000Z</time>
      </trkpt>
      <trkpt lat="43.56754" lon="6.65905">
        <ele>215.2</ele>
        <time>2020-03-01T08:40:23.000Z</time>
      </trkpt>
      <trkpt lat="43.56748" lon="6.65894">
        <ele>214.3</ele>
        <time>2020-03-01T08:40:32.000Z</time>
      </trkpt>
      <trkpt lat="43.5674" lon="6.65885">
        <ele>213.5</ele>
        <time>2020-03-01T08:40:39.000Z</time>
      </trkpt>
      <trkpt lat="43.56733" lon="6.65875">
        <ele>212.4</ele>
        <time>2020-03-01T08:40:46.000Z</time>
      </trkpt>
      <trkpt lat="43.56727" lon="6.65866">
        <ele>211.9</ele>
        <time>2020-03-01T08:40:53.000Z</time>
      </trkpt>
      <trkpt lat="43.56721" lon="6.65856">
        <ele>210.6</ele>
        <time>2020-03-01T08:41:04.000Z</time>
      </trkpt>
      <trkpt lat="43.56715" lon="6.65845">
        <ele>210</ele>
        <time>2020-03-01T08:41:11.000Z</time>
      </trkpt>
      <trkpt lat="43.56708" lon="6.65837">
        <ele>209.5</ele>
        <time>2020-03-01T08:41:17.000Z</time>
      </trkpt>
      <trkpt lat="43.56699" lon="6.65829">
        <ele>208.9</ele>
        <time>2020-03-01T08:41:24.000Z</time>
      </trkpt>
      <trkpt lat="43.56691" lon="6.65823">
        <ele>208.5</ele>
        <time>2020-03-01T08:41:31.000Z</time>
      </trkpt>
      <trkpt lat="43.56683" lon="6.65816">
        <ele>208</ele>
        <time>2020-03-01T08:41:36.000Z</time>
      </trkpt>
      <trkpt lat="43.56675" lon="6.65808">
        <ele>207.4</ele>
        <time>2020-03-01T08:41:42.000Z</time>
      </trkpt>
      <trkpt lat="43.56667" lon="6.658">
        <ele>207</ele>
        <time>2020-03-01T08:41:48.000Z</time>
      </trkpt>
      <trkpt lat="43.5666" lon="6.65792">
        <ele>206.5</ele>
        <time>2020-03-01T08:41:56.000Z</time>
      </trkpt>
      <trkpt lat="43.56652" lon="6.65784">
        <ele>205.9</ele>
        <time>2020-03-01T08:42:04.000Z</time>
      </trkpt>
      <trkpt lat="43.56644" lon="6.65775">
        <ele>205.4</ele>
        <time>2020-03-01T08:42:12.000Z</time>
      </trkpt>
      <trkpt lat="43.56636" lon="6.65769">
        <ele>205.2</ele>
        <time>2020-03-01T08:42:19.000Z</time>
      </trkpt>
      <trkpt lat="43.56628" lon="6.65762">
        <ele>204.9</ele>
        <time>2020-03-01T08:42:26.000Z</time>
      </trkpt>
      <trkpt lat="43.56621" lon="6.65753">
        <ele>204.7</ele>
        <time>2020-03-01T08:42:34.000Z</time>
      </trkpt>
      <trkpt lat="43.56615" lon="6.65742">
        <ele>204</ele>
        <time>2020-03-01T08:42:43.000Z</time>
      </trkpt>
      <trkpt lat="43.56616" lon="6.65729">
        <ele>203.9</ele>
        <time>2020-03-01T08:42:56.000Z</time>
      </trkpt>
      <trkpt lat="43.5662" lon="6.65717">
        <ele>204.5</ele>
        <time>2020-03-01T08:43:09.000Z</time>
      </trkpt>
      <trkpt lat="43.56627" lon="6.65708">
        <ele>205.3</ele>
        <time>2020-03-01T08:43:20.000Z</time>
      </trkpt>
      <trkpt lat="43.56635" lon="6.65701">
        <ele>206.6</ele>
        <time>2020-03-01T08:43:32.000Z</time>
      </trkpt>
      <trkpt lat="43.56645" lon="6.65697">
        <ele>207.8</ele>
        <time>2020-03-01T08:43:42.000Z</time>
      </trkpt>
      <trkpt lat="43.56654" lon="6.65693">
        <ele>209</ele>
        <time>2020-03-01T08:43:52.000Z</time>
      </trkpt>
      <trkpt lat="43.56664" lon="6.65691">
        <ele>210.5</ele>
        <time>2020-03-01T08:44:02.000Z</time>
      </trkpt>
      <trkpt lat="43.56673" lon="6.65689">
        <ele>211.7</ele>
        <time>2020-03-01T08:44:11.000Z</time>
      </trkpt>
      <trkpt lat="43.56683" lon="6.65687">
        <ele>212.9</ele>
        <time>2020-03-01T08:44:21.000Z</time>
      </trkpt>
      <trkpt lat="43.56692" lon="6.65685">
        <ele>214.1</ele>
        <time>2020-03-01T08:44:30.000Z</time>
      </trkpt>
      <trkpt lat="43.56702" lon="6.65683">
        <ele>215.7</ele>
        <time>2020-03-01T08:44:41.000Z</time>
      </trkpt>
      <trkpt lat="43.56711" lon="6.6568">
        <ele>216.4</ele>
        <time>2020-03-01T08:44:51.000Z</time>
      </trkpt>
      <trkpt lat="43.56719" lon="6.65675">
        <ele>217.1</ele>
        <time>2020-03-01T08:44:59.000Z</time>
      </trkpt>
      <trkpt lat="43.56728" lon="6.65669">
        <ele>217.7</ele>
        <time>2020-03-01T08:45:07.000Z</time>
      </trkpt>
      <trkpt lat="43.56735" lon="6.6566">
        <ele>218.2</ele>
        <time>2020-03-01T08:45:15.000Z</time>
      </trkpt>
      <trkpt lat="43.56741" lon="6.65651">
        <ele>218.8</ele>
        <time>2020-03-01T08:45:23.000Z</time>
      </trkpt>
      <trkpt lat="43.56748" lon="6.65642">
        <ele>219.5</ele>
        <time>2020-03-01T08:45:31.000Z</time>
      </trkpt>
      <trkpt lat="43.56755" lon="6.65634">
        <ele>220.4</ele>
        <time>2020-03-01T08:45:39.000Z</time>
      </trkpt>
      <trkpt lat="43.56762" lon="6.65626">
        <ele>221.3</ele>
        <time>2020-03-01T08:45:47.000Z</time>
      </trkpt>
      <trkpt lat="43.56769" lon="6.65618">
        <ele>222.2</ele>
        <time>2020-03-01T08:45:55.000Z</time>
      </trkpt>
      <trkpt lat="43.56778" lon="6.6561">
        <ele>223</ele>
        <time>2020-03-01T08:46:03.000Z</time>
      </trkpt>
      <trkpt lat="43.56784" lon="6.65601">
        <ele>223.4</ele>
        <time>2020-03-01T08:46:11.000Z</time>
      </trkpt>
      <trkpt lat="43.56791" lon="6.65592">
        <ele>224.1</ele>
        <time>2020-03-01T08:46:18.000Z</time>
      </trkpt>
      <trkpt lat="43.56797" lon="6.6558">
        <ele>224.3</ele>
        <time>2020-03-01T08:46:26.000Z</time>
      </trkpt>
      <trkpt lat="43.56802" lon="6.65571">
        <ele>224.2</ele>
        <time>2020-03-01T08:46:33.000Z</time>
      </trkpt>
      <trkpt lat="43.56808" lon="6.6556">
        <ele>224</ele>
        <time>2020-03-01T08:46:40.000Z</time>
      </trkpt>
      <trkpt lat="43.56813" lon="6.65549">
        <ele>223.9</ele>
        <time>2020-03-01T08:46:49.000Z</time>
      </trkpt>
      <trkpt lat="43.56817" lon="6.65537">
        <ele>224</ele>
        <time>2020-03-01T08:46:56.000Z</time>
      </trkpt>
      <trkpt lat="43.56821" lon="6.65524">
        <ele>224.4</ele>
        <time>2020-03-01T08:47:04.000Z</time>
      </trkpt>
      <trkpt lat="43.56826" lon="6.65512">
        <ele>224.6</ele>
        <time>2020-03-01T08:47:12.000Z</time>
      </trkpt>
      <trkpt lat="43.56829" lon="6.655">
        <ele>224.9</ele>
        <time>2020-03-01T08:47:20.000Z</time>
      </trkpt>
      <trkpt lat="43.56834" lon="6.65488">
        <ele>225.1</ele>
        <time>2020-03-01T08:47:29.000Z</time>
      </trkpt>
      <trkpt lat="43.5684" lon="6.65477">
        <ele>225.7</ele>
        <time>2020-03-01T08:47:37.000Z</time>
      </trkpt>
      <trkpt lat="43.56843" lon="6.65466">
        <ele>226.2</ele>
        <time>2020-03-01T08:47:46.000Z</time>
      </trkpt>
      <trkpt lat="43.56836" lon="6.65458">
        <ele>226.2</ele>
        <time>2020-03-01T08:48:05.000Z</time>
      </trkpt>
      <trkpt lat="43.56842" lon="6.6545">
        <ele>225.7</ele>
        <time>2020-03-01T08:48:50.000Z</time>
      </trkpt>
      <trkpt lat="43.56846" lon="6.65438">
        <ele>226.1</ele>
        <time>2020-03-01T08:49:35.000Z</time>
      </trkpt>
      <trkpt lat="43.5685" lon="6.65427">
        <ele>225.7</ele>
        <time>2020-03-01T08:49:43.000Z</time>
      </trkpt>
      <trkpt lat="43.56853" lon="6.65414">
        <ele>225.5</ele>
        <time>2020-03-01T08:49:50.000Z</time>
      </trkpt>
      <trkpt lat="43.56856" lon="6.65402">
        <ele>225.1</ele>
        <time>2020-03-01T08:49:58.000Z</time>
      </trkpt>
      <trkpt lat="43.56858" lon="6.65388">
        <ele>224.6</ele>
        <time>2020-03-01T08:50:06.000Z</time>
      </trkpt>
      <trkpt lat="43.56862" lon="6.65377">
        <ele>224.2</ele>
        <time>2020-03-01T08:50:13.000Z</time>
      </trkpt>
      <trkpt lat="43.56864" lon="6.65364">
        <ele>224.3</ele>
        <time>2020-03-01T08:50:21.000Z</time>
      </trkpt>
      <trkpt lat="43.56868" lon="6.65351">
        <ele>223.9</ele>
        <time>2020-03-01T08:50:29.000Z</time>
      </trkpt>
      <trkpt lat="43.5687" lon="6.65338">
        <ele>223.6</ele>
        <time>2020-03-01T08:50:37.000Z</time>
      </trkpt>
      <trkpt lat="43.56872" lon="6.65325">
        <ele>222.7</ele>
        <time>2020-03-01T08:50:45.000Z</time>
      </trkpt>
      <trkpt lat="43.5688" lon="6.65315">
        <ele>222.9</ele>
        <time>2020-03-01T08:50:53.000Z</time>
      </trkpt>
      <trkpt lat="43.56885" lon="6.65304">
        <ele>222.7</ele>
        <time>2020-03-01T08:51:01.000Z</time>
      </trkpt>
      <trkpt lat="43.56889" lon="6.65292">
        <ele>222.1</ele>
        <time>2020-03-01T08:51:08.000Z</time>
      </trkpt>
      <trkpt lat="43.56888" lon="6.6528">
        <ele>221</ele>
        <time>2020-03-01T08:51:16.000Z</time>
      </trkpt>
      <trkpt lat="43.56888" lon="6.65266">
        <ele>220.9</ele>
        <time>2020-03-01T08:51:23.000Z</time>
      </trkpt>
      <trkpt lat="43.56882" lon="6.65256">
        <ele>219.9</ele>
        <time>2020-03-01T08:51:28.000Z</time>
      </trkpt>
      <trkpt lat="43.56878" lon="6.65244">
        <ele>218.9</ele>
        <time>2020-03-01T08:51:35.000Z</time>
      </trkpt>
      <trkpt lat="43.56877" lon="6.65231">
        <ele>218.1</ele>
        <time>2020-03-01T08:51:44.000Z</time>
      </trkpt>
      <trkpt lat="43.56874" lon="6.65218">
        <ele>217.6</ele>
        <time>2020-03-01T08:51:51.000Z</time>
      </trkpt>
      <trkpt lat="43.56872" lon="6.65204">
        <ele>217.1</ele>
        <time>2020-03-01T08:51:59.000Z</time>
      </trkpt>
      <trkpt lat="43.56871" lon="6.65191">
        <ele>216.3</ele>
        <time>2020-03-01T08:52:08.000Z</time>
      </trkpt>
      <trkpt lat="43.56872" lon="6.65177">
        <ele>215.8</ele>
        <time>2020-03-01T08:52:16.000Z</time>
      </trkpt>
      <trkpt lat="43.56876" lon="6.65166">
        <ele>216.2</ele>
        <time>2020-03-01T08:52:23.000Z</time>
      </trkpt>
      <trkpt lat="43.56878" lon="6.65153">
        <ele>215.9</ele>
        <time>2020-03-01T08:52:32.000Z</time>
      </trkpt>
      <trkpt lat="43.56877" lon="6.65139">
        <ele>216.2</ele>
        <time>2020-03-01T08:52:39.000Z</time>
      </trkpt>
      <trkpt lat="43.56878" lon="6.65126">
        <ele>216.3</ele>
        <time>2020-03-01T08:52:48.000Z</time>
      </trkpt>
      <trkpt lat="43.56881" lon="6.65112">
        <ele>216.2</ele>
        <time>2020-03-01T08:52:56.000Z</time>
      </trkpt>
      <trkpt lat="43.5688" lon="6.65099">
        <ele>216.1</ele>
        <time>2020-03-01T08:53:03.000Z</time>
      </trkpt>
      <trkpt lat="43.5688" lon="6.65085">
        <ele>215.8</ele>
        <time>2020-03-01T08:53:11.000Z</time>
      </trkpt>
      <trkpt lat="43.56881" lon="6.65072">
        <ele>215.3</ele>
        <time>2020-03-01T08:53:20.000Z</time>
      </trkpt>
      <trkpt lat="43.56883" lon="6.65059">
        <ele>214</ele>
        <time>2020-03-01T08:53:47.000Z</time>
      </trkpt>
      <trkpt lat="43.56884" lon="6.65047">
        <ele>213.5</ele>
        <time>2020-03-01T08:53:56.000Z</time>
      </trkpt>
      <trkpt lat="43.56887" lon="6.65034">
        <ele>213.1</ele>
        <time>2020-03-01T08:54:06.000Z</time>
      </trkpt>
      <trkpt lat="43.5689" lon="6.65022">
        <ele>212.6</ele>
        <time>2020-03-01T08:54:15.000Z</time>
      </trkpt>
      <trkpt lat="43.56892" lon="6.65009">
        <ele>212.7</ele>
        <time>2020-03-01T08:54:23.000Z</time>
      </trkpt>
      <trkpt lat="43.56891" lon="6.64996">
        <ele>212.3</ele>
        <time>2020-03-01T08:54:30.000Z</time>
      </trkpt>
      <trkpt lat="43.56889" lon="6.64983">
        <ele>212</ele>
        <time>2020-03-01T08:54:37.000Z</time>
      </trkpt>
      <trkpt lat="43.56886" lon="6.64972">
        <ele>211.3</ele>
        <time>2020-03-01T08:54:44.000Z</time>
      </trkpt>
      <trkpt lat="43.56885" lon="6.64958">
        <ele>210.7</ele>
        <time>2020-03-01T08:54:52.000Z</time>
      </trkpt>
      <trkpt lat="43.56887" lon="6.64945">
        <ele>210.2</ele>
        <time>2020-03-01T08:55:00.000Z</time>
      </trkpt>
      <trkpt lat="43.56888" lon="6.64931">
        <ele>210</ele>
        <time>2020-03-01T08:55:09.000Z</time>
      </trkpt>
      <trkpt lat="43.56889" lon="6.64918">
        <ele>209.5</ele>
        <time>2020-03-01T08:55:17.000Z</time>
      </trkpt>
      <trkpt lat="43.56885" lon="6.64905">
        <ele>209.3</ele>
        <time>2020-03-01T08:55:23.000Z</time>
      </trkpt>
      <trkpt lat="43.56881" lon="6.64894">
        <ele>209.1</ele>
        <time>2020-03-01T08:55:29.000Z</time>
      </trkpt>
      <trkpt lat="43.56878" lon="6.64881">
        <ele>208.9</ele>
        <time>2020-03-01T08:55:37.000Z</time>
      </trkpt>
      <trkpt lat="43.56874" lon="6.64868">
        <ele>208.6</ele>
        <time>2020-03-01T08:55:45.000Z</time>
      </trkpt>
      <trkpt lat="43.56871" lon="6.64854">
        <ele>207.9</ele>
        <time>2020-03-01T08:55:53.000Z</time>
      </trkpt>
      <trkpt lat="43.56867" lon="6.64842">
        <ele>207.8</ele>
        <time>2020-03-01T08:56:00.000Z</time>
      </trkpt>
      <trkpt lat="43.56867" lon="6.64828">
        <ele>207.3</ele>
        <time>2020-03-01T08:56:09.000Z</time>
      </trkpt>
      <trkpt lat="43.56864" lon="6.64815">
        <ele>206.7</ele>
        <time>2020-03-01T08:56:18.000Z</time>
      </trkpt>
      <trkpt lat="43.56863" lon="6.64801">
        <ele>206.4</ele>
        <time>2020-03-01T08:56:26.000Z</time>
      </trkpt>
      <trkpt lat="43.56858" lon="6.64789">
        <ele>206.2</ele>
        <time>2020-03-01T08:56:33.000Z</time>
      </trkpt>
      <trkpt lat="43.56857" lon="6.64775">
        <ele>206</ele>
        <time>2020-03-01T08:56:41.000Z</time>
      </trkpt>
      <trkpt lat="43.56853" lon="6.64764">
        <ele>205.7</ele>
        <time>2020-03-01T08:56:47.000Z</time>
      </trkpt>
      <trkpt lat="43.56849" lon="6.64753">
        <ele>205.6</ele>
        <time>2020-03-01T08:57:00.000Z</time>
      </trkpt>
      <trkpt lat="43.5684" lon="6.64754">
        <ele>205.6</ele>
        <time>2020-03-01T08:57:30.000Z</time>
      </trkpt>
      <trkpt lat="43.56836" lon="6.64766">
        <ele>205.3</ele>
        <time>2020-03-01T08:57:54.000Z</time>
      </trkpt>
      <trkpt lat="43.56828" lon="6.64761">
        <ele>205.7</ele>
        <time>2020-03-01T08:58:11.000Z</time>
      </trkpt>
      <trkpt lat="43.56824" lon="6.64749">
        <ele>206.3</ele>
        <time>2020-03-01T08:58:24.000Z</time>
      </trkpt>
      <trkpt lat="43.56817" lon="6.6474">
        <ele>207.4</ele>
        <time>2020-03-01T08:58:39.000Z</time>
      </trkpt>
      <trkpt lat="43.56809" lon="6.64734">
        <ele>209</ele>
        <time>2020-03-01T08:58:52.000Z</time>
      </trkpt>
      <trkpt lat="43.568" lon="6.64729">
        <ele>210.3</ele>
        <time>2020-03-01T08:59:03.000Z</time>
      </trkpt>
      <trkpt lat="43.56791" lon="6.64726">
        <ele>211.4</ele>
        <time>2020-03-01T08:59:14.000Z</time>
      </trkpt>
      <trkpt lat="43.56783" lon="6.64719">
        <ele>213.1</ele>
        <time>2020-03-01T08:59:28.000Z</time>
      </trkpt>
      <trkpt lat="43.56777" lon="6.6471">
        <ele>215</ele>
        <time>2020-03-01T08:59:41.000Z</time>
      </trkpt>
      <trkpt lat="43.5677" lon="6.647">
        <ele>216.1</ele>
        <time>2020-03-01T08:59:49.000Z</time>
      </trkpt>
      <trkpt lat="43.56761" lon="6.647">
        <ele>219.2</ele>
        <time>2020-03-01T09:00:06.000Z</time>
      </trkpt>
      <trkpt lat="43.56752" lon="6.64703">
        <ele>221.2</ele>
        <time>2020-03-01T09:00:16.000Z</time>
      </trkpt>
      <trkpt lat="43.56743" lon="6.64706">
        <ele>223.7</ele>
        <time>2020-03-01T09:00:31.000Z</time>
      </trkpt>
      <trkpt lat="43.56734" lon="6.64703">
        <ele>224.7</ele>
        <time>2020-03-01T09:00:39.000Z</time>
      </trkpt>
      <trkpt lat="43.56724" lon="6.64703">
        <ele>226.4</ele>
        <time>2020-03-01T09:00:51.000Z</time>
      </trkpt>
      <trkpt lat="43.56714" lon="6.64704">
        <ele>228.4</ele>
        <time>2020-03-01T09:01:03.000Z</time>
      </trkpt>
      <trkpt lat="43.56705" lon="6.64707">
        <ele>229.8</ele>
        <time>2020-03-01T09:01:12.000Z</time>
      </trkpt>
      <trkpt lat="43.56695" lon="6.64711">
        <ele>230.9</ele>
        <time>2020-03-01T09:01:19.000Z</time>
      </trkpt>
      <trkpt lat="43.56687" lon="6.64719">
        <ele>232.1</ele>
        <time>2020-03-01T09:01:28.000Z</time>
      </trkpt>
      <trkpt lat="43.56682" lon="6.6473">
        <ele>233.1</ele>
        <time>2020-03-01T09:01:35.000Z</time>
      </trkpt>
      <trkpt lat="43.56675" lon="6.6474">
        <ele>234.2</ele>
        <time>2020-03-01T09:01:45.000Z</time>
      </trkpt>
      <trkpt lat="43.56666" lon="6.64746">
        <ele>235.5</ele>
        <time>2020-03-01T09:01:55.000Z</time>
      </trkpt>
      <trkpt lat="43.56658" lon="6.64753">
        <ele>236.7</ele>
        <time>2020-03-01T09:02:06.000Z</time>
      </trkpt>
      <trkpt lat="43.5665" lon="6.64759">
        <ele>237</ele>
        <time>2020-03-01T09:02:15.000Z</time>
      </trkpt>
      <trkpt lat="43.5664" lon="6.6476">
        <ele>238</ele>
        <time>2020-03-01T09:02:23.000Z</time>
      </trkpt>
      <trkpt lat="43.56631" lon="6.64753">
        <ele>238.9</ele>
        <time>2020-03-01T09:02:35.000Z</time>
      </trkpt>
      <trkpt lat="43.56625" lon="6.64744">
        <ele>239.4</ele>
        <time>2020-03-01T09:03:00.000Z</time>
      </trkpt>
      <trkpt lat="43.5663" lon="6.64734">
        <ele>238.4</ele>
        <time>2020-03-01T09:03:15.000Z</time>
      </trkpt>
      <trkpt lat="43.56626" lon="6.64721">
        <ele>237.8</ele>
        <time>2020-03-01T09:03:26.000Z</time>
      </trkpt>
      <trkpt lat="43.56627" lon="6.64707">
        <ele>237.6</ele>
        <time>2020-03-01T09:03:35.000Z</time>
      </trkpt>
      <trkpt lat="43.5663" lon="6.64695">
        <ele>237.1</ele>
        <time>2020-03-01T09:03:45.000Z</time>
      </trkpt>
      <trkpt lat="43.56634" lon="6.64683">
        <ele>236.8</ele>
        <time>2020-03-01T09:03:55.000Z</time>
      </trkpt>
      <trkpt lat="43.56637" lon="6.64671">
        <ele>237</ele>
        <time>2020-03-01T09:04:03.000Z</time>
      </trkpt>
      <trkpt lat="43.56638" lon="6.64659">
        <ele>237</ele>
        <time>2020-03-01T09:04:11.000Z</time>
      </trkpt>
      <trkpt lat="43.56641" lon="6.64646">
        <ele>237</ele>
        <time>2020-03-01T09:04:19.000Z</time>
      </trkpt>
      <trkpt lat="43.56643" lon="6.64634">
        <ele>236.9</ele>
        <time>2020-03-01T09:04:27.000Z</time>
      </trkpt>
      <trkpt lat="43.56645" lon="6.64621">
        <ele>236.7</ele>
        <time>2020-03-01T09:04:36.000Z</time>
      </trkpt>
      <trkpt lat="43.56642" lon="6.64609">
        <ele>236.5</ele>
        <time>2020-03-01T09:04:44.000Z</time>
      </trkpt>
      <trkpt lat="43.56641" lon="6.64596">
        <ele>235.7</ele>
        <time>2020-03-01T09:04:53.000Z</time>
      </trkpt>
      <trkpt lat="43.56636" lon="6.64585">
        <ele>234.8</ele>
        <time>2020-03-01T09:05:00.000Z</time>
      </trkpt>
      <trkpt lat="43.56632" lon="6.64572">
        <ele>233.3</ele>
        <time>2020-03-01T09:05:09.000Z</time>
      </trkpt>
      <trkpt lat="43.56631" lon="6.64559">
        <ele>232.1</ele>
        <time>2020-03-01T09:05:15.000Z</time>
      </trkpt>
      <trkpt lat="43.56632" lon="6.64546">
        <ele>230.8</ele>
        <time>2020-03-01T09:05:24.000Z</time>
      </trkpt>
      <trkpt lat="43.56631" lon="6.64532">
        <ele>229.8</ele>
        <time>2020-03-01T09:05:34.000Z</time>
      </trkpt>
      <trkpt lat="43.5663" lon="6.64519">
        <ele>228.5</ele>
        <time>2020-03-01T09:05:44.000Z</time>
      </trkpt>
      <trkpt lat="43.56629" lon="6.64507">
        <ele>227.5</ele>
        <time>2020-03-01T09:05:52.000Z</time>
      </trkpt>
      <trkpt lat="43.56631" lon="6.64494">
        <ele>225.8</ele>
        <time>2020-03-01T09:06:06.000Z</time>
      </trkpt>
      <trkpt lat="43.56624" lon="6.64484">
        <ele>224.3</ele>
        <time>2020-03-01T09:06:30.000Z</time>
      </trkpt>
      <trkpt lat="43.56618" lon="6.64473">
        <ele>222.6</ele>
        <time>2020-03-01T09:07:28.000Z</time>
      </trkpt>
      <trkpt lat="43.56621" lon="6.64485">
        <ele>225</ele>
        <time>2020-03-01T09:09:49.000Z</time>
      </trkpt>
      <trkpt lat="43.56617" lon="6.64496">
        <ele>226.2</ele>
        <time>2020-03-01T09:10:02.000Z</time>
      </trkpt>
      <trkpt lat="43.5661" lon="6.64506">
        <ele>225.6</ele>
        <time>2020-03-01T09:10:15.000Z</time>
      </trkpt>
      <trkpt lat="43.56602" lon="6.6451">
        <ele>224.9</ele>
        <time>2020-03-01T09:10:26.000Z</time>
      </trkpt>
      <trkpt lat="43.56594" lon="6.64518">
        <ele>224.6</ele>
        <time>2020-03-01T09:10:34.000Z</time>
      </trkpt>
      <trkpt lat="43.56588" lon="6.64527">
        <ele>225.1</ele>
        <time>2020-03-01T09:10:43.000Z</time>
      </trkpt>
      <trkpt lat="43.56585" lon="6.6454">
        <ele>224.5</ele>
        <time>2020-03-01T09:10:57.000Z</time>
      </trkpt>
      <trkpt lat="43.56581" lon="6.64553">
        <ele>223.8</ele>
        <time>2020-03-01T09:11:08.000Z</time>
      </trkpt>
      <trkpt lat="43.56577" lon="6.64564">
        <ele>223.7</ele>
        <time>2020-03-01T09:11:25.000Z</time>
      </trkpt>
      <trkpt lat="43.56573" lon="6.64576">
        <ele>221</ele>
        <time>2020-03-01T09:11:41.000Z</time>
      </trkpt>
      <trkpt lat="43.56569" lon="6.64587">
        <ele>220</ele>
        <time>2020-03-01T09:12:15.000Z</time>
      </trkpt>
      <trkpt lat="43.56561" lon="6.64594">
        <ele>216.9</ele>
        <time>2020-03-01T09:12:27.000Z</time>
      </trkpt>
      <trkpt lat="43.56551" lon="6.64592">
        <ele>214.5</ele>
        <time>2020-03-01T09:12:37.000Z</time>
      </trkpt>
      <trkpt lat="43.56545" lon="6.64584">
        <ele>210.2</ele>
        <time>2020-03-01T09:13:39.000Z</time>
      </trkpt>
      <trkpt lat="43.56535" lon="6.64583">
        <ele>206.5</ele>
        <time>2020-03-01T09:13:59.000Z</time>
      </trkpt>
      <trkpt lat="43.56526" lon="6.64588">
        <ele>204</ele>
        <time>2020-03-01T09:14:12.000Z</time>
      </trkpt>
      <trkpt lat="43.56517" lon="6.64593">
        <ele>201.5</ele>
        <time>2020-03-01T09:14:24.000Z</time>
      </trkpt>
      <trkpt lat="43.56508" lon="6.64595">
        <ele>197.5</ele>
        <time>2020-03-01T09:14:44.000Z</time>
      </trkpt>
      <trkpt lat="43.56501" lon="6.64604">
        <ele>194.1</ele>
        <time>2020-03-01T09:15:17.000Z</time>
      </trkpt>
      <trkpt lat="43.56499" lon="6.64592">
        <ele>193</ele>
        <time>2020-03-01T09:15:55.000Z</time>
      </trkpt>
      <trkpt lat="43.56505" lon="6.64582">
        <ele>191.9</ele>
        <time>2020-03-01T09:17:09.000Z</time>
      </trkpt>
      <trkpt lat="43.5651" lon="6.64571">
        <ele>192.7</ele>
        <time>2020-03-01T09:17:24.000Z</time>
      </trkpt>
      <trkpt lat="43.56514" lon="6.6456">
        <ele>193.5</ele>
        <time>2020-03-01T09:17:34.000Z</time>
      </trkpt>
      <trkpt lat="43.5652" lon="6.64549">
        <ele>195.1</ele>
        <time>2020-03-01T09:17:46.000Z</time>
      </trkpt>
      <trkpt lat="43.56527" lon="6.64542">
        <ele>197.2</ele>
        <time>2020-03-01T09:17:59.000Z</time>
      </trkpt>
      <trkpt lat="43.56529" lon="6.64529">
        <ele>197.9</ele>
        <time>2020-03-01T09:18:17.000Z</time>
      </trkpt>
      <trkpt lat="43.56522" lon="6.64537">
        <ele>197.2</ele>
        <time>2020-03-01T09:18:37.000Z</time>
      </trkpt>
      <trkpt lat="43.56513" lon="6.64542">
        <ele>195.2</ele>
        <time>2020-03-01T09:18:47.000Z</time>
      </trkpt>
      <trkpt lat="43.56503" lon="6.64542">
        <ele>191.9</ele>
        <time>2020-03-01T09:19:01.000Z</time>
      </trkpt>
      <trkpt lat="43.56506" lon="6.6453">
        <ele>189.6</ele>
        <time>2020-03-01T09:19:19.000Z</time>
      </trkpt>
      <trkpt lat="43.56504" lon="6.64517">
        <ele>190.8</ele>
        <time>2020-03-01T09:19:50.000Z</time>
      </trkpt>
      <trkpt lat="43.56508" lon="6.64505">
        <ele>193.8</ele>
        <time>2020-03-01T09:20:06.000Z</time>
      </trkpt>
      <trkpt lat="43.56515" lon="6.64498">
        <ele>197.5</ele>
        <time>2020-03-01T09:20:26.000Z</time>
      </trkpt>
      <trkpt lat="43.56524" lon="6.64497">
        <ele>199.7</ele>
        <time>2020-03-01T09:20:42.000Z</time>
      </trkpt>
      <trkpt lat="43.56532" lon="6.64486">
        <ele>200.6</ele>
        <time>2020-03-01T09:21:18.000Z</time>
      </trkpt>
      <trkpt lat="43.56541" lon="6.64485">
        <ele>200.4</ele>
        <time>2020-03-01T09:21:44.000Z</time>
      </trkpt>
      <trkpt lat="43.56549" lon="6.64477">
        <ele>201.9</ele>
        <time>2020-03-01T09:22:04.000Z</time>
      </trkpt>
      <trkpt lat="43.56556" lon="6.64469">
        <ele>203.3</ele>
        <time>2020-03-01T09:22:21.000Z</time>
      </trkpt>
      <trkpt lat="43.56562" lon="6.64458">
        <ele>204.2</ele>
        <time>2020-03-01T09:22:33.000Z</time>
      </trkpt>
      <trkpt lat="43.56568" lon="6.64448">
        <ele>204.7</ele>
        <time>2020-03-01T09:22:44.000Z</time>
      </trkpt>
      <trkpt lat="43.56575" lon="6.64439">
        <ele>206.2</ele>
        <time>2020-03-01T09:22:56.000Z</time>
      </trkpt>
      <trkpt lat="43.56582" lon="6.6443">
        <ele>207.2</ele>
        <time>2020-03-01T09:23:05.000Z</time>
      </trkpt>
      <trkpt lat="43.56589" lon="6.64421">
        <ele>207.9</ele>
        <time>2020-03-01T09:23:14.000Z</time>
      </trkpt>
      <trkpt lat="43.56594" lon="6.64411">
        <ele>208.4</ele>
        <time>2020-03-01T09:23:25.000Z</time>
      </trkpt>
      <trkpt lat="43.56599" lon="6.644">
        <ele>208.7</ele>
        <time>2020-03-01T09:23:34.000Z</time>
      </trkpt>
      <trkpt lat="43.56603" lon="6.64389">
        <ele>208.7</ele>
        <time>2020-03-01T09:23:43.000Z</time>
      </trkpt>
      <trkpt lat="43.56604" lon="6.64376">
        <ele>208.7</ele>
        <time>2020-03-01T09:23:53.000Z</time>
      </trkpt>
      <trkpt lat="43.566" lon="6.64363">
        <ele>209.3</ele>
        <time>2020-03-01T09:24:11.000Z</time>
      </trkpt>
      <trkpt lat="43.56596" lon="6.64351">
        <ele>209.8</ele>
        <time>2020-03-01T09:24:19.000Z</time>
      </trkpt>
      <trkpt lat="43.56592" lon="6.6434">
        <ele>209.9</ele>
        <time>2020-03-01T09:24:28.000Z</time>
      </trkpt>
      <trkpt lat="43.5659" lon="6.64327">
        <ele>210.2</ele>
        <time>2020-03-01T09:24:36.000Z</time>
      </trkpt>
      <trkpt lat="43.56588" lon="6.64314">
        <ele>210.3</ele>
        <time>2020-03-01T09:24:45.000Z</time>
      </trkpt>
      <trkpt lat="43.56584" lon="6.64301">
        <ele>210.5</ele>
        <time>2020-03-01T09:24:54.000Z</time>
      </trkpt>
      <trkpt lat="43.56581" lon="6.64288">
        <ele>210.3</ele>
        <time>2020-03-01T09:25:02.000Z</time>
      </trkpt>
      <trkpt lat="43.56577" lon="6.64277">
        <ele>210.4</ele>
        <time>2020-03-01T09:25:10.000Z</time>
      </trkpt>
      <trkpt lat="43.56576" lon="6.64264">
        <ele>210.6</ele>
        <time>2020-03-01T09:25:18.000Z</time>
      </trkpt>
      <trkpt lat="43.56575" lon="6.64251">
        <ele>210.9</ele>
        <time>2020-03-01T09:25:26.000Z</time>
      </trkpt>
      <trkpt lat="43.56573" lon="6.64238">
        <ele>210.8</ele>
        <time>2020-03-01T09:25:34.000Z</time>
      </trkpt>
      <trkpt lat="43.56568" lon="6.64227">
        <ele>210.7</ele>
        <time>2020-03-01T09:25:42.000Z</time>
      </trkpt>
      <trkpt lat="43.56561" lon="6.64218">
        <ele>210.6</ele>
        <time>2020-03-01T09:25:51.000Z</time>
      </trkpt>
      <trkpt lat="43.56554" lon="6.6421">
        <ele>210.7</ele>
        <time>2020-03-01T09:26:00.000Z</time>
      </trkpt>
      <trkpt lat="43.56545" lon="6.64204">
        <ele>210.3</ele>
        <time>2020-03-01T09:26:26.000Z</time>
      </trkpt>
      <trkpt lat="43.56537" lon="6.64199">
        <ele>210</ele>
        <time>2020-03-01T09:26:40.000Z</time>
      </trkpt>
      <trkpt lat="43.56528" lon="6.64195">
        <ele>208.9</ele>
        <time>2020-03-01T09:26:51.000Z</time>
      </trkpt>
      <trkpt lat="43.56519" lon="6.64189">
        <ele>207.9</ele>
        <time>2020-03-01T09:27:03.000Z</time>
      </trkpt>
      <trkpt lat="43.5651" lon="6.64184">
        <ele>206.8</ele>
        <time>2020-03-01T09:27:14.000Z</time>
      </trkpt>
      <trkpt lat="43.56502" lon="6.6418">
        <ele>205.5</ele>
        <time>2020-03-01T09:27:28.000Z</time>
      </trkpt>
      <trkpt lat="43.56498" lon="6.64169">
        <ele>204.5</ele>
        <time>2020-03-01T09:28:10.000Z</time>
      </trkpt>
      <trkpt lat="43.565" lon="6.64156">
        <ele>204.4</ele>
        <time>2020-03-01T09:28:21.000Z</time>
      </trkpt>
      <trkpt lat="43.565" lon="6.64143">
        <ele>204.3</ele>
        <time>2020-03-01T09:28:31.000Z</time>
      </trkpt>
      <trkpt lat="43.565" lon="6.6413">
        <ele>204</ele>
        <time>2020-03-01T09:28:40.000Z</time>
      </trkpt>
      <trkpt lat="43.565" lon="6.64116">
        <ele>204.1</ele>
        <time>2020-03-01T09:28:49.000Z</time>
      </trkpt>
      <trkpt lat="43.56501" lon="6.64104">
        <ele>203.8</ele>
        <time>2020-03-01T09:28:57.000Z</time>
      </trkpt>
      <trkpt lat="43.56501" lon="6.64091">
        <ele>203.9</ele>
        <time>2020-03-01T09:29:07.000Z</time>
      </trkpt>
      <trkpt lat="43.56499" lon="6.64078">
        <ele>204.3</ele>
        <time>2020-03-01T09:29:19.000Z</time>
      </trkpt>
      <trkpt lat="43.56501" lon="6.64065">
        <ele>204.7</ele>
        <time>2020-03-01T09:30:40.000Z</time>
      </trkpt>
      <trkpt lat="43.56503" lon="6.64052">
        <ele>210.7</ele>
        <time>2020-03-01T09:31:06.000Z</time>
      </trkpt>
      <trkpt lat="43.56507" lon="6.64042">
        <ele>212.9</ele>
        <time>2020-03-01T09:31:31.000Z</time>
      </trkpt>
      <trkpt lat="43.56505" lon="6.64029">
        <ele>213.3</ele>
        <time>2020-03-01T09:33:12.000Z</time>
      </trkpt>
      <trkpt lat="43.56513" lon="6.64021">
        <ele>214.4</ele>
        <time>2020-03-01T09:37:23.000Z</time>
      </trkpt>
      <trkpt lat="43.56517" lon="6.6401">
        <ele>215.4</ele>
        <time>2020-03-01T09:37:35.000Z</time>
      </trkpt>
      <trkpt lat="43.56522" lon="6.63998">
        <ele>215.9</ele>
        <time>2020-03-01T09:37:45.000Z</time>
      </trkpt>
      <trkpt lat="43.56526" lon="6.63987">
        <ele>216.8</ele>
        <time>2020-03-01T09:37:54.000Z</time>
      </trkpt>
      <trkpt lat="43.5653" lon="6.63975">
        <ele>217.8</ele>
        <time>2020-03-01T09:38:04.000Z</time>
      </trkpt>
      <trkpt lat="43.56534" lon="6.63963">
        <ele>218.8</ele>
        <time>2020-03-01T09:38:11.000Z</time>
      </trkpt>
      <trkpt lat="43.56537" lon="6.63951">
        <ele>220.1</ele>
        <time>2020-03-01T09:38:18.000Z</time>
      </trkpt>
      <trkpt lat="43.56539" lon="6.63939">
        <ele>221.2</ele>
        <time>2020-03-01T09:38:26.000Z</time>
      </trkpt>
      <trkpt lat="43.56543" lon="6.63926">
        <ele>222.2</ele>
        <time>2020-03-01T09:38:34.000Z</time>
      </trkpt>
      <trkpt lat="43.56549" lon="6.63917">
        <ele>223.1</ele>
        <time>2020-03-01T09:38:42.000Z</time>
      </trkpt>
      <trkpt lat="43.56554" lon="6.63906">
        <ele>223.6</ele>
        <time>2020-03-01T09:38:50.000Z</time>
      </trkpt>
      <trkpt lat="43.5656" lon="6.63896">
        <ele>224.9</ele>
        <time>2020-03-01T09:38:58.000Z</time>
      </trkpt>
      <trkpt lat="43.56566" lon="6.63887">
        <ele>226.3</ele>
        <time>2020-03-01T09:39:06.000Z</time>
      </trkpt>
      <trkpt lat="43.56574" lon="6.63879">
        <ele>227.6</ele>
        <time>2020-03-01T09:39:15.000Z</time>
      </trkpt>
      <trkpt lat="43.56584" lon="6.63876">
        <ele>228.8</ele>
        <time>2020-03-01T09:39:24.000Z</time>
      </trkpt>
      <trkpt lat="43.56594" lon="6.63876">
        <ele>229.9</ele>
        <time>2020-03-01T09:39:36.000Z</time>
      </trkpt>
      <trkpt lat="43.56603" lon="6.63879">
        <ele>230.5</ele>
        <time>2020-03-01T09:39:45.000Z</time>
      </trkpt>
      <trkpt lat="43.56611" lon="6.63873">
        <ele>231.4</ele>
        <time>2020-03-01T09:39:59.000Z</time>
      </trkpt>
      <trkpt lat="43.5662" lon="6.63879">
        <ele>231.8</ele>
        <time>2020-03-01T09:40:11.000Z</time>
      </trkpt>
      <trkpt lat="43.56629" lon="6.63881">
        <ele>232.9</ele>
        <time>2020-03-01T09:40:21.000Z</time>
      </trkpt>
      <trkpt lat="43.56638" lon="6.63877">
        <ele>233.6</ele>
        <time>2020-03-01T09:40:29.000Z</time>
      </trkpt>
      <trkpt lat="43.56644" lon="6.63869">
        <ele>234.7</ele>
        <time>2020-03-01T09:40:40.000Z</time>
      </trkpt>
      <trkpt lat="43.5665" lon="6.63858">
        <ele>235.4</ele>
        <time>2020-03-01T09:40:48.000Z</time>
      </trkpt>
      <trkpt lat="43.56656" lon="6.63847">
        <ele>235.9</ele>
        <time>2020-03-01T09:40:57.000Z</time>
      </trkpt>
      <trkpt lat="43.56661" lon="6.63835">
        <ele>236.2</ele>
        <time>2020-03-01T09:41:05.000Z</time>
      </trkpt>
      <trkpt lat="43.56667" lon="6.63824">
        <ele>237</ele>
        <time>2020-03-01T09:41:12.000Z</time>
      </trkpt>
      <trkpt lat="43.56669" lon="6.63812">
        <ele>237.7</ele>
        <time>2020-03-01T09:41:21.000Z</time>
      </trkpt>
      <trkpt lat="43.56671" lon="6.63799">
        <ele>238.8</ele>
        <time>2020-03-01T09:41:41.000Z</time>
      </trkpt>
      <trkpt lat="43.56671" lon="6.63787">
        <ele>239</ele>
        <time>2020-03-01T09:41:55.000Z</time>
      </trkpt>
      <trkpt lat="43.56674" lon="6.63775">
        <ele>239.7</ele>
        <time>2020-03-01T09:42:08.000Z</time>
      </trkpt>
      <trkpt lat="43.56677" lon="6.63762">
        <ele>240.5</ele>
        <time>2020-03-01T09:42:19.000Z</time>
      </trkpt>
      <trkpt lat="43.5668" lon="6.63749">
        <ele>241.4</ele>
        <time>2020-03-01T09:42:30.000Z</time>
      </trkpt>
      <trkpt lat="43.56684" lon="6.63736">
        <ele>242.1</ele>
        <time>2020-03-01T09:42:39.000Z</time>
      </trkpt>
      <trkpt lat="43.56688" lon="6.63724">
        <ele>242.7</ele>
        <time>2020-03-01T09:42:48.000Z</time>
      </trkpt>
      <trkpt lat="43.56692" lon="6.63713">
        <ele>243.5</ele>
        <time>2020-03-01T09:42:58.000Z</time>
      </trkpt>
      <trkpt lat="43.56697" lon="6.63701">
        <ele>244.2</ele>
        <time>2020-03-01T09:43:06.000Z</time>
      </trkpt>
      <trkpt lat="43.56701" lon="6.6369">
        <ele>244.7</ele>
        <time>2020-03-01T09:43:14.000Z</time>
      </trkpt>
      <trkpt lat="43.56706" lon="6.63678">
        <ele>245.7</ele>
        <time>2020-03-01T09:43:25.000Z</time>
      </trkpt>
      <trkpt lat="43.56712" lon="6.63666">
        <ele>246.7</ele>
        <time>2020-03-01T09:43:34.000Z</time>
      </trkpt>
      <trkpt lat="43.56717" lon="6.63655">
        <ele>247.2</ele>
        <time>2020-03-01T09:43:43.000Z</time>
      </trkpt>
      <trkpt lat="43.56723" lon="6.63645">
        <ele>247.8</ele>
        <time>2020-03-01T09:43:51.000Z</time>
      </trkpt>
      <trkpt lat="43.56729" lon="6.63635">
        <ele>248.1</ele>
        <time>2020-03-01T09:43:58.000Z</time>
      </trkpt>
      <trkpt lat="43.56735" lon="6.63626">
        <ele>248.5</ele>
        <time>2020-03-01T09:44:06.000Z</time>
      </trkpt>
      <trkpt lat="43.56742" lon="6.63617">
        <ele>248.9</ele>
        <time>2020-03-01T09:44:14.000Z</time>
      </trkpt>
      <trkpt lat="43.56749" lon="6.63608">
        <ele>249.6</ele>
        <time>2020-03-01T09:44:22.000Z</time>
      </trkpt>
      <trkpt lat="43.56755" lon="6.63596">
        <ele>249.9</ele>
        <time>2020-03-01T09:44:30.000Z</time>
      </trkpt>
      <trkpt lat="43.56761" lon="6.63586">
        <ele>250.3</ele>
        <time>2020-03-01T09:44:38.000Z</time>
      </trkpt>
      <trkpt lat="43.56767" lon="6.63575">
        <ele>250.1</ele>
        <time>2020-03-01T09:44:46.000Z</time>
      </trkpt>
      <trkpt lat="43.56773" lon="6.63564">
        <ele>250</ele>
        <time>2020-03-01T09:44:55.000Z</time>
      </trkpt>
      <trkpt lat="43.56781" lon="6.63555">
        <ele>249.9</ele>
        <time>2020-03-01T09:45:04.000Z</time>
      </trkpt>
      <trkpt lat="43.56784" lon="6.63544">
        <ele>250</ele>
        <time>2020-03-01T09:45:11.000Z</time>
      </trkpt>
      <trkpt lat="43.5679" lon="6.63533">
        <ele>250.1</ele>
        <time>2020-03-01T09:45:20.000Z</time>
      </trkpt>
      <trkpt lat="43.56796" lon="6.63525">
        <ele>250.1</ele>
        <time>2020-03-01T09:45:28.000Z</time>
      </trkpt>
      <trkpt lat="43.56803" lon="6.63515">
        <ele>249.3</ele>
        <time>2020-03-01T09:45:38.000Z</time>
      </trkpt>
      <trkpt lat="43.5681" lon="6.63507">
        <ele>249.3</ele>
        <time>2020-03-01T09:45:46.000Z</time>
      </trkpt>
      <trkpt lat="43.56818" lon="6.63498">
        <ele>249.2</ele>
        <time>2020-03-01T09:45:54.000Z</time>
      </trkpt>
      <trkpt lat="43.56826" lon="6.63489">
        <ele>248.6</ele>
        <time>2020-03-01T09:46:03.000Z</time>
      </trkpt>
      <trkpt lat="43.5683" lon="6.63478">
        <ele>248.6</ele>
        <time>2020-03-01T09:46:12.000Z</time>
      </trkpt>
      <trkpt lat="43.56835" lon="6.63468">
        <ele>247.7</ele>
        <time>2020-03-01T09:46:21.000Z</time>
      </trkpt>
      <trkpt lat="43.56841" lon="6.63456">
        <ele>247.2</ele>
        <time>2020-03-01T09:46:31.000Z</time>
      </trkpt>
      <trkpt lat="43.56845" lon="6.63444">
        <ele>246.8</ele>
        <time>2020-03-01T09:46:41.000Z</time>
      </trkpt>
      <trkpt lat="43.56848" lon="6.63431">
        <ele>246.1</ele>
        <time>2020-03-01T09:46:50.000Z</time>
      </trkpt>
      <trkpt lat="43.56851" lon="6.6342">
        <ele>244.8</ele>
        <time>2020-03-01T09:46:58.000Z</time>
      </trkpt>
      <trkpt lat="43.56855" lon="6.63408">
        <ele>244.4</ele>
        <time>2020-03-01T09:47:06.000Z</time>
      </trkpt>
      <trkpt lat="43.56859" lon="6.63396">
        <ele>244.1</ele>
        <time>2020-03-01T09:47:15.000Z</time>
      </trkpt>
      <trkpt lat="43.56864" lon="6.63383">
        <ele>244</ele>
        <time>2020-03-01T09:47:23.000Z</time>
      </trkpt>
      <trkpt lat="43.56868" lon="6.6337">
        <ele>243.9</ele>
        <time>2020-03-01T09:47:31.000Z</time>
      </trkpt>
      <trkpt lat="43.56871" lon="6.63358">
        <ele>243.8</ele>
        <time>2020-03-01T09:47:39.000Z</time>
      </trkpt>
      <trkpt lat="43.56874" lon="6.63346">
        <ele>243.5</ele>
        <time>2020-03-01T09:47:47.000Z</time>
      </trkpt>
      <trkpt lat="43.56876" lon="6.63332">
        <ele>243.6</ele>
        <time>2020-03-01T09:48:03.000Z</time>
      </trkpt>
      <trkpt lat="43.56879" lon="6.63319">
        <ele>243.5</ele>
        <time>2020-03-01T09:48:12.000Z</time>
      </trkpt>
      <trkpt lat="43.56883" lon="6.63308">
        <ele>243.3</ele>
        <time>2020-03-01T09:48:19.000Z</time>
      </trkpt>
      <trkpt lat="43.56888" lon="6.63298">
        <ele>243.8</ele>
        <time>2020-03-01T09:48:27.000Z</time>
      </trkpt>
      <trkpt lat="43.56892" lon="6.63285">
        <ele>244.4</ele>
        <time>2020-03-01T09:48:36.000Z</time>
      </trkpt>
      <trkpt lat="43.56898" lon="6.63275">
        <ele>245.1</ele>
        <time>2020-03-01T09:48:45.000Z</time>
      </trkpt>
      <trkpt lat="43.56905" lon="6.63266">
        <ele>245.5</ele>
        <time>2020-03-01T09:48:55.000Z</time>
      </trkpt>
      <trkpt lat="43.56911" lon="6.63255">
        <ele>246.6</ele>
        <time>2020-03-01T09:49:04.000Z</time>
      </trkpt>
      <trkpt lat="43.56915" lon="6.63244">
        <ele>247.4</ele>
        <time>2020-03-01T09:49:13.000Z</time>
      </trkpt>
      <trkpt lat="43.5692" lon="6.63233">
        <ele>247.9</ele>
        <time>2020-03-01T09:49:22.000Z</time>
      </trkpt>
      <trkpt lat="43.56924" lon="6.63222">
        <ele>248.8</ele>
        <time>2020-03-01T09:49:31.000Z</time>
      </trkpt>
      <trkpt lat="43.56928" lon="6.63209">
        <ele>249.4</ele>
        <time>2020-03-01T09:49:40.000Z</time>
      </trkpt>
      <trkpt lat="43.56933" lon="6.63198">
        <ele>250.1</ele>
        <time>2020-03-01T09:49:48.000Z</time>
      </trkpt>
      <trkpt lat="43.56939" lon="6.63187">
        <ele>250.9</ele>
        <time>2020-03-01T09:49:56.000Z</time>
      </trkpt>
      <trkpt lat="43.56942" lon="6.63175">
        <ele>251.6</ele>
        <time>2020-03-01T09:50:04.000Z</time>
      </trkpt>
      <trkpt lat="43.56945" lon="6.63161">
        <ele>252.6</ele>
        <time>2020-03-01T09:50:13.000Z</time>
      </trkpt>
      <trkpt lat="43.56947" lon="6.63149">
        <ele>253.7</ele>
        <time>2020-03-01T09:50:21.000Z</time>
      </trkpt>
      <trkpt lat="43.56949" lon="6.63136">
        <ele>254.4</ele>
        <time>2020-03-01T09:50:30.000Z</time>
      </trkpt>
      <trkpt lat="43.56952" lon="6.63124">
        <ele>255.2</ele>
        <time>2020-03-01T09:50:38.000Z</time>
      </trkpt>
      <trkpt lat="43.56954" lon="6.63111">
        <ele>256</ele>
        <time>2020-03-01T09:50:46.000Z</time>
      </trkpt>
      <trkpt lat="43.56957" lon="6.63098">
        <ele>256.7</ele>
        <time>2020-03-01T09:50:54.000Z</time>
      </trkpt>
      <trkpt lat="43.56959" lon="6.63084">
        <ele>257.3</ele>
        <time>2020-03-01T09:51:03.000Z</time>
      </trkpt>
      <trkpt lat="43.5696" lon="6.63071">
        <ele>257.9</ele>
        <time>2020-03-01T09:51:12.000Z</time>
      </trkpt>
      <trkpt lat="43.56963" lon="6.63058">
        <ele>258.7</ele>
        <time>2020-03-01T09:51:20.000Z</time>
      </trkpt>
      <trkpt lat="43.56966" lon="6.63046">
        <ele>259.1</ele>
        <time>2020-03-01T09:51:30.000Z</time>
      </trkpt>
      <trkpt lat="43.56967" lon="6.63034">
        <ele>259.8</ele>
        <time>2020-03-01T09:51:42.000Z</time>
      </trkpt>
      <trkpt lat="43.56966" lon="6.6302">
        <ele>259.7</ele>
        <time>2020-03-01T09:54:54.000Z</time>
      </trkpt>
      <trkpt lat="43.56961" lon="6.63009">
        <ele>259.5</ele>
        <time>2020-03-01T09:55:05.000Z</time>
      </trkpt>
      <trkpt lat="43.5696" lon="6.62996">
        <ele>259.1</ele>
        <time>2020-03-01T09:55:15.000Z</time>
      </trkpt>
      <trkpt lat="43.5696" lon="6.62983">
        <ele>258.7</ele>
        <time>2020-03-01T09:55:25.000Z</time>
      </trkpt>
      <trkpt lat="43.5696" lon="6.6297">
        <ele>258.2</ele>
        <time>2020-03-01T09:55:34.000Z</time>
      </trkpt>
      <trkpt lat="43.56961" lon="6.62958">
        <ele>257.5</ele>
        <time>2020-03-01T09:55:43.000Z</time>
      </trkpt>
      <trkpt lat="43.56963" lon="6.62945">
        <ele>257.4</ele>
        <time>2020-03-01T09:55:51.000Z</time>
      </trkpt>
      <trkpt lat="43.56961" lon="6.62932">
        <ele>257</ele>
        <time>2020-03-01T09:56:10.000Z</time>
      </trkpt>
      <trkpt lat="43.56959" lon="6.6292">
        <ele>256.7</ele>
        <time>2020-03-01T09:56:18.000Z</time>
      </trkpt>
      <trkpt lat="43.56957" lon="6.62906">
        <ele>256.2</ele>
        <time>2020-03-01T09:56:26.000Z</time>
      </trkpt>
      <trkpt lat="43.56954" lon="6.62894">
        <ele>255.9</ele>
        <time>2020-03-01T09:56:34.000Z</time>
      </trkpt>
      <trkpt lat="43.56949" lon="6.62882">
        <ele>255.5</ele>
        <time>2020-03-01T09:56:43.000Z</time>
      </trkpt>
      <trkpt lat="43.56944" lon="6.62872">
        <ele>255.5</ele>
        <time>2020-03-01T09:56:51.000Z</time>
      </trkpt>
      <trkpt lat="43.56939" lon="6.62862">
        <ele>255.9</ele>
        <time>2020-03-01T09:56:58.000Z</time>
      </trkpt>
      <trkpt lat="43.56931" lon="6.62853">
        <ele>256.3</ele>
        <time>2020-03-01T09:57:06.000Z</time>
      </trkpt>
      <trkpt lat="43.56924" lon="6.62843">
        <ele>256.8</ele>
        <time>2020-03-01T09:57:14.000Z</time>
      </trkpt>
      <trkpt lat="43.56916" lon="6.62836">
        <ele>256.8</ele>
        <time>2020-03-01T09:57:22.000Z</time>
      </trkpt>
      <trkpt lat="43.56911" lon="6.62824">
        <ele>257.2</ele>
        <time>2020-03-01T09:57:31.000Z</time>
      </trkpt>
      <trkpt lat="43.56907" lon="6.62812">
        <ele>257.3</ele>
        <time>2020-03-01T09:57:39.000Z</time>
      </trkpt>
      <trkpt lat="43.56903" lon="6.62799">
        <ele>257</ele>
        <time>2020-03-01T09:57:47.000Z</time>
      </trkpt>
      <trkpt lat="43.56899" lon="6.62786">
        <ele>257.1</ele>
        <time>2020-03-01T09:57:55.000Z</time>
      </trkpt>
      <trkpt lat="43.56896" lon="6.62774">
        <ele>256.8</ele>
        <time>2020-03-01T09:58:04.000Z</time>
      </trkpt>
      <trkpt lat="43.56895" lon="6.62761">
        <ele>256.1</ele>
        <time>2020-03-01T09:58:13.000Z</time>
      </trkpt>
      <trkpt lat="43.56894" lon="6.62747">
        <ele>256</ele>
        <time>2020-03-01T09:58:22.000Z</time>
      </trkpt>
      <trkpt lat="43.56896" lon="6.62734">
        <ele>255.6</ele>
        <time>2020-03-01T09:58:31.000Z</time>
      </trkpt>
      <trkpt lat="43.56893" lon="6.6272">
        <ele>254.9</ele>
        <time>2020-03-01T09:58:40.000Z</time>
      </trkpt>
      <trkpt lat="43.56889" lon="6.62707">
        <ele>254.5</ele>
        <time>2020-03-01T09:58:48.000Z</time>
      </trkpt>
      <trkpt lat="43.56887" lon="6.62694">
        <ele>253.7</ele>
        <time>2020-03-01T09:58:56.000Z</time>
      </trkpt>
      <trkpt lat="43.56888" lon="6.6268">
        <ele>252.5</ele>
        <time>2020-03-01T09:59:04.000Z</time>
      </trkpt>
      <trkpt lat="43.56889" lon="6.62666">
        <ele>251.6</ele>
        <time>2020-03-01T09:59:13.000Z</time>
      </trkpt>
      <trkpt lat="43.56889" lon="6.62654">
        <ele>250.3</ele>
        <time>2020-03-01T09:59:25.000Z</time>
      </trkpt>
      <trkpt lat="43.56894" lon="6.62643">
        <ele>248.8</ele>
        <time>2020-03-01T10:02:49.000Z</time>
      </trkpt>
      <trkpt lat="43.56895" lon="6.6263">
        <ele>248.8</ele>
        <time>2020-03-01T10:03:04.000Z</time>
      </trkpt>
      <trkpt lat="43.56895" lon="6.62616">
        <ele>248.2</ele>
        <time>2020-03-01T10:03:14.000Z</time>
      </trkpt>
      <trkpt lat="43.56892" lon="6.62603">
        <ele>247.9</ele>
        <time>2020-03-01T10:03:22.000Z</time>
      </trkpt>
      <trkpt lat="43.56887" lon="6.62593">
        <ele>247.3</ele>
        <time>2020-03-01T10:03:29.000Z</time>
      </trkpt>
      <trkpt lat="43.56884" lon="6.6258">
        <ele>247.1</ele>
        <time>2020-03-01T10:03:37.000Z</time>
      </trkpt>
      <trkpt lat="43.56878" lon="6.62569">
        <ele>247.4</ele>
        <time>2020-03-01T10:03:45.000Z</time>
      </trkpt>
      <trkpt lat="43.56874" lon="6.62558">
        <ele>247.7</ele>
        <time>2020-03-01T10:03:53.000Z</time>
      </trkpt>
      <trkpt lat="43.56871" lon="6.62546">
        <ele>247.9</ele>
        <time>2020-03-01T10:04:02.000Z</time>
      </trkpt>
      <trkpt lat="43.5687" lon="6.62533">
        <ele>248.5</ele>
        <time>2020-03-01T10:04:11.000Z</time>
      </trkpt>
      <trkpt lat="43.56871" lon="6.6252">
        <ele>249</ele>
        <time>2020-03-01T10:04:20.000Z</time>
      </trkpt>
      <trkpt lat="43.56871" lon="6.62507">
        <ele>249.3</ele>
        <time>2020-03-01T10:04:30.000Z</time>
      </trkpt>
      <trkpt lat="43.56871" lon="6.62493">
        <ele>250.1</ele>
        <time>2020-03-01T10:04:40.000Z</time>
      </trkpt>
      <trkpt lat="43.56871" lon="6.6248">
        <ele>250.8</ele>
        <time>2020-03-01T10:04:49.000Z</time>
      </trkpt>
      <trkpt lat="43.5687" lon="6.62467">
        <ele>251.4</ele>
        <time>2020-03-01T10:04:58.000Z</time>
      </trkpt>
      <trkpt lat="43.56866" lon="6.62454">
        <ele>251.5</ele>
        <time>2020-03-01T10:05:06.000Z</time>
      </trkpt>
      <trkpt lat="43.56863" lon="6.62443">
        <ele>251.9</ele>
        <time>2020-03-01T10:05:14.000Z</time>
      </trkpt>
      <trkpt lat="43.56859" lon="6.62431">
        <ele>251.9</ele>
        <time>2020-03-01T10:05:24.000Z</time>
      </trkpt>
      <trkpt lat="43.56853" lon="6.62422">
        <ele>251.9</ele>
        <time>2020-03-01T10:05:57.000Z</time>
      </trkpt>
      <trkpt lat="43.56846" lon="6.62414">
        <ele>251.4</ele>
        <time>2020-03-01T10:06:29.000Z</time>
      </trkpt>
      <trkpt lat="43.56839" lon="6.62405">
        <ele>250.4</ele>
        <time>2020-03-01T10:06:38.000Z</time>
      </trkpt>
      <trkpt lat="43.56831" lon="6.62397">
        <ele>250.1</ele>
        <time>2020-03-01T10:06:46.000Z</time>
      </trkpt>
      <trkpt lat="43.56822" lon="6.62392">
        <ele>249.5</ele>
        <time>2020-03-01T10:06:55.000Z</time>
      </trkpt>
      <trkpt lat="43.56814" lon="6.62387">
        <ele>249.1</ele>
        <time>2020-03-01T10:07:03.000Z</time>
      </trkpt>
      <trkpt lat="43.56805" lon="6.62381">
        <ele>248.9</ele>
        <time>2020-03-01T10:07:11.000Z</time>
      </trkpt>
      <trkpt lat="43.56796" lon="6.62379">
        <ele>248.3</ele>
        <time>2020-03-01T10:07:20.000Z</time>
      </trkpt>
      <trkpt lat="43.56785" lon="6.6238">
        <ele>248.2</ele>
        <time>2020-03-01T10:07:30.000Z</time>
      </trkpt>
      <trkpt lat="43.56776" lon="6.62381">
        <ele>247.5</ele>
        <time>2020-03-01T10:07:38.000Z</time>
      </trkpt>
      <trkpt lat="43.56766" lon="6.62383">
        <ele>247.2</ele>
        <time>2020-03-01T10:07:46.000Z</time>
      </trkpt>
      <trkpt lat="43.56757" lon="6.62385">
        <ele>246.7</ele>
        <time>2020-03-01T10:07:54.000Z</time>
      </trkpt>
      <trkpt lat="43.56748" lon="6.62389">
        <ele>246.3</ele>
        <time>2020-03-01T10:08:02.000Z</time>
      </trkpt>
      <trkpt lat="43.5674" lon="6.62395">
        <ele>245.9</ele>
        <time>2020-03-01T10:08:09.000Z</time>
      </trkpt>
      <trkpt lat="43.56732" lon="6.62402">
        <ele>245.2</ele>
        <time>2020-03-01T10:08:19.000Z</time>
      </trkpt>
      <trkpt lat="43.56723" lon="6.62408">
        <ele>244.3</ele>
        <time>2020-03-01T10:08:27.000Z</time>
      </trkpt>
      <trkpt lat="43.56713" lon="6.62412">
        <ele>243.6</ele>
        <time>2020-03-01T10:08:36.000Z</time>
      </trkpt>
      <trkpt lat="43.56704" lon="6.62416">
        <ele>243</ele>
        <time>2020-03-01T10:08:44.000Z</time>
      </trkpt>
      <trkpt lat="43.56694" lon="6.62418">
        <ele>242.2</ele>
        <time>2020-03-01T10:08:52.000Z</time>
      </trkpt>
      <trkpt lat="43.56685" lon="6.62415">
        <ele>241.7</ele>
        <time>2020-03-01T10:08:59.000Z</time>
      </trkpt>
      <trkpt lat="43.56677" lon="6.62409">
        <ele>240.9</ele>
        <time>2020-03-01T10:09:08.000Z</time>
      </trkpt>
      <trkpt lat="43.5667" lon="6.62398">
        <ele>239.9</ele>
        <time>2020-03-01T10:09:17.000Z</time>
      </trkpt>
      <trkpt lat="43.56666" lon="6.62387">
        <ele>239.1</ele>
        <time>2020-03-01T10:09:26.000Z</time>
      </trkpt>
      <trkpt lat="43.56665" lon="6.62373">
        <ele>239</ele>
        <time>2020-03-01T10:09:35.000Z</time>
      </trkpt>
      <trkpt lat="43.56668" lon="6.62361">
        <ele>238.1</ele>
        <time>2020-03-01T10:09:44.000Z</time>
      </trkpt>
      <trkpt lat="43.56672" lon="6.62348">
        <ele>237.8</ele>
        <time>2020-03-01T10:09:53.000Z</time>
      </trkpt>
      <trkpt lat="43.56674" lon="6.62335">
        <ele>237.4</ele>
        <time>2020-03-01T10:10:02.000Z</time>
      </trkpt>
      <trkpt lat="43.56677" lon="6.62323">
        <ele>236.8</ele>
        <time>2020-03-01T10:10:13.000Z</time>
      </trkpt>
      <trkpt lat="43.56681" lon="6.62311">
        <ele>236.5</ele>
        <time>2020-03-01T10:10:20.000Z</time>
      </trkpt>
      <trkpt lat="43.56687" lon="6.62301">
        <ele>236.3</ele>
        <time>2020-03-01T10:10:28.000Z</time>
      </trkpt>
      <trkpt lat="43.56692" lon="6.6229">
        <ele>235.6</ele>
        <time>2020-03-01T10:10:36.000Z</time>
      </trkpt>
      <trkpt lat="43.56698" lon="6.6228">
        <ele>235.2</ele>
        <time>2020-03-01T10:10:44.000Z</time>
      </trkpt>
      <trkpt lat="43.56703" lon="6.62269">
        <ele>234.9</ele>
        <time>2020-03-01T10:10:52.000Z</time>
      </trkpt>
      <trkpt lat="43.56708" lon="6.62258">
        <ele>234.8</ele>
        <time>2020-03-01T10:11:00.000Z</time>
      </trkpt>
      <trkpt lat="43.56709" lon="6.62245">
        <ele>234.8</ele>
        <time>2020-03-01T10:11:08.000Z</time>
      </trkpt>
      <trkpt lat="43.56703" lon="6.62234">
        <ele>234.3</ele>
        <time>2020-03-01T10:11:16.000Z</time>
      </trkpt>
      <trkpt lat="43.56696" lon="6.62224">
        <ele>233.2</ele>
        <time>2020-03-01T10:11:25.000Z</time>
      </trkpt>
      <trkpt lat="43.56689" lon="6.62216">
        <ele>232.3</ele>
        <time>2020-03-01T10:11:34.000Z</time>
      </trkpt>
      <trkpt lat="43.5668" lon="6.62211">
        <ele>231.8</ele>
        <time>2020-03-01T10:11:42.000Z</time>
      </trkpt>
      <trkpt lat="43.56671" lon="6.62213">
        <ele>231.1</ele>
        <time>2020-03-01T10:11:52.000Z</time>
      </trkpt>
      <trkpt lat="43.56671" lon="6.622">
        <ele>227.1</ele>
        <time>2020-03-01T10:12:49.000Z</time>
      </trkpt>
      <trkpt lat="43.56664" lon="6.62192">
        <ele>225.9</ele>
        <time>2020-03-01T10:13:02.000Z</time>
      </trkpt>
      <trkpt lat="43.56658" lon="6.62201">
        <ele>226.2</ele>
        <time>2020-03-01T10:13:31.000Z</time>
      </trkpt>
      <trkpt lat="43.56651" lon="6.6221">
        <ele>227.1</ele>
        <time>2020-03-01T10:14:09.000Z</time>
      </trkpt>
      <trkpt lat="43.56651" lon="6.62223">
        <ele>228.4</ele>
        <time>2020-03-01T10:14:33.000Z</time>
      </trkpt>
      <trkpt lat="43.56643" lon="6.62229">
        <ele>228.2</ele>
        <time>2020-03-01T10:14:57.000Z</time>
      </trkpt>
      <trkpt lat="43.56634" lon="6.62227">
        <ele>227.5</ele>
        <time>2020-03-01T10:15:07.000Z</time>
      </trkpt>
      <trkpt lat="43.56625" lon="6.62225">
        <ele>227</ele>
        <time>2020-03-01T10:15:16.000Z</time>
      </trkpt>
      <trkpt lat="43.56615" lon="6.62225">
        <ele>226</ele>
        <time>2020-03-01T10:15:26.000Z</time>
      </trkpt>
      <trkpt lat="43.56606" lon="6.62222">
        <ele>225.1</ele>
        <time>2020-03-01T10:15:37.000Z</time>
      </trkpt>
      <trkpt lat="43.56596" lon="6.62224">
        <ele>224.5</ele>
        <time>2020-03-01T10:15:46.000Z</time>
      </trkpt>
      <trkpt lat="43.56588" lon="6.62231">
        <ele>223.4</ele>
        <time>2020-03-01T10:16:03.000Z</time>
      </trkpt>
      <trkpt lat="43.56579" lon="6.62232">
        <ele>222.4</ele>
        <time>2020-03-01T10:16:12.000Z</time>
      </trkpt>
      <trkpt lat="43.56569" lon="6.62235">
        <ele>221.5</ele>
        <time>2020-03-01T10:16:20.000Z</time>
      </trkpt>
      <trkpt lat="43.5656" lon="6.6224">
        <ele>220.7</ele>
        <time>2020-03-01T10:16:28.000Z</time>
      </trkpt>
      <trkpt lat="43.56551" lon="6.62245">
        <ele>219.9</ele>
        <time>2020-03-01T10:16:36.000Z</time>
      </trkpt>
      <trkpt lat="43.56544" lon="6.62253">
        <ele>219.1</ele>
        <time>2020-03-01T10:16:44.000Z</time>
      </trkpt>
      <trkpt lat="43.56536" lon="6.62259">
        <ele>218.3</ele>
        <time>2020-03-01T10:16:52.000Z</time>
      </trkpt>
      <trkpt lat="43.56528" lon="6.62264">
        <ele>217.8</ele>
        <time>2020-03-01T10:17:12.000Z</time>
      </trkpt>
      <trkpt lat="43.56519" lon="6.6227">
        <ele>217.2</ele>
        <time>2020-03-01T10:17:23.000Z</time>
      </trkpt>
      <trkpt lat="43.5651" lon="6.62275">
        <ele>216.8</ele>
        <time>2020-03-01T10:17:34.000Z</time>
      </trkpt>
      <trkpt lat="43.56501" lon="6.62274">
        <ele>216</ele>
        <time>2020-03-01T10:17:44.000Z</time>
      </trkpt>
      <trkpt lat="43.56492" lon="6.62274">
        <ele>215.6</ele>
        <time>2020-03-01T10:17:53.000Z</time>
      </trkpt>
      <trkpt lat="43.56482" lon="6.6227">
        <ele>214.7</ele>
        <time>2020-03-01T10:18:02.000Z</time>
      </trkpt>
      <trkpt lat="43.56473" lon="6.62268">
        <ele>213.8</ele>
        <time>2020-03-01T10:18:11.000Z</time>
      </trkpt>
      <trkpt lat="43.56464" lon="6.62265">
        <ele>212.6</ele>
        <time>2020-03-01T10:18:20.000Z</time>
      </trkpt>
      <trkpt lat="43.56454" lon="6.62263">
        <ele>211.4</ele>
        <time>2020-03-01T10:18:29.000Z</time>
      </trkpt>
      <trkpt lat="43.56445" lon="6.6226">
        <ele>210.5</ele>
        <time>2020-03-01T10:18:38.000Z</time>
      </trkpt>
      <trkpt lat="43.56436" lon="6.62258">
        <ele>209.8</ele>
        <time>2020-03-01T10:18:46.000Z</time>
      </trkpt>
      <trkpt lat="43.56426" lon="6.62258">
        <ele>209.3</ele>
        <time>2020-03-01T10:18:57.000Z</time>
      </trkpt>
      <trkpt lat="43.56416" lon="6.62257">
        <ele>209</ele>
        <time>2020-03-01T10:19:06.000Z</time>
      </trkpt>
      <trkpt lat="43.56406" lon="6.62255">
        <ele>208.7</ele>
        <time>2020-03-01T10:19:15.000Z</time>
      </trkpt>
      <trkpt lat="43.56396" lon="6.62255">
        <ele>208.4</ele>
        <time>2020-03-01T10:19:23.000Z</time>
      </trkpt>
      <trkpt lat="43.56387" lon="6.62252">
        <ele>208.1</ele>
        <time>2020-03-01T10:19:30.000Z</time>
      </trkpt>
      <trkpt lat="43.56378" lon="6.62248">
        <ele>208</ele>
        <time>2020-03-01T10:19:38.000Z</time>
      </trkpt>
      <trkpt lat="43.56368" lon="6.62244">
        <ele>208</ele>
        <time>2020-03-01T10:19:48.000Z</time>
      </trkpt>
      <trkpt lat="43.56359" lon="6.6224">
        <ele>208</ele>
        <time>2020-03-01T10:19:57.000Z</time>
      </trkpt>
      <trkpt lat="43.56349" lon="6.62235">
        <ele>207.7</ele>
        <time>2020-03-01T10:20:05.000Z</time>
      </trkpt>
      <trkpt lat="43.56341" lon="6.62226">
        <ele>207.4</ele>
        <time>2020-03-01T10:20:15.000Z</time>
      </trkpt>
      <trkpt lat="43.56335" lon="6.62217">
        <ele>206.8</ele>
        <time>2020-03-01T10:20:25.000Z</time>
      </trkpt>
      <trkpt lat="43.56329" lon="6.62207">
        <ele>206.7</ele>
        <time>2020-03-01T10:20:34.000Z</time>
      </trkpt>
      <trkpt lat="43.56325" lon="6.62195">
        <ele>205.9</ele>
        <time>2020-03-01T10:20:43.000Z</time>
      </trkpt>
      <trkpt lat="43.5632" lon="6.62184">
        <ele>205.2</ele>
        <time>2020-03-01T10:20:51.000Z</time>
      </trkpt>
      <trkpt lat="43.56315" lon="6.62173">
        <ele>204.7</ele>
        <time>2020-03-01T10:20:59.000Z</time>
      </trkpt>
      <trkpt lat="43.56308" lon="6.62164">
        <ele>204</ele>
        <time>2020-03-01T10:21:07.000Z</time>
      </trkpt>
      <trkpt lat="43.563" lon="6.62156">
        <ele>203.2</ele>
        <time>2020-03-01T10:21:15.000Z</time>
      </trkpt>
      <trkpt lat="43.56293" lon="6.62147">
        <ele>202.5</ele>
        <time>2020-03-01T10:21:22.000Z</time>
      </trkpt>
      <trkpt lat="43.56287" lon="6.62136">
        <ele>201.9</ele>
        <time>2020-03-01T10:21:31.000Z</time>
      </trkpt>
      <trkpt lat="43.56284" lon="6.62124">
        <ele>200.6</ele>
        <time>2020-03-01T10:21:41.000Z</time>
      </trkpt>
      <trkpt lat="43.56281" lon="6.62111">
        <ele>199.8</ele>
        <time>2020-03-01T10:21:50.000Z</time>
      </trkpt>
      <trkpt lat="43.56279" lon="6.62098">
        <ele>198.7</ele>
        <time>2020-03-01T10:21:59.000Z</time>
      </trkpt>
      <trkpt lat="43.56276" lon="6.62083">
        <ele>197.8</ele>
        <time>2020-03-01T10:22:09.000Z</time>
      </trkpt>
      <trkpt lat="43.56269" lon="6.62072">
        <ele>197.1</ele>
        <time>2020-03-01T10:22:17.000Z</time>
      </trkpt>
      <trkpt lat="43.56262" lon="6.62064">
        <ele>196.5</ele>
        <time>2020-03-01T10:22:25.000Z</time>
      </trkpt>
      <trkpt lat="43.56253" lon="6.62058">
        <ele>195.5</ele>
        <time>2020-03-01T10:22:33.000Z</time>
      </trkpt>
      <trkpt lat="43.56245" lon="6.62053">
        <ele>194.6</ele>
        <time>2020-03-01T10:22:41.000Z</time>
      </trkpt>
      <trkpt lat="43.56237" lon="6.62046">
        <ele>193.9</ele>
        <time>2020-03-01T10:22:53.000Z</time>
      </trkpt>
      <trkpt lat="43.5623" lon="6.62038">
        <ele>192.9</ele>
        <time>2020-03-01T10:23:02.000Z</time>
      </trkpt>
      <trkpt lat="43.56221" lon="6.62032">
        <ele>192.3</ele>
        <time>2020-03-01T10:23:12.000Z</time>
      </trkpt>
      <trkpt lat="43.56211" lon="6.62031">
        <ele>191.4</ele>
        <time>2020-03-01T10:23:22.000Z</time>
      </trkpt>
      <trkpt lat="43.56202" lon="6.62035">
        <ele>189.9</ele>
        <time>2020-03-01T10:23:31.000Z</time>
      </trkpt>
      <trkpt lat="43.56193" lon="6.62035">
        <ele>188.3</ele>
        <time>2020-03-01T10:23:42.000Z</time>
      </trkpt>
      <trkpt lat="43.56183" lon="6.62032">
        <ele>187.2</ele>
        <time>2020-03-01T10:24:04.000Z</time>
      </trkpt>
      <trkpt lat="43.56174" lon="6.62027">
        <ele>186.2</ele>
        <time>2020-03-01T10:24:16.000Z</time>
      </trkpt>
      <trkpt lat="43.56166" lon="6.62019">
        <ele>185.3</ele>
        <time>2020-03-01T10:24:25.000Z</time>
      </trkpt>
      <trkpt lat="43.56158" lon="6.62011">
        <ele>185.2</ele>
        <time>2020-03-01T10:24:32.000Z</time>
      </trkpt>
      <trkpt lat="43.56151" lon="6.62004">
        <ele>184.8</ele>
        <time>2020-03-01T10:24:38.000Z</time>
      </trkpt>
      <trkpt lat="43.56142" lon="6.61997">
        <ele>184.6</ele>
        <time>2020-03-01T10:24:45.000Z</time>
      </trkpt>
      <trkpt lat="43.56132" lon="6.61994">
        <ele>184.4</ele>
        <time>2020-03-01T10:24:53.000Z</time>
      </trkpt>
      <trkpt lat="43.56123" lon="6.6199">
        <ele>184.5</ele>
        <time>2020-03-01T10:25:01.000Z</time>
      </trkpt>
      <trkpt lat="43.56113" lon="6.61988">
        <ele>184.9</ele>
        <time>2020-03-01T10:25:09.000Z</time>
      </trkpt>
      <trkpt lat="43.56104" lon="6.61986">
        <ele>185.5</ele>
        <time>2020-03-01T10:25:17.000Z</time>
      </trkpt>
      <trkpt lat="43.56094" lon="6.61987">
        <ele>186.8</ele>
        <time>2020-03-01T10:25:25.000Z</time>
      </trkpt>
      <trkpt lat="43.56085" lon="6.61987">
        <ele>187.4</ele>
        <time>2020-03-01T10:25:32.000Z</time>
      </trkpt>
      <trkpt lat="43.56076" lon="6.61986">
        <ele>188.1</ele>
        <time>2020-03-01T10:25:39.000Z</time>
      </trkpt>
      <trkpt lat="43.56067" lon="6.61987">
        <ele>188.3</ele>
        <time>2020-03-01T10:25:46.000Z</time>
      </trkpt>
      <trkpt lat="43.56057" lon="6.61989">
        <ele>188.3</ele>
        <time>2020-03-01T10:25:53.000Z</time>
      </trkpt>
      <trkpt lat="43.56048" lon="6.61994">
        <ele>188.2</ele>
        <time>2020-03-01T10:26:01.000Z</time>
      </trkpt>
      <trkpt lat="43.5604" lon="6.61998">
        <ele>187.8</ele>
        <time>2020-03-01T10:26:08.000Z</time>
      </trkpt>
      <trkpt lat="43.56031" lon="6.62005">
        <ele>187.2</ele>
        <time>2020-03-01T10:26:16.000Z</time>
      </trkpt>
      <trkpt lat="43.56022" lon="6.62009">
        <ele>187.1</ele>
        <time>2020-03-01T10:26:23.000Z</time>
      </trkpt>
      <trkpt lat="43.56012" lon="6.62015">
        <ele>186.9</ele>
        <time>2020-03-01T10:26:31.000Z</time>
      </trkpt>
      <trkpt lat="43.56003" lon="6.62022">
        <ele>186.4</ele>
        <time>2020-03-01T10:26:40.000Z</time>
      </trkpt>
      <trkpt lat="43.55994" lon="6.62025">
        <ele>185.4</ele>
        <time>2020-03-01T10:26:49.000Z</time>
      </trkpt>
      <trkpt lat="43.55984" lon="6.62028">
        <ele>184.6</ele>
        <time>2020-03-01T10:26:57.000Z</time>
      </trkpt>
      <trkpt lat="43.55975" lon="6.6203">
        <ele>183.6</ele>
        <time>2020-03-01T10:27:05.000Z</time>
      </trkpt>
      <trkpt lat="43.55965" lon="6.62031">
        <ele>182.5</ele>
        <time>2020-03-01T10:27:14.000Z</time>
      </trkpt>
      <trkpt lat="43.55956" lon="6.62032">
        <ele>181.8</ele>
        <time>2020-03-01T10:27:25.000Z</time>
      </trkpt>
      <trkpt lat="43.55947" lon="6.6203">
        <ele>181.3</ele>
        <time>2020-03-01T10:27:34.000Z</time>
      </trkpt>
      <trkpt lat="43.55948" lon="6.62018">
        <ele>178.7</ele>
        <time>2020-03-01T10:27:57.000Z</time>
      </trkpt>
      <trkpt lat="43.55956" lon="6.62011">
        <ele>177.2</ele>
        <time>2020-03-01T10:28:07.000Z</time>
      </trkpt>
      <trkpt lat="43.55963" lon="6.62001">
        <ele>176.1</ele>
        <time>2020-03-01T10:28:17.000Z</time>
      </trkpt>
      <trkpt lat="43.55969" lon="6.61991">
        <ele>175.1</ele>
        <time>2020-03-01T10:28:26.000Z</time>
      </trkpt>
      <trkpt lat="43.55973" lon="6.6198">
        <ele>174.2</ele>
        <time>2020-03-01T10:28:35.000Z</time>
      </trkpt>
      <trkpt lat="43.55979" lon="6.61969">
        <ele>173.5</ele>
        <time>2020-03-01T10:28:44.000Z</time>
      </trkpt>
      <trkpt lat="43.55984" lon="6.61958">
        <ele>172.8</ele>
        <time>2020-03-01T10:28:52.000Z</time>
      </trkpt>
      <trkpt lat="43.55989" lon="6.61947">
        <ele>172.1</ele>
        <time>2020-03-01T10:29:01.000Z</time>
      </trkpt>
      <trkpt lat="43.55996" lon="6.61937">
        <ele>172</ele>
        <time>2020-03-01T10:29:10.000Z</time>
      </trkpt>
      <trkpt lat="43.56004" lon="6.61929">
        <ele>171.2</ele>
        <time>2020-03-01T10:29:19.000Z</time>
      </trkpt>
      <trkpt lat="43.56012" lon="6.61921">
        <ele>170.6</ele>
        <time>2020-03-01T10:29:29.000Z</time>
      </trkpt>
      <trkpt lat="43.56019" lon="6.61913">
        <ele>170.2</ele>
        <time>2020-03-01T10:29:37.000Z</time>
      </trkpt>
      <trkpt lat="43.56026" lon="6.61904">
        <ele>169.8</ele>
        <time>2020-03-01T10:29:46.000Z</time>
      </trkpt>
      <trkpt lat="43.56032" lon="6.61894">
        <ele>169</ele>
        <time>2020-03-01T10:29:55.000Z</time>
      </trkpt>
      <trkpt lat="43.56036" lon="6.61882">
        <ele>167.1</ele>
        <time>2020-03-01T10:30:05.000Z</time>
      </trkpt>
      <trkpt lat="43.5604" lon="6.61869">
        <ele>165.5</ele>
        <time>2020-03-01T10:30:15.000Z</time>
      </trkpt>
      <trkpt lat="43.56044" lon="6.61857">
        <ele>164.5</ele>
        <time>2020-03-01T10:30:24.000Z</time>
      </trkpt>
      <trkpt lat="43.56046" lon="6.61845">
        <ele>163.1</ele>
        <time>2020-03-01T10:31:39.000Z</time>
      </trkpt>
      <trkpt lat="43.56041" lon="6.61835">
        <ele>161.8</ele>
        <time>2020-03-01T10:32:05.000Z</time>
      </trkpt>
      <trkpt lat="43.56032" lon="6.61838">
        <ele>160</ele>
        <time>2020-03-01T10:33:22.000Z</time>
      </trkpt>
      <trkpt lat="43.56041" lon="6.61839">
        <ele>163.8</ele>
        <time>2020-03-01T11:27:18.000Z</time>
      </trkpt>
      <trkpt lat="43.56046" lon="6.61828">
        <ele>167.6</ele>
        <time>2020-03-01T11:36:51.000Z</time>
      </trkpt>
      <trkpt lat="43.56047" lon="6.61815">
        <ele>166.6</ele>
        <time>2020-03-01T11:37:02.000Z</time>
      </trkpt>
      <trkpt lat="43.56052" lon="6.61803">
        <ele>166</ele>
        <time>2020-03-01T11:37:11.000Z</time>
      </trkpt>
      <trkpt lat="43.56057" lon="6.61793">
        <ele>165.2</ele>
        <time>2020-03-01T11:37:20.000Z</time>
      </trkpt>
      <trkpt lat="43.56062" lon="6.61781">
        <ele>164.1</ele>
        <time>2020-03-01T11:37:31.000Z</time>
      </trkpt>
      <trkpt lat="43.5607" lon="6.61774">
        <ele>163.6</ele>
        <time>2020-03-01T11:37:41.000Z</time>
      </trkpt>
      <trkpt lat="43.56078" lon="6.61766">
        <ele>162.9</ele>
        <time>2020-03-01T11:37:50.000Z</time>
      </trkpt>
      <trkpt lat="43.56087" lon="6.61761">
        <ele>161.8</ele>
        <time>2020-03-01T11:38:00.000Z</time>
      </trkpt>
      <trkpt lat="43.56095" lon="6.61756">
        <ele>161</ele>
        <time>2020-03-01T11:38:09.000Z</time>
      </trkpt>
      <trkpt lat="43.56104" lon="6.6175">
        <ele>160.2</ele>
        <time>2020-03-01T11:38:17.000Z</time>
      </trkpt>
      <trkpt lat="43.56112" lon="6.61743">
        <ele>159.1</ele>
        <time>2020-03-01T11:38:26.000Z</time>
      </trkpt>
      <trkpt lat="43.56119" lon="6.61734">
        <ele>158.1</ele>
        <time>2020-03-01T11:38:35.000Z</time>
      </trkpt>
      <trkpt lat="43.56127" lon="6.61726">
        <ele>157.5</ele>
        <time>2020-03-01T11:38:43.000Z</time>
      </trkpt>
      <trkpt lat="43.56133" lon="6.61715">
        <ele>156.8</ele>
        <time>2020-03-01T11:38:52.000Z</time>
      </trkpt>
      <trkpt lat="43.56137" lon="6.61703">
        <ele>155.7</ele>
        <time>2020-03-01T11:39:30.000Z</time>
      </trkpt>
      <trkpt lat="43.56136" lon="6.6169">
        <ele>154.9</ele>
        <time>2020-03-01T11:39:45.000Z</time>
      </trkpt>
      <trkpt lat="43.5613" lon="6.6168">
        <ele>156.3</ele>
        <time>2020-03-01T11:40:12.000Z</time>
      </trkpt>
      <trkpt lat="43.56121" lon="6.61682">
        <ele>156.4</ele>
        <time>2020-03-01T11:40:24.000Z</time>
      </trkpt>
      <trkpt lat="43.56112" lon="6.61685">
        <ele>156.8</ele>
        <time>2020-03-01T11:40:36.000Z</time>
      </trkpt>
      <trkpt lat="43.56102" lon="6.6169">
        <ele>156.8</ele>
        <time>2020-03-01T11:40:46.000Z</time>
      </trkpt>
      <trkpt lat="43.56093" lon="6.61693">
        <ele>156.5</ele>
        <time>2020-03-01T11:40:55.000Z</time>
      </trkpt>
      <trkpt lat="43.56084" lon="6.61699">
        <ele>156</ele>
        <time>2020-03-01T11:41:05.000Z</time>
      </trkpt>
      <trkpt lat="43.56076" lon="6.61704">
        <ele>155.9</ele>
        <time>2020-03-01T11:41:17.000Z</time>
      </trkpt>
      <trkpt lat="43.56068" lon="6.61711">
        <ele>155.6</ele>
        <time>2020-03-01T11:41:26.000Z</time>
      </trkpt>
      <trkpt lat="43.5606" lon="6.61718">
        <ele>155.2</ele>
        <time>2020-03-01T11:41:35.000Z</time>
      </trkpt>
      <trkpt lat="43.56051" lon="6.61723">
        <ele>155.1</ele>
        <time>2020-03-01T11:41:46.000Z</time>
      </trkpt>
      <trkpt lat="43.56042" lon="6.61727">
        <ele>154.8</ele>
        <time>2020-03-01T11:41:55.000Z</time>
      </trkpt>
      <trkpt lat="43.56033" lon="6.61729">
        <ele>154.3</ele>
        <time>2020-03-01T11:42:04.000Z</time>
      </trkpt>
      <trkpt lat="43.56024" lon="6.61732">
        <ele>154.3</ele>
        <time>2020-03-01T11:42:12.000Z</time>
      </trkpt>
      <trkpt lat="43.56015" lon="6.61735">
        <ele>154.5</ele>
        <time>2020-03-01T11:42:22.000Z</time>
      </trkpt>
      <trkpt lat="43.56005" lon="6.61736">
        <ele>154.9</ele>
        <time>2020-03-01T11:42:32.000Z</time>
      </trkpt>
      <trkpt lat="43.55996" lon="6.61741">
        <ele>155</ele>
        <time>2020-03-01T11:42:42.000Z</time>
      </trkpt>
      <trkpt lat="43.55987" lon="6.6174">
        <ele>155.5</ele>
        <time>2020-03-01T11:42:54.000Z</time>
      </trkpt>
      <trkpt lat="43.5598" lon="6.61748">
        <ele>155.9</ele>
        <time>2020-03-01T11:43:18.000Z</time>
      </trkpt>
      <trkpt lat="43.55972" lon="6.61754">
        <ele>156.2</ele>
        <time>2020-03-01T11:43:27.000Z</time>
      </trkpt>
      <trkpt lat="43.55964" lon="6.61761">
        <ele>156.6</ele>
        <time>2020-03-01T11:43:36.000Z</time>
      </trkpt>
      <trkpt lat="43.55958" lon="6.6177">
        <ele>157.5</ele>
        <time>2020-03-01T11:43:44.000Z</time>
      </trkpt>
      <trkpt lat="43.5595" lon="6.61777">
        <ele>158.2</ele>
        <time>2020-03-01T11:43:53.000Z</time>
      </trkpt>
      <trkpt lat="43.55941" lon="6.61784">
        <ele>158.7</ele>
        <time>2020-03-01T11:44:01.000Z</time>
      </trkpt>
      <trkpt lat="43.55933" lon="6.61791">
        <ele>158.8</ele>
        <time>2020-03-01T11:44:10.000Z</time>
      </trkpt>
      <trkpt lat="43.55925" lon="6.61795">
        <ele>159.3</ele>
        <time>2020-03-01T11:44:19.000Z</time>
      </trkpt>
      <trkpt lat="43.55915" lon="6.61796">
        <ele>159.5</ele>
        <time>2020-03-01T11:44:27.000Z</time>
      </trkpt>
      <trkpt lat="43.55906" lon="6.61796">
        <ele>159.7</ele>
        <time>2020-03-01T11:44:35.000Z</time>
      </trkpt>
      <trkpt lat="43.55897" lon="6.61797">
        <ele>159.6</ele>
        <time>2020-03-01T11:44:42.000Z</time>
      </trkpt>
      <trkpt lat="43.55887" lon="6.61796">
        <ele>159.9</ele>
        <time>2020-03-01T11:44:51.000Z</time>
      </trkpt>
      <trkpt lat="43.55877" lon="6.61792">
        <ele>160</ele>
        <time>2020-03-01T11:44:59.000Z</time>
      </trkpt>
      <trkpt lat="43.55868" lon="6.61789">
        <ele>160.2</ele>
        <time>2020-03-01T11:45:07.000Z</time>
      </trkpt>
      <trkpt lat="43.55858" lon="6.61787">
        <ele>159.9</ele>
        <time>2020-03-01T11:45:15.000Z</time>
      </trkpt>
      <trkpt lat="43.55848" lon="6.61785">
        <ele>159.8</ele>
        <time>2020-03-01T11:45:26.000Z</time>
      </trkpt>
      <trkpt lat="43.55838" lon="6.61785">
        <ele>160</ele>
        <time>2020-03-01T11:45:33.000Z</time>
      </trkpt>
      <trkpt lat="43.55828" lon="6.61785">
        <ele>160.1</ele>
        <time>2020-03-01T11:45:41.000Z</time>
      </trkpt>
      <trkpt lat="43.55818" lon="6.61786">
        <ele>160.1</ele>
        <time>2020-03-01T11:45:49.000Z</time>
      </trkpt>
      <trkpt lat="43.55808" lon="6.61786">
        <ele>160.1</ele>
        <time>2020-03-01T11:45:56.000Z</time>
      </trkpt>
      <trkpt lat="43.55798" lon="6.61786">
        <ele>160.3</ele>
        <time>2020-03-01T11:46:03.000Z</time>
      </trkpt>
      <trkpt lat="43.55789" lon="6.61789">
        <ele>160.1</ele>
        <time>2020-03-01T11:46:10.000Z</time>
      </trkpt>
      <trkpt lat="43.5578" lon="6.61794">
        <ele>160.1</ele>
        <time>2020-03-01T11:46:18.000Z</time>
      </trkpt>
      <trkpt lat="43.55772" lon="6.61797">
        <ele>160.4</ele>
        <time>2020-03-01T11:46:28.000Z</time>
      </trkpt>
      <trkpt lat="43.55762" lon="6.61801">
        <ele>160.4</ele>
        <time>2020-03-01T11:46:38.000Z</time>
      </trkpt>
      <trkpt lat="43.55753" lon="6.61805">
        <ele>160.7</ele>
        <time>2020-03-01T11:46:46.000Z</time>
      </trkpt>
      <trkpt lat="43.55744" lon="6.61802">
        <ele>161.4</ele>
        <time>2020-03-01T11:46:56.000Z</time>
      </trkpt>
      <trkpt lat="43.55737" lon="6.61794">
        <ele>161.5</ele>
        <time>2020-03-01T11:47:05.000Z</time>
      </trkpt>
      <trkpt lat="43.55731" lon="6.61784">
        <ele>161.7</ele>
        <time>2020-03-01T11:47:14.000Z</time>
      </trkpt>
      <trkpt lat="43.55726" lon="6.61774">
        <ele>162.1</ele>
        <time>2020-03-01T11:47:27.000Z</time>
      </trkpt>
      <trkpt lat="43.5572" lon="6.61763">
        <ele>162.5</ele>
        <time>2020-03-01T11:47:37.000Z</time>
      </trkpt>
      <trkpt lat="43.55714" lon="6.61753">
        <ele>163.3</ele>
        <time>2020-03-01T11:47:46.000Z</time>
      </trkpt>
      <trkpt lat="43.55707" lon="6.61744">
        <ele>163.9</ele>
        <time>2020-03-01T11:47:55.000Z</time>
      </trkpt>
      <trkpt lat="43.55701" lon="6.61734">
        <ele>164.2</ele>
        <time>2020-03-01T11:48:03.000Z</time>
      </trkpt>
      <trkpt lat="43.55695" lon="6.61722">
        <ele>164.1</ele>
        <time>2020-03-01T11:48:11.000Z</time>
      </trkpt>
      <trkpt lat="43.5569" lon="6.61712">
        <ele>163.9</ele>
        <time>2020-03-01T11:48:19.000Z</time>
      </trkpt>
      <trkpt lat="43.55684" lon="6.61701">
        <ele>163.6</ele>
        <time>2020-03-01T11:48:27.000Z</time>
      </trkpt>
      <trkpt lat="43.55677" lon="6.61691">
        <ele>163.5</ele>
        <time>2020-03-01T11:48:35.000Z</time>
      </trkpt>
      <trkpt lat="43.55672" lon="6.61681">
        <ele>163.5</ele>
        <time>2020-03-01T11:48:43.000Z</time>
      </trkpt>
      <trkpt lat="43.55669" lon="6.61669">
        <ele>163</ele>
        <time>2020-03-01T11:48:52.000Z</time>
      </trkpt>
      <trkpt lat="43.55666" lon="6.61656">
        <ele>162.6</ele>
        <time>2020-03-01T11:49:00.000Z</time>
      </trkpt>
      <trkpt lat="43.55664" lon="6.61643">
        <ele>162.1</ele>
        <time>2020-03-01T11:49:09.000Z</time>
      </trkpt>
      <trkpt lat="43.55661" lon="6.61631">
        <ele>162</ele>
        <time>2020-03-01T11:49:18.000Z</time>
      </trkpt>
      <trkpt lat="43.55657" lon="6.61618">
        <ele>161.9</ele>
        <time>2020-03-01T11:49:30.000Z</time>
      </trkpt>
      <trkpt lat="43.55653" lon="6.61605">
        <ele>161.6</ele>
        <time>2020-03-01T11:49:39.000Z</time>
      </trkpt>
      <trkpt lat="43.55649" lon="6.61592">
        <ele>161.6</ele>
        <time>2020-03-01T11:49:47.000Z</time>
      </trkpt>
      <trkpt lat="43.55647" lon="6.6158">
        <ele>161.5</ele>
        <time>2020-03-01T11:49:54.000Z</time>
      </trkpt>
      <trkpt lat="43.55643" lon="6.61567">
        <ele>161.2</ele>
        <time>2020-03-01T11:50:03.000Z</time>
      </trkpt>
      <trkpt lat="43.55639" lon="6.61554">
        <ele>161.3</ele>
        <time>2020-03-01T11:50:12.000Z</time>
      </trkpt>
      <trkpt lat="43.55635" lon="6.61542">
        <ele>161.2</ele>
        <time>2020-03-01T11:50:22.000Z</time>
      </trkpt>
      <trkpt lat="43.55633" lon="6.6153">
        <ele>161</ele>
        <time>2020-03-01T11:50:31.000Z</time>
      </trkpt>
      <trkpt lat="43.5563" lon="6.61516">
        <ele>160.7</ele>
        <time>2020-03-01T11:50:49.000Z</time>
      </trkpt>
      <trkpt lat="43.55628" lon="6.61502">
        <ele>160.3</ele>
        <time>2020-03-01T11:51:02.000Z</time>
      </trkpt>
      <trkpt lat="43.55622" lon="6.61493">
        <ele>160.6</ele>
        <time>2020-03-01T11:51:09.000Z</time>
      </trkpt>
      <trkpt lat="43.55618" lon="6.61482">
        <ele>160.8</ele>
        <time>2020-03-01T11:51:16.000Z</time>
      </trkpt>
      <trkpt lat="43.55615" lon="6.61469">
        <ele>160.9</ele>
        <time>2020-03-01T11:51:23.000Z</time>
      </trkpt>
      <trkpt lat="43.55613" lon="6.61455">
        <ele>161</ele>
        <time>2020-03-01T11:51:30.000Z</time>
      </trkpt>
      <trkpt lat="43.5561" lon="6.61442">
        <ele>160.5</ele>
        <time>2020-03-01T11:51:37.000Z</time>
      </trkpt>
      <trkpt lat="43.55608" lon="6.61429">
        <ele>160.1</ele>
        <time>2020-03-01T11:51:45.000Z</time>
      </trkpt>
      <trkpt lat="43.55604" lon="6.61416">
        <ele>160.1</ele>
        <time>2020-03-01T11:51:53.000Z</time>
      </trkpt>
      <trkpt lat="43.55599" lon="6.61405">
        <ele>159.9</ele>
        <time>2020-03-01T11:52:01.000Z</time>
      </trkpt>
      <trkpt lat="43.55592" lon="6.61395">
        <ele>159.8</ele>
        <time>2020-03-01T11:52:09.000Z</time>
      </trkpt>
      <trkpt lat="43.55586" lon="6.61387">
        <ele>159.7</ele>
        <time>2020-03-01T11:52:16.000Z</time>
      </trkpt>
      <trkpt lat="43.5558" lon="6.61376">
        <ele>160</ele>
        <time>2020-03-01T11:52:23.000Z</time>
      </trkpt>
      <trkpt lat="43.55576" lon="6.61364">
        <ele>159.9</ele>
        <time>2020-03-01T11:52:30.000Z</time>
      </trkpt>
      <trkpt lat="43.55576" lon="6.61351">
        <ele>159.8</ele>
        <time>2020-03-01T11:52:39.000Z</time>
      </trkpt>
      <trkpt lat="43.55582" lon="6.6134">
        <ele>160</ele>
        <time>2020-03-01T11:52:47.000Z</time>
      </trkpt>
      <trkpt lat="43.55589" lon="6.61331">
        <ele>160.3</ele>
        <time>2020-03-01T11:52:56.000Z</time>
      </trkpt>
      <trkpt lat="43.55593" lon="6.61319">
        <ele>160.6</ele>
        <time>2020-03-01T11:53:04.000Z</time>
      </trkpt>
      <trkpt lat="43.55596" lon="6.61306">
        <ele>161</ele>
        <time>2020-03-01T11:53:13.000Z</time>
      </trkpt>
      <trkpt lat="43.55593" lon="6.61294">
        <ele>161.4</ele>
        <time>2020-03-01T11:53:22.000Z</time>
      </trkpt>
      <trkpt lat="43.55584" lon="6.6129">
        <ele>161.7</ele>
        <time>2020-03-01T11:53:30.000Z</time>
      </trkpt>
      <trkpt lat="43.55575" lon="6.61291">
        <ele>162.2</ele>
        <time>2020-03-01T11:53:37.000Z</time>
      </trkpt>
      <trkpt lat="43.55566" lon="6.61287">
        <ele>163</ele>
        <time>2020-03-01T11:53:45.000Z</time>
      </trkpt>
      <trkpt lat="43.55559" lon="6.6128">
        <ele>163.5</ele>
        <time>2020-03-01T11:53:52.000Z</time>
      </trkpt>
      <trkpt lat="43.55553" lon="6.61271">
        <ele>164.1</ele>
        <time>2020-03-01T11:53:59.000Z</time>
      </trkpt>
      <trkpt lat="43.55546" lon="6.6126">
        <ele>164.6</ele>
        <time>2020-03-01T11:54:08.000Z</time>
      </trkpt>
      <trkpt lat="43.55541" lon="6.61249">
        <ele>165</ele>
        <time>2020-03-01T11:54:17.000Z</time>
      </trkpt>
      <trkpt lat="43.55532" lon="6.61242">
        <ele>165.1</ele>
        <time>2020-03-01T11:54:25.000Z</time>
      </trkpt>
      <trkpt lat="43.55525" lon="6.61233">
        <ele>165.7</ele>
        <time>2020-03-01T11:54:34.000Z</time>
      </trkpt>
      <trkpt lat="43.55521" lon="6.6122">
        <ele>166.5</ele>
        <time>2020-03-01T11:54:43.000Z</time>
      </trkpt>
      <trkpt lat="43.55518" lon="6.61207">
        <ele>166.8</ele>
        <time>2020-03-01T11:54:52.000Z</time>
      </trkpt>
      <trkpt lat="43.55515" lon="6.61193">
        <ele>166.7</ele>
        <time>2020-03-01T11:55:01.000Z</time>
      </trkpt>
      <trkpt lat="43.5551" lon="6.61183">
        <ele>167.4</ele>
        <time>2020-03-01T11:55:09.000Z</time>
      </trkpt>
      <trkpt lat="43.55503" lon="6.61173">
        <ele>168.5</ele>
        <time>2020-03-01T11:55:19.000Z</time>
      </trkpt>
      <trkpt lat="43.555" lon="6.61161">
        <ele>169.6</ele>
        <time>2020-03-01T11:55:29.000Z</time>
      </trkpt>
      <trkpt lat="43.55496" lon="6.61148">
        <ele>171</ele>
        <time>2020-03-01T11:55:39.000Z</time>
      </trkpt>
      <trkpt lat="43.55492" lon="6.61137">
        <ele>171.7</ele>
        <time>2020-03-01T11:55:47.000Z</time>
      </trkpt>
      <trkpt lat="43.55488" lon="6.61125">
        <ele>172.4</ele>
        <time>2020-03-01T11:55:56.000Z</time>
      </trkpt>
      <trkpt lat="43.55483" lon="6.61115">
        <ele>173</ele>
        <time>2020-03-01T11:56:05.000Z</time>
      </trkpt>
      <trkpt lat="43.55479" lon="6.61103">
        <ele>173.7</ele>
        <time>2020-03-01T11:56:13.000Z</time>
      </trkpt>
      <trkpt lat="43.55475" lon="6.61091">
        <ele>174.4</ele>
        <time>2020-03-01T11:56:23.000Z</time>
      </trkpt>
      <trkpt lat="43.55472" lon="6.61078">
        <ele>175</ele>
        <time>2020-03-01T11:56:32.000Z</time>
      </trkpt>
      <trkpt lat="43.55469" lon="6.61066">
        <ele>175.5</ele>
        <time>2020-03-01T11:56:41.000Z</time>
      </trkpt>
      <trkpt lat="43.55465" lon="6.61054">
        <ele>176.1</ele>
        <time>2020-03-01T11:56:50.000Z</time>
      </trkpt>
      <trkpt lat="43.55461" lon="6.61042">
        <ele>176.9</ele>
        <time>2020-03-01T11:56:59.000Z</time>
      </trkpt>
      <trkpt lat="43.55457" lon="6.6103">
        <ele>177.5</ele>
        <time>2020-03-01T11:57:08.000Z</time>
      </trkpt>
      <trkpt lat="43.55453" lon="6.61019">
        <ele>178.1</ele>
        <time>2020-03-01T11:57:16.000Z</time>
      </trkpt>
      <trkpt lat="43.55449" lon="6.61007">
        <ele>178.9</ele>
        <time>2020-03-01T11:57:25.000Z</time>
      </trkpt>
      <trkpt lat="43.55444" lon="6.60996">
        <ele>179.2</ele>
        <time>2020-03-01T11:57:34.000Z</time>
      </trkpt>
      <trkpt lat="43.55438" lon="6.60985">
        <ele>179.5</ele>
        <time>2020-03-01T11:57:44.000Z</time>
      </trkpt>
      <trkpt lat="43.55431" lon="6.60977">
        <ele>180.2</ele>
        <time>2020-03-01T11:57:52.000Z</time>
      </trkpt>
      <trkpt lat="43.55422" lon="6.60974">
        <ele>180.3</ele>
        <time>2020-03-01T11:58:01.000Z</time>
      </trkpt>
      <trkpt lat="43.55412" lon="6.6097">
        <ele>180.3</ele>
        <time>2020-03-01T11:58:09.000Z</time>
      </trkpt>
      <trkpt lat="43.55405" lon="6.60962">
        <ele>179.6</ele>
        <time>2020-03-01T11:58:22.000Z</time>
      </trkpt>
      <trkpt lat="43.55396" lon="6.60962">
        <ele>181.2</ele>
        <time>2020-03-01T11:58:51.000Z</time>
      </trkpt>
      <trkpt lat="43.55387" lon="6.60965">
        <ele>181.9</ele>
        <time>2020-03-01T12:01:14.000Z</time>
      </trkpt>
      <trkpt lat="43.55385" lon="6.60953">
        <ele>182.6</ele>
        <time>2020-03-01T12:03:22.000Z</time>
      </trkpt>
      <trkpt lat="43.55377" lon="6.60946">
        <ele>182</ele>
        <time>2020-03-01T12:03:34.000Z</time>
      </trkpt>
      <trkpt lat="43.55368" lon="6.60941">
        <ele>181.8</ele>
        <time>2020-03-01T12:03:45.000Z</time>
      </trkpt>
      <trkpt lat="43.5536" lon="6.60934">
        <ele>181.3</ele>
        <time>2020-03-01T12:03:54.000Z</time>
      </trkpt>
      <trkpt lat="43.55351" lon="6.60928">
        <ele>180.2</ele>
        <time>2020-03-01T12:04:04.000Z</time>
      </trkpt>
      <trkpt lat="43.55343" lon="6.60922">
        <ele>179.6</ele>
        <time>2020-03-01T12:04:12.000Z</time>
      </trkpt>
      <trkpt lat="43.55336" lon="6.60914">
        <ele>178</ele>
        <time>2020-03-01T12:04:23.000Z</time>
      </trkpt>
      <trkpt lat="43.55329" lon="6.60904">
        <ele>176.8</ele>
        <time>2020-03-01T12:04:31.000Z</time>
      </trkpt>
      <trkpt lat="43.55323" lon="6.60894">
        <ele>175.3</ele>
        <time>2020-03-01T12:04:40.000Z</time>
      </trkpt>
      <trkpt lat="43.55321" lon="6.60882">
        <ele>174.4</ele>
        <time>2020-03-01T12:04:49.000Z</time>
      </trkpt>
      <trkpt lat="43.55324" lon="6.60869">
        <ele>172.9</ele>
        <time>2020-03-01T12:04:59.000Z</time>
      </trkpt>
      <trkpt lat="43.55327" lon="6.60856">
        <ele>171.6</ele>
        <time>2020-03-01T12:05:11.000Z</time>
      </trkpt>
      <trkpt lat="43.55331" lon="6.60845">
        <ele>170.6</ele>
        <time>2020-03-01T12:05:19.000Z</time>
      </trkpt>
      <trkpt lat="43.55332" lon="6.60832">
        <ele>169.3</ele>
        <time>2020-03-01T12:05:29.000Z</time>
      </trkpt>
      <trkpt lat="43.5533" lon="6.60819">
        <ele>168.1</ele>
        <time>2020-03-01T12:05:39.000Z</time>
      </trkpt>
      <trkpt lat="43.55325" lon="6.60808">
        <ele>167.3</ele>
        <time>2020-03-01T12:05:47.000Z</time>
      </trkpt>
      <trkpt lat="43.55321" lon="6.60797">
        <ele>166.3</ele>
        <time>2020-03-01T12:05:55.000Z</time>
      </trkpt>
      <trkpt lat="43.55316" lon="6.60785">
        <ele>165.3</ele>
        <time>2020-03-01T12:06:03.000Z</time>
      </trkpt>
      <trkpt lat="43.5531" lon="6.60775">
        <ele>163.9</ele>
        <time>2020-03-01T12:06:11.000Z</time>
      </trkpt>
      <trkpt lat="43.55307" lon="6.60763">
        <ele>162.6</ele>
        <time>2020-03-01T12:06:19.000Z</time>
      </trkpt>
      <trkpt lat="43.553" lon="6.60752">
        <ele>161.8</ele>
        <time>2020-03-01T12:06:28.000Z</time>
      </trkpt>
      <trkpt lat="43.55293" lon="6.60746">
        <ele>161.1</ele>
        <time>2020-03-01T12:06:35.000Z</time>
      </trkpt>
      <trkpt lat="43.55285" lon="6.60737">
        <ele>160.2</ele>
        <time>2020-03-01T12:06:43.000Z</time>
      </trkpt>
      <trkpt lat="43.55277" lon="6.6073">
        <ele>159</ele>
        <time>2020-03-01T12:06:52.000Z</time>
      </trkpt>
      <trkpt lat="43.55268" lon="6.60725">
        <ele>157.8</ele>
        <time>2020-03-01T12:07:01.000Z</time>
      </trkpt>
      <trkpt lat="43.5526" lon="6.60718">
        <ele>156.3</ele>
        <time>2020-03-01T12:07:11.000Z</time>
      </trkpt>
      <trkpt lat="43.5525" lon="6.60716">
        <ele>154.6</ele>
        <time>2020-03-01T12:07:21.000Z</time>
      </trkpt>
      <trkpt lat="43.55241" lon="6.60719">
        <ele>153.6</ele>
        <time>2020-03-01T12:07:29.000Z</time>
      </trkpt>
      <trkpt lat="43.55232" lon="6.60723">
        <ele>152.4</ele>
        <time>2020-03-01T12:07:37.000Z</time>
      </trkpt>
      <trkpt lat="43.55221" lon="6.60722">
        <ele>151.4</ele>
        <time>2020-03-01T12:07:47.000Z</time>
      </trkpt>
      <trkpt lat="43.55214" lon="6.60715">
        <ele>150.3</ele>
        <time>2020-03-01T12:07:56.000Z</time>
      </trkpt>
      <trkpt lat="43.55205" lon="6.60709">
        <ele>148.9</ele>
        <time>2020-03-01T12:08:07.000Z</time>
      </trkpt>
      <trkpt lat="43.55196" lon="6.60707">
        <ele>147.8</ele>
        <time>2020-03-01T12:08:18.000Z</time>
      </trkpt>
      <trkpt lat="43.55187" lon="6.60702">
        <ele>146.6</ele>
        <time>2020-03-01T12:08:36.000Z</time>
      </trkpt>
      <trkpt lat="43.55191" lon="6.60714">
        <ele>146.5</ele>
        <time>2020-03-01T12:09:02.000Z</time>
      </trkpt>
      <trkpt lat="43.55199" lon="6.60722">
        <ele>145.7</ele>
        <time>2020-03-01T12:09:11.000Z</time>
      </trkpt>
      <trkpt lat="43.55203" lon="6.60734">
        <ele>145.5</ele>
        <time>2020-03-01T12:09:19.000Z</time>
      </trkpt>
      <trkpt lat="43.55207" lon="6.60746">
        <ele>145.5</ele>
        <time>2020-03-01T12:09:27.000Z</time>
      </trkpt>
      <trkpt lat="43.55211" lon="6.60757">
        <ele>145</ele>
        <time>2020-03-01T12:09:35.000Z</time>
      </trkpt>
      <trkpt lat="43.55215" lon="6.6077">
        <ele>144</ele>
        <time>2020-03-01T12:09:44.000Z</time>
      </trkpt>
      <trkpt lat="43.55215" lon="6.60784">
        <ele>143.6</ele>
        <time>2020-03-01T12:09:54.000Z</time>
      </trkpt>
      <trkpt lat="43.55211" lon="6.60795">
        <ele>143.4</ele>
        <time>2020-03-01T12:10:13.000Z</time>
      </trkpt>
      <trkpt lat="43.55205" lon="6.60805">
        <ele>143.1</ele>
        <time>2020-03-01T12:10:46.000Z</time>
      </trkpt>
      <trkpt lat="43.55196" lon="6.60811">
        <ele>143.5</ele>
        <time>2020-03-01T12:11:14.000Z</time>
      </trkpt>
      <trkpt lat="43.55188" lon="6.60814">
        <ele>143.4</ele>
        <time>2020-03-01T12:11:31.000Z</time>
      </trkpt>
      <trkpt lat="43.55179" lon="6.60813">
        <ele>143.8</ele>
        <time>2020-03-01T12:11:40.000Z</time>
      </trkpt>
      <trkpt lat="43.55171" lon="6.60806">
        <ele>144.4</ele>
        <time>2020-03-01T12:11:50.000Z</time>
      </trkpt>
      <trkpt lat="43.55165" lon="6.60797">
        <ele>145</ele>
        <time>2020-03-01T12:12:00.000Z</time>
      </trkpt>
      <trkpt lat="43.55159" lon="6.60787">
        <ele>145.6</ele>
        <time>2020-03-01T12:12:11.000Z</time>
      </trkpt>
      <trkpt lat="43.55152" lon="6.60778">
        <ele>146.5</ele>
        <time>2020-03-01T12:12:21.000Z</time>
      </trkpt>
      <trkpt lat="43.55142" lon="6.60777">
        <ele>147.3</ele>
        <time>2020-03-01T12:12:30.000Z</time>
      </trkpt>
      <trkpt lat="43.55133" lon="6.60781">
        <ele>147.5</ele>
        <time>2020-03-01T12:12:40.000Z</time>
      </trkpt>
      <trkpt lat="43.55128" lon="6.60792">
        <ele>148.6</ele>
        <time>2020-03-01T12:12:51.000Z</time>
      </trkpt>
      <trkpt lat="43.55126" lon="6.60804">
        <ele>149.7</ele>
        <time>2020-03-01T12:13:01.000Z</time>
      </trkpt>
      <trkpt lat="43.55124" lon="6.60816">
        <ele>150.5</ele>
        <time>2020-03-01T12:13:11.000Z</time>
      </trkpt>
      <trkpt lat="43.5512" lon="6.60828">
        <ele>150.8</ele>
        <time>2020-03-01T12:13:21.000Z</time>
      </trkpt>
      <trkpt lat="43.55117" lon="6.60839">
        <ele>152.4</ele>
        <time>2020-03-01T12:13:32.000Z</time>
      </trkpt>
      <trkpt lat="43.55112" lon="6.60851">
        <ele>154.1</ele>
        <time>2020-03-01T12:13:42.000Z</time>
      </trkpt>
      <trkpt lat="43.55107" lon="6.60862">
        <ele>156.2</ele>
        <time>2020-03-01T12:13:52.000Z</time>
      </trkpt>
      <trkpt lat="43.55103" lon="6.60874">
        <ele>157.9</ele>
        <time>2020-03-01T12:14:01.000Z</time>
      </trkpt>
      <trkpt lat="43.55098" lon="6.60886">
        <ele>159.5</ele>
        <time>2020-03-01T12:14:11.000Z</time>
      </trkpt>
      <trkpt lat="43.55095" lon="6.60898">
        <ele>160.5</ele>
        <time>2020-03-01T12:14:21.000Z</time>
      </trkpt>
      <trkpt lat="43.55092" lon="6.60911">
        <ele>161.8</ele>
        <time>2020-03-01T12:14:30.000Z</time>
      </trkpt>
      <trkpt lat="43.5509" lon="6.60924">
        <ele>163.1</ele>
        <time>2020-03-01T12:14:39.000Z</time>
      </trkpt>
      <trkpt lat="43.5509" lon="6.60937">
        <ele>163.7</ele>
        <time>2020-03-01T12:14:48.000Z</time>
      </trkpt>
      <trkpt lat="43.5509" lon="6.6095">
        <ele>164.7</ele>
        <time>2020-03-01T12:14:57.000Z</time>
      </trkpt>
      <trkpt lat="43.55092" lon="6.60962">
        <ele>165.8</ele>
        <time>2020-03-01T12:15:06.000Z</time>
      </trkpt>
      <trkpt lat="43.55094" lon="6.60975">
        <ele>167.4</ele>
        <time>2020-03-01T12:15:15.000Z</time>
      </trkpt>
      <trkpt lat="43.55097" lon="6.60987">
        <ele>169.3</ele>
        <time>2020-03-01T12:15:24.000Z</time>
      </trkpt>
      <trkpt lat="43.55102" lon="6.60998">
        <ele>170.3</ele>
        <time>2020-03-01T12:15:32.000Z</time>
      </trkpt>
      <trkpt lat="43.55108" lon="6.61008">
        <ele>171.1</ele>
        <time>2020-03-01T12:15:41.000Z</time>
      </trkpt>
      <trkpt lat="43.55114" lon="6.61018">
        <ele>172</ele>
        <time>2020-03-01T12:15:50.000Z</time>
      </trkpt>
      <trkpt lat="43.5512" lon="6.61027">
        <ele>173.2</ele>
        <time>2020-03-01T12:15:58.000Z</time>
      </trkpt>
      <trkpt lat="43.55127" lon="6.61037">
        <ele>174.2</ele>
        <time>2020-03-01T12:16:07.000Z</time>
      </trkpt>
      <trkpt lat="43.55132" lon="6.61048">
        <ele>175.1</ele>
        <time>2020-03-01T12:16:16.000Z</time>
      </trkpt>
      <trkpt lat="43.55136" lon="6.61059">
        <ele>176.2</ele>
        <time>2020-03-01T12:16:26.000Z</time>
      </trkpt>
      <trkpt lat="43.5514" lon="6.61072">
        <ele>177.2</ele>
        <time>2020-03-01T12:16:36.000Z</time>
      </trkpt>
      <trkpt lat="43.55142" lon="6.61084">
        <ele>178</ele>
        <time>2020-03-01T12:16:44.000Z</time>
      </trkpt>
      <trkpt lat="43.55145" lon="6.61096">
        <ele>178.7</ele>
        <time>2020-03-01T12:16:53.000Z</time>
      </trkpt>
      <trkpt lat="43.55147" lon="6.61109">
        <ele>179.9</ele>
        <time>2020-03-01T12:17:01.000Z</time>
      </trkpt>
      <trkpt lat="43.55149" lon="6.61122">
        <ele>181.1</ele>
        <time>2020-03-01T12:17:10.000Z</time>
      </trkpt>
      <trkpt lat="43.55151" lon="6.61135">
        <ele>182.6</ele>
        <time>2020-03-01T12:17:19.000Z</time>
      </trkpt>
      <trkpt lat="43.55154" lon="6.61148">
        <ele>184</ele>
        <time>2020-03-01T12:17:28.000Z</time>
      </trkpt>
      <trkpt lat="43.55156" lon="6.61161">
        <ele>184.8</ele>
        <time>2020-03-01T12:17:37.000Z</time>
      </trkpt>
      <trkpt lat="43.55158" lon="6.61173">
        <ele>185.8</ele>
        <time>2020-03-01T12:17:45.000Z</time>
      </trkpt>
      <trkpt lat="43.5516" lon="6.61185">
        <ele>186.6</ele>
        <time>2020-03-01T12:17:53.000Z</time>
      </trkpt>
      <trkpt lat="43.55162" lon="6.61198">
        <ele>187.2</ele>
        <time>2020-03-01T12:18:01.000Z</time>
      </trkpt>
      <trkpt lat="43.55166" lon="6.61211">
        <ele>188.2</ele>
        <time>2020-03-01T12:18:10.000Z</time>
      </trkpt>
      <trkpt lat="43.5517" lon="6.61222">
        <ele>188.8</ele>
        <time>2020-03-01T12:18:18.000Z</time>
      </trkpt>
      <trkpt lat="43.55174" lon="6.61234">
        <ele>189.8</ele>
        <time>2020-03-01T12:18:27.000Z</time>
      </trkpt>
      <trkpt lat="43.55179" lon="6.61246">
        <ele>190.7</ele>
        <time>2020-03-01T12:18:35.000Z</time>
      </trkpt>
      <trkpt lat="43.55183" lon="6.61257">
        <ele>191.5</ele>
        <time>2020-03-01T12:18:43.000Z</time>
      </trkpt>
      <trkpt lat="43.55185" lon="6.6127">
        <ele>191.9</ele>
        <time>2020-03-01T12:18:52.000Z</time>
      </trkpt>
      <trkpt lat="43.55186" lon="6.61283">
        <ele>193.4</ele>
        <time>2020-03-01T12:19:00.000Z</time>
      </trkpt>
      <trkpt lat="43.55186" lon="6.61297">
        <ele>194.3</ele>
        <time>2020-03-01T12:19:09.000Z</time>
      </trkpt>
      <trkpt lat="43.55186" lon="6.6131">
        <ele>195.1</ele>
        <time>2020-03-01T12:19:18.000Z</time>
      </trkpt>
      <trkpt lat="43.55185" lon="6.61324">
        <ele>196.1</ele>
        <time>2020-03-01T12:19:27.000Z</time>
      </trkpt>
      <trkpt lat="43.55185" lon="6.61337">
        <ele>197</ele>
        <time>2020-03-01T12:19:36.000Z</time>
      </trkpt>
      <trkpt lat="43.55183" lon="6.6135">
        <ele>198</ele>
        <time>2020-03-01T12:19:44.000Z</time>
      </trkpt>
      <trkpt lat="43.55183" lon="6.61363">
        <ele>198.9</ele>
        <time>2020-03-01T12:19:52.000Z</time>
      </trkpt>
      <trkpt lat="43.55182" lon="6.61377">
        <ele>199.7</ele>
        <time>2020-03-01T12:20:00.000Z</time>
      </trkpt>
      <trkpt lat="43.55181" lon="6.6139">
        <ele>200.5</ele>
        <time>2020-03-01T12:20:08.000Z</time>
      </trkpt>
      <trkpt lat="43.55181" lon="6.61403">
        <ele>201</ele>
        <time>2020-03-01T12:20:16.000Z</time>
      </trkpt>
      <trkpt lat="43.55181" lon="6.61416">
        <ele>201.6</ele>
        <time>2020-03-01T12:20:24.000Z</time>
      </trkpt>
      <trkpt lat="43.55181" lon="6.6143">
        <ele>202.1</ele>
        <time>2020-03-01T12:20:32.000Z</time>
      </trkpt>
      <trkpt lat="43.55182" lon="6.61444">
        <ele>202.5</ele>
        <time>2020-03-01T12:20:40.000Z</time>
      </trkpt>
      <trkpt lat="43.55184" lon="6.61457">
        <ele>202.8</ele>
        <time>2020-03-01T12:20:48.000Z</time>
      </trkpt>
      <trkpt lat="43.55186" lon="6.6147">
        <ele>202.6</ele>
        <time>2020-03-01T12:20:55.000Z</time>
      </trkpt>
      <trkpt lat="43.55188" lon="6.61484">
        <ele>203</ele>
        <time>2020-03-01T12:21:03.000Z</time>
      </trkpt>
      <trkpt lat="43.55191" lon="6.61496">
        <ele>203.3</ele>
        <time>2020-03-01T12:21:11.000Z</time>
      </trkpt>
      <trkpt lat="43.55195" lon="6.61509">
        <ele>203.2</ele>
        <time>2020-03-01T12:21:19.000Z</time>
      </trkpt>
      <trkpt lat="43.55205" lon="6.61513">
        <ele>203.1</ele>
        <time>2020-03-01T12:21:48.000Z</time>
      </trkpt>
      <trkpt lat="43.552" lon="6.61523">
        <ele>203.8</ele>
        <time>2020-03-01T12:23:50.000Z</time>
      </trkpt>
      <trkpt lat="43.55205" lon="6.61534">
        <ele>204</ele>
        <time>2020-03-01T12:23:57.000Z</time>
      </trkpt>
      <trkpt lat="43.5521" lon="6.61545">
        <ele>204.3</ele>
        <time>2020-03-01T12:24:04.000Z</time>
      </trkpt>
      <trkpt lat="43.55215" lon="6.61556">
        <ele>205</ele>
        <time>2020-03-01T12:24:12.000Z</time>
      </trkpt>
      <trkpt lat="43.5522" lon="6.61567">
        <ele>206.5</ele>
        <time>2020-03-01T12:24:20.000Z</time>
      </trkpt>
      <trkpt lat="43.55225" lon="6.61578">
        <ele>207.9</ele>
        <time>2020-03-01T12:24:29.000Z</time>
      </trkpt>
      <trkpt lat="43.5523" lon="6.61589">
        <ele>209</ele>
        <time>2020-03-01T12:24:38.000Z</time>
      </trkpt>
      <trkpt lat="43.55235" lon="6.61601">
        <ele>210.3</ele>
        <time>2020-03-01T12:24:46.000Z</time>
      </trkpt>
      <trkpt lat="43.55238" lon="6.61613">
        <ele>211.1</ele>
        <time>2020-03-01T12:24:54.000Z</time>
      </trkpt>
      <trkpt lat="43.55243" lon="6.61625">
        <ele>212.2</ele>
        <time>2020-03-01T12:25:02.000Z</time>
      </trkpt>
      <trkpt lat="43.55245" lon="6.61637">
        <ele>212.3</ele>
        <time>2020-03-01T12:25:09.000Z</time>
      </trkpt>
      <trkpt lat="43.55249" lon="6.6165">
        <ele>212.3</ele>
        <time>2020-03-01T12:25:17.000Z</time>
      </trkpt>
      <trkpt lat="43.55251" lon="6.61663">
        <ele>212.4</ele>
        <time>2020-03-01T12:25:24.000Z</time>
      </trkpt>
      <trkpt lat="43.55252" lon="6.61675">
        <ele>212.7</ele>
        <time>2020-03-01T12:25:31.000Z</time>
      </trkpt>
      <trkpt lat="43.55253" lon="6.61688">
        <ele>213</ele>
        <time>2020-03-01T12:25:39.000Z</time>
      </trkpt>
      <trkpt lat="43.55254" lon="6.61702">
        <ele>213</ele>
        <time>2020-03-01T12:25:46.000Z</time>
      </trkpt>
      <trkpt lat="43.55256" lon="6.61716">
        <ele>213.1</ele>
        <time>2020-03-01T12:25:53.000Z</time>
      </trkpt>
      <trkpt lat="43.55259" lon="6.61728">
        <ele>213.3</ele>
        <time>2020-03-01T12:25:59.000Z</time>
      </trkpt>
      <trkpt lat="43.55262" lon="6.61741">
        <ele>213.8</ele>
        <time>2020-03-01T12:26:05.000Z</time>
      </trkpt>
      <trkpt lat="43.55267" lon="6.61751">
        <ele>214.3</ele>
        <time>2020-03-01T12:26:12.000Z</time>
      </trkpt>
      <trkpt lat="43.55272" lon="6.61762">
        <ele>214</ele>
        <time>2020-03-01T12:26:20.000Z</time>
      </trkpt>
      <trkpt lat="43.55277" lon="6.61773">
        <ele>213.2</ele>
        <time>2020-03-01T12:26:27.000Z</time>
      </trkpt>
      <trkpt lat="43.55281" lon="6.61786">
        <ele>212.5</ele>
        <time>2020-03-01T12:26:33.000Z</time>
      </trkpt>
      <trkpt lat="43.55285" lon="6.61798">
        <ele>211.4</ele>
        <time>2020-03-01T12:26:40.000Z</time>
      </trkpt>
      <trkpt lat="43.55287" lon="6.61812">
        <ele>211.1</ele>
        <time>2020-03-01T12:26:47.000Z</time>
      </trkpt>
      <trkpt lat="43.55289" lon="6.61825">
        <ele>211.3</ele>
        <time>2020-03-01T12:26:54.000Z</time>
      </trkpt>
      <trkpt lat="43.5529" lon="6.61837">
        <ele>211.7</ele>
        <time>2020-03-01T12:27:01.000Z</time>
      </trkpt>
      <trkpt lat="43.55292" lon="6.61851">
        <ele>212.1</ele>
        <time>2020-03-01T12:27:10.000Z</time>
      </trkpt>
      <trkpt lat="43.55295" lon="6.61863">
        <ele>213</ele>
        <time>2020-03-01T12:27:17.000Z</time>
      </trkpt>
      <trkpt lat="43.55299" lon="6.61874">
        <ele>213.8</ele>
        <time>2020-03-01T12:27:24.000Z</time>
      </trkpt>
      <trkpt lat="43.55303" lon="6.61887">
        <ele>215.2</ele>
        <time>2020-03-01T12:27:31.000Z</time>
      </trkpt>
      <trkpt lat="43.55308" lon="6.61899">
        <ele>216.6</ele>
        <time>2020-03-01T12:27:39.000Z</time>
      </trkpt>
      <trkpt lat="43.55317" lon="6.61904">
        <ele>216.7</ele>
        <time>2020-03-01T12:27:54.000Z</time>
      </trkpt>
      <trkpt lat="43.5532" lon="6.61916">
        <ele>214.3</ele>
        <time>2020-03-01T12:31:09.000Z</time>
      </trkpt>
      <trkpt lat="43.55324" lon="6.61929">
        <ele>214.7</ele>
        <time>2020-03-01T12:31:19.000Z</time>
      </trkpt>
      <trkpt lat="43.55329" lon="6.61941">
        <ele>215</ele>
        <time>2020-03-01T12:31:29.000Z</time>
      </trkpt>
      <trkpt lat="43.55334" lon="6.61953">
        <ele>215.3</ele>
        <time>2020-03-01T12:31:39.000Z</time>
      </trkpt>
      <trkpt lat="43.55338" lon="6.61965">
        <ele>215.8</ele>
        <time>2020-03-01T12:31:48.000Z</time>
      </trkpt>
      <trkpt lat="43.55342" lon="6.61976">
        <ele>215.9</ele>
        <time>2020-03-01T12:31:56.000Z</time>
      </trkpt>
      <trkpt lat="43.55345" lon="6.61988">
        <ele>216.8</ele>
        <time>2020-03-01T12:32:05.000Z</time>
      </trkpt>
      <trkpt lat="43.55347" lon="6.62001">
        <ele>217.5</ele>
        <time>2020-03-01T12:32:13.000Z</time>
      </trkpt>
      <trkpt lat="43.55348" lon="6.62013">
        <ele>217.7</ele>
        <time>2020-03-01T12:32:22.000Z</time>
      </trkpt>
      <trkpt lat="43.5535" lon="6.62026">
        <ele>218.7</ele>
        <time>2020-03-01T12:32:32.000Z</time>
      </trkpt>
      <trkpt lat="43.55349" lon="6.62039">
        <ele>219</ele>
        <time>2020-03-01T12:32:40.000Z</time>
      </trkpt>
      <trkpt lat="43.55348" lon="6.62053">
        <ele>220</ele>
        <time>2020-03-01T12:32:49.000Z</time>
      </trkpt>
      <trkpt lat="43.55347" lon="6.62066">
        <ele>220.6</ele>
        <time>2020-03-01T12:32:57.000Z</time>
      </trkpt>
      <trkpt lat="43.55346" lon="6.62078">
        <ele>221.2</ele>
        <time>2020-03-01T12:33:07.000Z</time>
      </trkpt>
      <trkpt lat="43.55345" lon="6.62091">
        <ele>221.8</ele>
        <time>2020-03-01T12:33:15.000Z</time>
      </trkpt>
      <trkpt lat="43.55345" lon="6.62104">
        <ele>221.8</ele>
        <time>2020-03-01T12:33:23.000Z</time>
      </trkpt>
      <trkpt lat="43.55345" lon="6.62118">
        <ele>221.6</ele>
        <time>2020-03-01T12:33:32.000Z</time>
      </trkpt>
      <trkpt lat="43.55344" lon="6.62131">
        <ele>222.3</ele>
        <time>2020-03-01T12:33:40.000Z</time>
      </trkpt>
      <trkpt lat="43.55344" lon="6.62143">
        <ele>222.6</ele>
        <time>2020-03-01T12:33:48.000Z</time>
      </trkpt>
      <trkpt lat="43.55343" lon="6.62156">
        <ele>222.9</ele>
        <time>2020-03-01T12:33:56.000Z</time>
      </trkpt>
      <trkpt lat="43.55344" lon="6.6217">
        <ele>223.8</ele>
        <time>2020-03-01T12:34:05.000Z</time>
      </trkpt>
      <trkpt lat="43.55344" lon="6.62184">
        <ele>224.4</ele>
        <time>2020-03-01T12:34:13.000Z</time>
      </trkpt>
      <trkpt lat="43.55342" lon="6.62197">
        <ele>224.4</ele>
        <time>2020-03-01T12:34:21.000Z</time>
      </trkpt>
      <trkpt lat="43.55341" lon="6.6221">
        <ele>225.2</ele>
        <time>2020-03-01T12:34:29.000Z</time>
      </trkpt>
      <trkpt lat="43.55341" lon="6.62224">
        <ele>226</ele>
        <time>2020-03-01T12:34:38.000Z</time>
      </trkpt>
      <trkpt lat="43.55341" lon="6.62236">
        <ele>226.9</ele>
        <time>2020-03-01T12:34:47.000Z</time>
      </trkpt>
      <trkpt lat="43.55341" lon="6.6225">
        <ele>227.8</ele>
        <time>2020-03-01T12:34:55.000Z</time>
      </trkpt>
      <trkpt lat="43.55341" lon="6.62263">
        <ele>228.6</ele>
        <time>2020-03-01T12:35:04.000Z</time>
      </trkpt>
      <trkpt lat="43.55341" lon="6.62277">
        <ele>229.3</ele>
        <time>2020-03-01T12:35:13.000Z</time>
      </trkpt>
      <trkpt lat="43.55342" lon="6.6229">
        <ele>230.1</ele>
        <time>2020-03-01T12:35:21.000Z</time>
      </trkpt>
      <trkpt lat="43.55342" lon="6.62303">
        <ele>230.7</ele>
        <time>2020-03-01T12:35:29.000Z</time>
      </trkpt>
      <trkpt lat="43.55342" lon="6.62316">
        <ele>231.3</ele>
        <time>2020-03-01T12:35:38.000Z</time>
      </trkpt>
      <trkpt lat="43.55342" lon="6.6233">
        <ele>231.9</ele>
        <time>2020-03-01T12:35:46.000Z</time>
      </trkpt>
      <trkpt lat="43.55344" lon="6.62344">
        <ele>232.3</ele>
        <time>2020-03-01T12:35:55.000Z</time>
      </trkpt>
      <trkpt lat="43.55343" lon="6.62357">
        <ele>233.3</ele>
        <time>2020-03-01T12:36:04.000Z</time>
      </trkpt>
      <trkpt lat="43.55344" lon="6.62371">
        <ele>234.5</ele>
        <time>2020-03-01T12:36:13.000Z</time>
      </trkpt>
      <trkpt lat="43.55345" lon="6.62383">
        <ele>235.5</ele>
        <time>2020-03-01T12:36:22.000Z</time>
      </trkpt>
      <trkpt lat="43.55347" lon="6.62396">
        <ele>236.6</ele>
        <time>2020-03-01T12:36:31.000Z</time>
      </trkpt>
      <trkpt lat="43.55348" lon="6.62409">
        <ele>237.5</ele>
        <time>2020-03-01T12:36:39.000Z</time>
      </trkpt>
      <trkpt lat="43.55349" lon="6.62422">
        <ele>238.6</ele>
        <time>2020-03-01T12:36:48.000Z</time>
      </trkpt>
      <trkpt lat="43.5535" lon="6.62434">
        <ele>240.2</ele>
        <time>2020-03-01T12:36:58.000Z</time>
      </trkpt>
      <trkpt lat="43.5535" lon="6.62448">
        <ele>241.4</ele>
        <time>2020-03-01T12:37:08.000Z</time>
      </trkpt>
      <trkpt lat="43.55352" lon="6.62461">
        <ele>241.4</ele>
        <time>2020-03-01T12:37:17.000Z</time>
      </trkpt>
      <trkpt lat="43.55355" lon="6.62474">
        <ele>242.4</ele>
        <time>2020-03-01T12:37:27.000Z</time>
      </trkpt>
      <trkpt lat="43.55362" lon="6.62482">
        <ele>242.7</ele>
        <time>2020-03-01T12:37:36.000Z</time>
      </trkpt>
      <trkpt lat="43.55369" lon="6.62491">
        <ele>243.8</ele>
        <time>2020-03-01T12:37:46.000Z</time>
      </trkpt>
      <trkpt lat="43.55376" lon="6.62502">
        <ele>244.7</ele>
        <time>2020-03-01T12:37:55.000Z</time>
      </trkpt>
      <trkpt lat="43.55378" lon="6.62514">
        <ele>245.6</ele>
        <time>2020-03-01T12:38:04.000Z</time>
      </trkpt>
      <trkpt lat="43.55377" lon="6.62527">
        <ele>246.6</ele>
        <time>2020-03-01T12:38:14.000Z</time>
      </trkpt>
      <trkpt lat="43.55376" lon="6.6254">
        <ele>247.8</ele>
        <time>2020-03-01T12:38:24.000Z</time>
      </trkpt>
      <trkpt lat="43.55374" lon="6.62553">
        <ele>248.7</ele>
        <time>2020-03-01T12:38:33.000Z</time>
      </trkpt>
      <trkpt lat="43.55375" lon="6.62566">
        <ele>249.2</ele>
        <time>2020-03-01T12:38:42.000Z</time>
      </trkpt>
      <trkpt lat="43.55379" lon="6.62579">
        <ele>249.8</ele>
        <time>2020-03-01T12:38:51.000Z</time>
      </trkpt>
      <trkpt lat="43.55383" lon="6.6259">
        <ele>250.4</ele>
        <time>2020-03-01T12:38:59.000Z</time>
      </trkpt>
      <trkpt lat="43.55391" lon="6.62595">
        <ele>250.6</ele>
        <time>2020-03-01T12:39:08.000Z</time>
      </trkpt>
      <trkpt lat="43.55401" lon="6.62594">
        <ele>250.9</ele>
        <time>2020-03-01T12:39:17.000Z</time>
      </trkpt>
      <trkpt lat="43.55411" lon="6.6259">
        <ele>251.2</ele>
        <time>2020-03-01T12:39:25.000Z</time>
      </trkpt>
      <trkpt lat="43.5542" lon="6.62585">
        <ele>250.8</ele>
        <time>2020-03-01T12:39:34.000Z</time>
      </trkpt>
      <trkpt lat="43.55429" lon="6.6258">
        <ele>251.1</ele>
        <time>2020-03-01T12:39:42.000Z</time>
      </trkpt>
      <trkpt lat="43.55438" lon="6.62575">
        <ele>250.9</ele>
        <time>2020-03-01T12:39:52.000Z</time>
      </trkpt>
      <trkpt lat="43.55447" lon="6.62571">
        <ele>250.3</ele>
        <time>2020-03-01T12:40:02.000Z</time>
      </trkpt>
      <trkpt lat="43.55457" lon="6.62568">
        <ele>249.8</ele>
        <time>2020-03-01T12:40:10.000Z</time>
      </trkpt>
      <trkpt lat="43.55466" lon="6.62572">
        <ele>249</ele>
        <time>2020-03-01T12:40:19.000Z</time>
      </trkpt>
      <trkpt lat="43.55473" lon="6.62582">
        <ele>248.8</ele>
        <time>2020-03-01T12:40:27.000Z</time>
      </trkpt>
      <trkpt lat="43.55478" lon="6.62594">
        <ele>248.9</ele>
        <time>2020-03-01T12:40:36.000Z</time>
      </trkpt>
      <trkpt lat="43.5548" lon="6.62606">
        <ele>249.8</ele>
        <time>2020-03-01T12:40:45.000Z</time>
      </trkpt>
      <trkpt lat="43.55484" lon="6.62619">
        <ele>249.6</ele>
        <time>2020-03-01T12:40:56.000Z</time>
      </trkpt>
      <trkpt lat="43.55488" lon="6.62632">
        <ele>249.6</ele>
        <time>2020-03-01T12:41:07.000Z</time>
      </trkpt>
      <trkpt lat="43.55488" lon="6.62645">
        <ele>249.2</ele>
        <time>2020-03-01T12:41:18.000Z</time>
      </trkpt>
      <trkpt lat="43.55489" lon="6.62657">
        <ele>250</ele>
        <time>2020-03-01T12:41:27.000Z</time>
      </trkpt>
      <trkpt lat="43.5549" lon="6.62669">
        <ele>250.4</ele>
        <time>2020-03-01T12:41:36.000Z</time>
      </trkpt>
      <trkpt lat="43.55491" lon="6.62682">
        <ele>251</ele>
        <time>2020-03-01T12:41:45.000Z</time>
      </trkpt>
      <trkpt lat="43.55492" lon="6.62696">
        <ele>251.4</ele>
        <time>2020-03-01T12:41:54.000Z</time>
      </trkpt>
      <trkpt lat="43.55493" lon="6.62709">
        <ele>252.3</ele>
        <time>2020-03-01T12:42:03.000Z</time>
      </trkpt>
      <trkpt lat="43.55495" lon="6.62721">
        <ele>253.2</ele>
        <time>2020-03-01T12:42:11.000Z</time>
      </trkpt>
      <trkpt lat="43.55494" lon="6.62735">
        <ele>254.1</ele>
        <time>2020-03-01T12:42:19.000Z</time>
      </trkpt>
      <trkpt lat="43.55495" lon="6.62749">
        <ele>255</ele>
        <time>2020-03-01T12:42:27.000Z</time>
      </trkpt>
      <trkpt lat="43.55496" lon="6.62763">
        <ele>255.6</ele>
        <time>2020-03-01T12:42:35.000Z</time>
      </trkpt>
      <trkpt lat="43.55496" lon="6.62776">
        <ele>255.9</ele>
        <time>2020-03-01T12:42:43.000Z</time>
      </trkpt>
      <trkpt lat="43.55496" lon="6.62789">
        <ele>256.6</ele>
        <time>2020-03-01T12:42:51.000Z</time>
      </trkpt>
      <trkpt lat="43.55497" lon="6.62802">
        <ele>257.3</ele>
        <time>2020-03-01T12:42:58.000Z</time>
      </trkpt>
      <trkpt lat="43.55498" lon="6.62816">
        <ele>257.3</ele>
        <time>2020-03-01T12:43:06.000Z</time>
      </trkpt>
      <trkpt lat="43.55499" lon="6.62829">
        <ele>258.2</ele>
        <time>2020-03-01T12:43:14.000Z</time>
      </trkpt>
      <trkpt lat="43.55499" lon="6.62842">
        <ele>259</ele>
        <time>2020-03-01T12:43:22.000Z</time>
      </trkpt>
      <trkpt lat="43.55497" lon="6.62855">
        <ele>259.8</ele>
        <time>2020-03-01T12:43:31.000Z</time>
      </trkpt>
      <trkpt lat="43.55493" lon="6.62867">
        <ele>261</ele>
        <time>2020-03-01T12:43:41.000Z</time>
      </trkpt>
      <trkpt lat="43.55485" lon="6.62874">
        <ele>262</ele>
        <time>2020-03-01T12:43:52.000Z</time>
      </trkpt>
      <trkpt lat="43.55477" lon="6.6288">
        <ele>262.3</ele>
        <time>2020-03-01T12:44:01.000Z</time>
      </trkpt>
      <trkpt lat="43.55468" lon="6.62886">
        <ele>262.6</ele>
        <time>2020-03-01T12:44:10.000Z</time>
      </trkpt>
      <trkpt lat="43.5546" lon="6.62892">
        <ele>262.9</ele>
        <time>2020-03-01T12:44:18.000Z</time>
      </trkpt>
      <trkpt lat="43.55451" lon="6.62899">
        <ele>263.2</ele>
        <time>2020-03-01T12:44:26.000Z</time>
      </trkpt>
      <trkpt lat="43.55444" lon="6.62906">
        <ele>263.2</ele>
        <time>2020-03-01T12:44:34.000Z</time>
      </trkpt>
      <trkpt lat="43.55436" lon="6.62915">
        <ele>263.7</ele>
        <time>2020-03-01T12:44:43.000Z</time>
      </trkpt>
      <trkpt lat="43.55428" lon="6.62922">
        <ele>264.7</ele>
        <time>2020-03-01T12:44:51.000Z</time>
      </trkpt>
      <trkpt lat="43.55422" lon="6.6293">
        <ele>265.1</ele>
        <time>2020-03-01T12:44:59.000Z</time>
      </trkpt>
      <trkpt lat="43.55417" lon="6.62942">
        <ele>266.4</ele>
        <time>2020-03-01T12:45:07.000Z</time>
      </trkpt>
      <trkpt lat="43.55411" lon="6.62953">
        <ele>266.7</ele>
        <time>2020-03-01T12:45:16.000Z</time>
      </trkpt>
      <trkpt lat="43.55406" lon="6.62965">
        <ele>267.5</ele>
        <time>2020-03-01T12:45:24.000Z</time>
      </trkpt>
      <trkpt lat="43.55405" lon="6.62978">
        <ele>267.7</ele>
        <time>2020-03-01T12:45:32.000Z</time>
      </trkpt>
      <trkpt lat="43.55408" lon="6.62991">
        <ele>267.8</ele>
        <time>2020-03-01T12:45:39.000Z</time>
      </trkpt>
      <trkpt lat="43.55409" lon="6.63005">
        <ele>267.9</ele>
        <time>2020-03-01T12:45:47.000Z</time>
      </trkpt>
      <trkpt lat="43.55409" lon="6.63018">
        <ele>268</ele>
        <time>2020-03-01T12:45:55.000Z</time>
      </trkpt>
      <trkpt lat="43.55406" lon="6.63031">
        <ele>268.7</ele>
        <time>2020-03-01T12:46:04.000Z</time>
      </trkpt>
      <trkpt lat="43.55403" lon="6.63043">
        <ele>270.2</ele>
        <time>2020-03-01T12:46:13.000Z</time>
      </trkpt>
      <trkpt lat="43.55399" lon="6.63055">
        <ele>270.8</ele>
        <time>2020-03-01T12:46:22.000Z</time>
      </trkpt>
      <trkpt lat="43.55396" lon="6.63066">
        <ele>271.8</ele>
        <time>2020-03-01T12:46:30.000Z</time>
      </trkpt>
      <trkpt lat="43.5539" lon="6.63078">
        <ele>272.2</ele>
        <time>2020-03-01T12:46:38.000Z</time>
      </trkpt>
      <trkpt lat="43.55387" lon="6.63091">
        <ele>272.2</ele>
        <time>2020-03-01T12:46:46.000Z</time>
      </trkpt>
      <trkpt lat="43.55385" lon="6.63104">
        <ele>272.3</ele>
        <time>2020-03-01T12:46:55.000Z</time>
      </trkpt>
      <trkpt lat="43.55384" lon="6.63117">
        <ele>273.1</ele>
        <time>2020-03-01T12:47:03.000Z</time>
      </trkpt>
      <trkpt lat="43.55383" lon="6.6313">
        <ele>273.5</ele>
        <time>2020-03-01T12:47:12.000Z</time>
      </trkpt>
      <trkpt lat="43.55382" lon="6.63143">
        <ele>273.8</ele>
        <time>2020-03-01T12:47:20.000Z</time>
      </trkpt>
      <trkpt lat="43.55382" lon="6.63156">
        <ele>274.2</ele>
        <time>2020-03-01T12:47:28.000Z</time>
      </trkpt>
      <trkpt lat="43.55382" lon="6.63169">
        <ele>274.9</ele>
        <time>2020-03-01T12:47:37.000Z</time>
      </trkpt>
      <trkpt lat="43.55382" lon="6.63182">
        <ele>275.8</ele>
        <time>2020-03-01T12:47:46.000Z</time>
      </trkpt>
      <trkpt lat="43.55382" lon="6.63194">
        <ele>276.2</ele>
        <time>2020-03-01T12:47:54.000Z</time>
      </trkpt>
      <trkpt lat="43.5538" lon="6.63209">
        <ele>277</ele>
        <time>2020-03-01T12:48:03.000Z</time>
      </trkpt>
      <trkpt lat="43.5538" lon="6.63221">
        <ele>278</ele>
        <time>2020-03-01T12:48:11.000Z</time>
      </trkpt>
      <trkpt lat="43.55378" lon="6.63234">
        <ele>278.5</ele>
        <time>2020-03-01T12:48:19.000Z</time>
      </trkpt>
      <trkpt lat="43.55375" lon="6.63246">
        <ele>278.9</ele>
        <time>2020-03-01T12:48:28.000Z</time>
      </trkpt>
      <trkpt lat="43.55369" lon="6.63257">
        <ele>279.2</ele>
        <time>2020-03-01T12:48:36.000Z</time>
      </trkpt>
      <trkpt lat="43.55362" lon="6.63266">
        <ele>280.4</ele>
        <time>2020-03-01T12:48:44.000Z</time>
      </trkpt>
      <trkpt lat="43.55354" lon="6.63273">
        <ele>280.4</ele>
        <time>2020-03-01T12:48:52.000Z</time>
      </trkpt>
      <trkpt lat="43.55344" lon="6.63272">
        <ele>281.2</ele>
        <time>2020-03-01T12:49:01.000Z</time>
      </trkpt>
      <trkpt lat="43.55334" lon="6.63269">
        <ele>281.2</ele>
        <time>2020-03-01T12:49:09.000Z</time>
      </trkpt>
      <trkpt lat="43.55325" lon="6.63268">
        <ele>281</ele>
        <time>2020-03-01T12:49:17.000Z</time>
      </trkpt>
      <trkpt lat="43.55314" lon="6.63266">
        <ele>280.3</ele>
        <time>2020-03-01T12:49:25.000Z</time>
      </trkpt>
      <trkpt lat="43.55305" lon="6.63263">
        <ele>279.9</ele>
        <time>2020-03-01T12:49:33.000Z</time>
      </trkpt>
      <trkpt lat="43.55297" lon="6.63258">
        <ele>280</ele>
        <time>2020-03-01T12:49:41.000Z</time>
      </trkpt>
      <trkpt lat="43.5529" lon="6.6325">
        <ele>279.8</ele>
        <time>2020-03-01T12:49:49.000Z</time>
      </trkpt>
      <trkpt lat="43.55283" lon="6.63242">
        <ele>279.9</ele>
        <time>2020-03-01T12:49:56.000Z</time>
      </trkpt>
      <trkpt lat="43.55275" lon="6.63233">
        <ele>280.1</ele>
        <time>2020-03-01T12:50:03.000Z</time>
      </trkpt>
      <trkpt lat="43.55267" lon="6.63226">
        <ele>280.4</ele>
        <time>2020-03-01T12:50:10.000Z</time>
      </trkpt>
      <trkpt lat="43.55258" lon="6.63222">
        <ele>280.7</ele>
        <time>2020-03-01T12:50:17.000Z</time>
      </trkpt>
      <trkpt lat="43.55248" lon="6.63221">
        <ele>280.6</ele>
        <time>2020-03-01T12:50:25.000Z</time>
      </trkpt>
      <trkpt lat="43.55239" lon="6.63225">
        <ele>281.3</ele>
        <time>2020-03-01T12:50:32.000Z</time>
      </trkpt>
      <trkpt lat="43.5523" lon="6.63232">
        <ele>281.8</ele>
        <time>2020-03-01T12:50:40.000Z</time>
      </trkpt>
      <trkpt lat="43.55223" lon="6.63242">
        <ele>282.2</ele>
        <time>2020-03-01T12:50:48.000Z</time>
      </trkpt>
      <trkpt lat="43.55221" lon="6.63254">
        <ele>283</ele>
        <time>2020-03-01T12:50:56.000Z</time>
      </trkpt>
      <trkpt lat="43.55221" lon="6.63267">
        <ele>283.7</ele>
        <time>2020-03-01T12:51:03.000Z</time>
      </trkpt>
      <trkpt lat="43.5522" lon="6.6328">
        <ele>284.3</ele>
        <time>2020-03-01T12:51:11.000Z</time>
      </trkpt>
      <trkpt lat="43.55216" lon="6.63293">
        <ele>284</ele>
        <time>2020-03-01T12:51:19.000Z</time>
      </trkpt>
      <trkpt lat="43.55208" lon="6.63301">
        <ele>283.4</ele>
        <time>2020-03-01T12:51:27.000Z</time>
      </trkpt>
      <trkpt lat="43.552" lon="6.63307">
        <ele>284.5</ele>
        <time>2020-03-01T12:51:36.000Z</time>
      </trkpt>
      <trkpt lat="43.5519" lon="6.6331">
        <ele>285.4</ele>
        <time>2020-03-01T12:51:44.000Z</time>
      </trkpt>
      <trkpt lat="43.55181" lon="6.63314">
        <ele>286.2</ele>
        <time>2020-03-01T12:51:52.000Z</time>
      </trkpt>
      <trkpt lat="43.55173" lon="6.63321">
        <ele>286.5</ele>
        <time>2020-03-01T12:52:00.000Z</time>
      </trkpt>
      <trkpt lat="43.55164" lon="6.63327">
        <ele>286.8</ele>
        <time>2020-03-01T12:52:08.000Z</time>
      </trkpt>
      <trkpt lat="43.55157" lon="6.63337">
        <ele>287.2</ele>
        <time>2020-03-01T12:52:17.000Z</time>
      </trkpt>
      <trkpt lat="43.55149" lon="6.63344">
        <ele>288.1</ele>
        <time>2020-03-01T12:52:25.000Z</time>
      </trkpt>
      <trkpt lat="43.55142" lon="6.63351">
        <ele>288.8</ele>
        <time>2020-03-01T12:52:32.000Z</time>
      </trkpt>
      <trkpt lat="43.55134" lon="6.63359">
        <ele>289.1</ele>
        <time>2020-03-01T12:52:40.000Z</time>
      </trkpt>
      <trkpt lat="43.55127" lon="6.63367">
        <ele>289.4</ele>
        <time>2020-03-01T12:52:48.000Z</time>
      </trkpt>
      <trkpt lat="43.55121" lon="6.63377">
        <ele>291</ele>
        <time>2020-03-01T12:52:56.000Z</time>
      </trkpt>
      <trkpt lat="43.55117" lon="6.63388">
        <ele>292.3</ele>
        <time>2020-03-01T12:53:05.000Z</time>
      </trkpt>
      <trkpt lat="43.55114" lon="6.634">
        <ele>292.9</ele>
        <time>2020-03-01T12:53:13.000Z</time>
      </trkpt>
      <trkpt lat="43.55112" lon="6.63412">
        <ele>293.6</ele>
        <time>2020-03-01T12:53:20.000Z</time>
      </trkpt>
      <trkpt lat="43.5511" lon="6.63426">
        <ele>294.7</ele>
        <time>2020-03-01T12:53:29.000Z</time>
      </trkpt>
      <trkpt lat="43.55108" lon="6.63438">
        <ele>295.6</ele>
        <time>2020-03-01T12:53:37.000Z</time>
      </trkpt>
      <trkpt lat="43.55108" lon="6.63452">
        <ele>296.2</ele>
        <time>2020-03-01T12:53:45.000Z</time>
      </trkpt>
      <trkpt lat="43.55106" lon="6.63466">
        <ele>296.4</ele>
        <time>2020-03-01T12:53:53.000Z</time>
      </trkpt>
      <trkpt lat="43.55104" lon="6.63478">
        <ele>297.7</ele>
        <time>2020-03-01T12:54:02.000Z</time>
      </trkpt>
      <trkpt lat="43.55102" lon="6.63491">
        <ele>298.7</ele>
        <time>2020-03-01T12:54:11.000Z</time>
      </trkpt>
      <trkpt lat="43.55099" lon="6.63503">
        <ele>299</ele>
        <time>2020-03-01T12:54:21.000Z</time>
      </trkpt>
      <trkpt lat="43.55097" lon="6.63517">
        <ele>300.2</ele>
        <time>2020-03-01T12:54:29.000Z</time>
      </trkpt>
      <trkpt lat="43.55093" lon="6.63529">
        <ele>301.3</ele>
        <time>2020-03-01T12:54:37.000Z</time>
      </trkpt>
      <trkpt lat="43.55087" lon="6.6354">
        <ele>301.9</ele>
        <time>2020-03-01T12:54:45.000Z</time>
      </trkpt>
      <trkpt lat="43.55079" lon="6.63547">
        <ele>302.1</ele>
        <time>2020-03-01T12:54:53.000Z</time>
      </trkpt>
      <trkpt lat="43.5507" lon="6.63551">
        <ele>302.8</ele>
        <time>2020-03-01T12:55:01.000Z</time>
      </trkpt>
      <trkpt lat="43.55061" lon="6.63553">
        <ele>303.3</ele>
        <time>2020-03-01T12:55:09.000Z</time>
      </trkpt>
      <trkpt lat="43.55051" lon="6.63555">
        <ele>303.7</ele>
        <time>2020-03-01T12:55:17.000Z</time>
      </trkpt>
      <trkpt lat="43.55041" lon="6.63559">
        <ele>303.5</ele>
        <time>2020-03-01T12:55:25.000Z</time>
      </trkpt>
      <trkpt lat="43.55032" lon="6.63563">
        <ele>304.3</ele>
        <time>2020-03-01T12:55:33.000Z</time>
      </trkpt>
      <trkpt lat="43.55023" lon="6.6357">
        <ele>305.2</ele>
        <time>2020-03-01T12:55:41.000Z</time>
      </trkpt>
      <trkpt lat="43.55016" lon="6.63579">
        <ele>305.7</ele>
        <time>2020-03-01T12:55:49.000Z</time>
      </trkpt>
      <trkpt lat="43.55012" lon="6.63591">
        <ele>306.3</ele>
        <time>2020-03-01T12:55:57.000Z</time>
      </trkpt>
      <trkpt lat="43.55009" lon="6.63603">
        <ele>307</ele>
        <time>2020-03-01T12:56:05.000Z</time>
      </trkpt>
      <trkpt lat="43.55006" lon="6.63617">
        <ele>308.3</ele>
        <time>2020-03-01T12:56:13.000Z</time>
      </trkpt>
      <trkpt lat="43.55006" lon="6.6363">
        <ele>309.2</ele>
        <time>2020-03-01T12:56:21.000Z</time>
      </trkpt>
      <trkpt lat="43.55004" lon="6.63643">
        <ele>310.5</ele>
        <time>2020-03-01T12:56:31.000Z</time>
      </trkpt>
      <trkpt lat="43.55003" lon="6.63657">
        <ele>311.7</ele>
        <time>2020-03-01T12:56:40.000Z</time>
      </trkpt>
      <trkpt lat="43.54998" lon="6.6367">
        <ele>313</ele>
        <time>2020-03-01T12:56:48.000Z</time>
      </trkpt>
      <trkpt lat="43.54996" lon="6.63683">
        <ele>312.9</ele>
        <time>2020-03-01T12:56:56.000Z</time>
      </trkpt>
      <trkpt lat="43.54995" lon="6.63696">
        <ele>313.7</ele>
        <time>2020-03-01T12:57:05.000Z</time>
      </trkpt>
      <trkpt lat="43.54993" lon="6.63708">
        <ele>315</ele>
        <time>2020-03-01T12:57:13.000Z</time>
      </trkpt>
      <trkpt lat="43.54991" lon="6.63722">
        <ele>316.7</ele>
        <time>2020-03-01T12:57:23.000Z</time>
      </trkpt>
      <trkpt lat="43.54989" lon="6.63735">
        <ele>317.7</ele>
        <time>2020-03-01T12:57:33.000Z</time>
      </trkpt>
      <trkpt lat="43.54985" lon="6.63746">
        <ele>319.4</ele>
        <time>2020-03-01T12:57:45.000Z</time>
      </trkpt>
      <trkpt lat="43.54985" lon="6.63759">
        <ele>321</ele>
        <time>2020-03-01T12:58:04.000Z</time>
      </trkpt>
      <trkpt lat="43.54976" lon="6.63757">
        <ele>321</ele>
        <time>2020-03-01T12:59:21.000Z</time>
      </trkpt>
      <trkpt lat="43.54984" lon="6.63763">
        <ele>320.5</ele>
        <time>2020-03-01T13:00:54.000Z</time>
      </trkpt>
      <trkpt lat="43.54977" lon="6.63772">
        <ele>319.4</ele>
        <time>2020-03-01T13:01:25.000Z</time>
      </trkpt>
      <trkpt lat="43.54972" lon="6.63783">
        <ele>318.8</ele>
        <time>2020-03-01T13:01:33.000Z</time>
      </trkpt>
      <trkpt lat="43.54966" lon="6.63793">
        <ele>318.8</ele>
        <time>2020-03-01T13:01:40.000Z</time>
      </trkpt>
      <trkpt lat="43.54961" lon="6.63803">
        <ele>318.1</ele>
        <time>2020-03-01T13:01:48.000Z</time>
      </trkpt>
      <trkpt lat="43.54955" lon="6.63813">
        <ele>318.2</ele>
        <time>2020-03-01T13:01:56.000Z</time>
      </trkpt>
      <trkpt lat="43.54949" lon="6.63824">
        <ele>317.5</ele>
        <time>2020-03-01T13:02:05.000Z</time>
      </trkpt>
      <trkpt lat="43.54945" lon="6.63835">
        <ele>317</ele>
        <time>2020-03-01T13:02:13.000Z</time>
      </trkpt>
      <trkpt lat="43.54939" lon="6.63846">
        <ele>317.1</ele>
        <time>2020-03-01T13:02:20.000Z</time>
      </trkpt>
      <trkpt lat="43.54933" lon="6.63859">
        <ele>316.3</ele>
        <time>2020-03-01T13:02:28.000Z</time>
      </trkpt>
      <trkpt lat="43.54926" lon="6.63868">
        <ele>315.1</ele>
        <time>2020-03-01T13:02:46.000Z</time>
      </trkpt>
      <trkpt lat="43.54923" lon="6.63881">
        <ele>314.2</ele>
        <time>2020-03-01T13:03:03.000Z</time>
      </trkpt>
      <trkpt lat="43.54917" lon="6.63893">
        <ele>312.7</ele>
        <time>2020-03-01T13:03:13.000Z</time>
      </trkpt>
      <trkpt lat="43.54913" lon="6.63905">
        <ele>311.3</ele>
        <time>2020-03-01T13:03:22.000Z</time>
      </trkpt>
      <trkpt lat="43.54907" lon="6.63915">
        <ele>310.2</ele>
        <time>2020-03-01T13:03:30.000Z</time>
      </trkpt>
      <trkpt lat="43.54901" lon="6.63927">
        <ele>309.4</ele>
        <time>2020-03-01T13:03:37.000Z</time>
      </trkpt>
      <trkpt lat="43.54895" lon="6.63938">
        <ele>308.8</ele>
        <time>2020-03-01T13:03:44.000Z</time>
      </trkpt>
      <trkpt lat="43.54889" lon="6.63949">
        <ele>307.9</ele>
        <time>2020-03-01T13:03:51.000Z</time>
      </trkpt>
      <trkpt lat="43.54884" lon="6.6396">
        <ele>306.9</ele>
        <time>2020-03-01T13:03:58.000Z</time>
      </trkpt>
      <trkpt lat="43.54877" lon="6.6397">
        <ele>305.8</ele>
        <time>2020-03-01T13:04:06.000Z</time>
      </trkpt>
      <trkpt lat="43.54869" lon="6.63978">
        <ele>305</ele>
        <time>2020-03-01T13:04:13.000Z</time>
      </trkpt>
      <trkpt lat="43.54859" lon="6.63984">
        <ele>304.2</ele>
        <time>2020-03-01T13:04:19.000Z</time>
      </trkpt>
      <trkpt lat="43.54851" lon="6.63991">
        <ele>303.2</ele>
        <time>2020-03-01T13:04:27.000Z</time>
      </trkpt>
      <trkpt lat="43.54844" lon="6.64">
        <ele>302.1</ele>
        <time>2020-03-01T13:04:37.000Z</time>
      </trkpt>
      <trkpt lat="43.54835" lon="6.64005">
        <ele>301.5</ele>
        <time>2020-03-01T13:04:44.000Z</time>
      </trkpt>
      <trkpt lat="43.54828" lon="6.64014">
        <ele>300.9</ele>
        <time>2020-03-01T13:04:51.000Z</time>
      </trkpt>
      <trkpt lat="43.54821" lon="6.64024">
        <ele>300.3</ele>
        <time>2020-03-01T13:04:57.000Z</time>
      </trkpt>
      <trkpt lat="43.54816" lon="6.64036">
        <ele>299.8</ele>
        <time>2020-03-01T13:05:03.000Z</time>
      </trkpt>
      <trkpt lat="43.54817" lon="6.64048">
        <ele>299.3</ele>
        <time>2020-03-01T13:05:09.000Z</time>
      </trkpt>
      <trkpt lat="43.54827" lon="6.64047">
        <ele>299.1</ele>
        <time>2020-03-01T13:05:24.000Z</time>
      </trkpt>
      <trkpt lat="43.54837" lon="6.64049">
        <ele>299.1</ele>
        <time>2020-03-01T13:05:30.000Z</time>
      </trkpt>
      <trkpt lat="43.54847" lon="6.6405">
        <ele>298.5</ele>
        <time>2020-03-01T13:05:39.000Z</time>
      </trkpt>
      <trkpt lat="43.54856" lon="6.64052">
        <ele>298.5</ele>
        <time>2020-03-01T13:05:47.000Z</time>
      </trkpt>
      <trkpt lat="43.54867" lon="6.64053">
        <ele>298.8</ele>
        <time>2020-03-01T13:05:55.000Z</time>
      </trkpt>
      <trkpt lat="43.54876" lon="6.64056">
        <ele>299.1</ele>
        <time>2020-03-01T13:06:03.000Z</time>
      </trkpt>
      <trkpt lat="43.54886" lon="6.64056">
        <ele>299</ele>
        <time>2020-03-01T13:06:10.000Z</time>
      </trkpt>
      <trkpt lat="43.54895" lon="6.64058">
        <ele>299.1</ele>
        <time>2020-03-01T13:06:18.000Z</time>
      </trkpt>
      <trkpt lat="43.54905" lon="6.64058">
        <ele>299.1</ele>
        <time>2020-03-01T13:06:25.000Z</time>
      </trkpt>
      <trkpt lat="43.54915" lon="6.64056">
        <ele>298.9</ele>
        <time>2020-03-01T13:06:33.000Z</time>
      </trkpt>
      <trkpt lat="43.54925" lon="6.64055">
        <ele>298.5</ele>
        <time>2020-03-01T13:06:40.000Z</time>
      </trkpt>
      <trkpt lat="43.54934" lon="6.64055">
        <ele>298.2</ele>
        <time>2020-03-01T13:06:47.000Z</time>
      </trkpt>
      <trkpt lat="43.54944" lon="6.64053">
        <ele>298</ele>
        <time>2020-03-01T13:06:54.000Z</time>
      </trkpt>
      <trkpt lat="43.54953" lon="6.64049">
        <ele>298.1</ele>
        <time>2020-03-01T13:07:02.000Z</time>
      </trkpt>
      <trkpt lat="43.54959" lon="6.64041">
        <ele>298.2</ele>
        <time>2020-03-01T13:07:08.000Z</time>
      </trkpt>
      <trkpt lat="43.54967" lon="6.64033">
        <ele>297.6</ele>
        <time>2020-03-01T13:07:16.000Z</time>
      </trkpt>
      <trkpt lat="43.54975" lon="6.64028">
        <ele>297.2</ele>
        <time>2020-03-01T13:07:25.000Z</time>
      </trkpt>
      <trkpt lat="43.54985" lon="6.64026">
        <ele>296.8</ele>
        <time>2020-03-01T13:07:33.000Z</time>
      </trkpt>
      <trkpt lat="43.54994" lon="6.64025">
        <ele>296.6</ele>
        <time>2020-03-01T13:07:42.000Z</time>
      </trkpt>
      <trkpt lat="43.55004" lon="6.64024">
        <ele>296.1</ele>
        <time>2020-03-01T13:07:52.000Z</time>
      </trkpt>
      <trkpt lat="43.55013" lon="6.64022">
        <ele>295.6</ele>
        <time>2020-03-01T13:08:00.000Z</time>
      </trkpt>
      <trkpt lat="43.55023" lon="6.64022">
        <ele>295.2</ele>
        <time>2020-03-01T13:08:09.000Z</time>
      </trkpt>
      <trkpt lat="43.55032" lon="6.64021">
        <ele>294.8</ele>
        <time>2020-03-01T13:08:16.000Z</time>
      </trkpt>
      <trkpt lat="43.55041" lon="6.64025">
        <ele>294.7</ele>
        <time>2020-03-01T13:08:23.000Z</time>
      </trkpt>
      <trkpt lat="43.55049" lon="6.64032">
        <ele>294.4</ele>
        <time>2020-03-01T13:08:30.000Z</time>
      </trkpt>
      <trkpt lat="43.55059" lon="6.64038">
        <ele>294.2</ele>
        <time>2020-03-01T13:08:37.000Z</time>
      </trkpt>
      <trkpt lat="43.55066" lon="6.64047">
        <ele>294.1</ele>
        <time>2020-03-01T13:08:44.000Z</time>
      </trkpt>
      <trkpt lat="43.55074" lon="6.64054">
        <ele>294.4</ele>
        <time>2020-03-01T13:08:51.000Z</time>
      </trkpt>
      <trkpt lat="43.55083" lon="6.64056">
        <ele>294.7</ele>
        <time>2020-03-01T13:08:58.000Z</time>
      </trkpt>
      <trkpt lat="43.55093" lon="6.64056">
        <ele>295.4</ele>
        <time>2020-03-01T13:09:06.000Z</time>
      </trkpt>
      <trkpt lat="43.55102" lon="6.64053">
        <ele>296</ele>
        <time>2020-03-01T13:09:12.000Z</time>
      </trkpt>
      <trkpt lat="43.55112" lon="6.64057">
        <ele>296.7</ele>
        <time>2020-03-01T13:09:21.000Z</time>
      </trkpt>
      <trkpt lat="43.55121" lon="6.64062">
        <ele>296.9</ele>
        <time>2020-03-01T13:09:28.000Z</time>
      </trkpt>
      <trkpt lat="43.55128" lon="6.6407">
        <ele>296.5</ele>
        <time>2020-03-01T13:09:35.000Z</time>
      </trkpt>
      <trkpt lat="43.55134" lon="6.64081">
        <ele>296.4</ele>
        <time>2020-03-01T13:09:43.000Z</time>
      </trkpt>
      <trkpt lat="43.55139" lon="6.64092">
        <ele>296.6</ele>
        <time>2020-03-01T13:09:50.000Z</time>
      </trkpt>
      <trkpt lat="43.55144" lon="6.64103">
        <ele>296.8</ele>
        <time>2020-03-01T13:09:58.000Z</time>
      </trkpt>
      <trkpt lat="43.55148" lon="6.64115">
        <ele>297.2</ele>
        <time>2020-03-01T13:10:06.000Z</time>
      </trkpt>
      <trkpt lat="43.55155" lon="6.64124">
        <ele>297.5</ele>
        <time>2020-03-01T13:10:13.000Z</time>
      </trkpt>
      <trkpt lat="43.55161" lon="6.64134">
        <ele>297.6</ele>
        <time>2020-03-01T13:10:20.000Z</time>
      </trkpt>
      <trkpt lat="43.55167" lon="6.64144">
        <ele>298.3</ele>
        <time>2020-03-01T13:10:28.000Z</time>
      </trkpt>
      <trkpt lat="43.55173" lon="6.64155">
        <ele>299</ele>
        <time>2020-03-01T13:10:35.000Z</time>
      </trkpt>
      <trkpt lat="43.55179" lon="6.64165">
        <ele>299.7</ele>
        <time>2020-03-01T13:10:42.000Z</time>
      </trkpt>
      <trkpt lat="43.55184" lon="6.64177">
        <ele>300.1</ele>
        <time>2020-03-01T13:10:49.000Z</time>
      </trkpt>
      <trkpt lat="43.55188" lon="6.64188">
        <ele>300.5</ele>
        <time>2020-03-01T13:10:56.000Z</time>
      </trkpt>
      <trkpt lat="43.55193" lon="6.64199">
        <ele>301</ele>
        <time>2020-03-01T13:11:03.000Z</time>
      </trkpt>
      <trkpt lat="43.55198" lon="6.64211">
        <ele>301.1</ele>
        <time>2020-03-01T13:11:12.000Z</time>
      </trkpt>
      <trkpt lat="43.55204" lon="6.6422">
        <ele>301.8</ele>
        <time>2020-03-01T13:11:19.000Z</time>
      </trkpt>
      <trkpt lat="43.55212" lon="6.64229">
        <ele>302.3</ele>
        <time>2020-03-01T13:11:26.000Z</time>
      </trkpt>
      <trkpt lat="43.55218" lon="6.64238">
        <ele>303</ele>
        <time>2020-03-01T13:11:33.000Z</time>
      </trkpt>
      <trkpt lat="43.55221" lon="6.6425">
        <ele>304</ele>
        <time>2020-03-01T13:11:42.000Z</time>
      </trkpt>
      <trkpt lat="43.55229" lon="6.64257">
        <ele>304.5</ele>
        <time>2020-03-01T13:11:49.000Z</time>
      </trkpt>
      <trkpt lat="43.55238" lon="6.64262">
        <ele>304.8</ele>
        <time>2020-03-01T13:11:56.000Z</time>
      </trkpt>
      <trkpt lat="43.55246" lon="6.64268">
        <ele>305.6</ele>
        <time>2020-03-01T13:12:03.000Z</time>
      </trkpt>
      <trkpt lat="43.55251" lon="6.64279">
        <ele>306.9</ele>
        <time>2020-03-01T13:12:11.000Z</time>
      </trkpt>
      <trkpt lat="43.55259" lon="6.64286">
        <ele>307.6</ele>
        <time>2020-03-01T13:12:18.000Z</time>
      </trkpt>
      <trkpt lat="43.55264" lon="6.64296">
        <ele>309.3</ele>
        <time>2020-03-01T13:12:30.000Z</time>
      </trkpt>
      <trkpt lat="43.55263" lon="6.64308">
        <ele>311</ele>
        <time>2020-03-01T13:16:41.000Z</time>
      </trkpt>
      <trkpt lat="43.55257" lon="6.64318">
        <ele>310.7</ele>
        <time>2020-03-01T13:16:51.000Z</time>
      </trkpt>
      <trkpt lat="43.5525" lon="6.64326">
        <ele>310.3</ele>
        <time>2020-03-01T13:17:00.000Z</time>
      </trkpt>
      <trkpt lat="43.55242" lon="6.64334">
        <ele>309.7</ele>
        <time>2020-03-01T13:17:09.000Z</time>
      </trkpt>
      <trkpt lat="43.55233" lon="6.64341">
        <ele>309.2</ele>
        <time>2020-03-01T13:17:18.000Z</time>
      </trkpt>
      <trkpt lat="43.55225" lon="6.64348">
        <ele>309</ele>
        <time>2020-03-01T13:17:27.000Z</time>
      </trkpt>
      <trkpt lat="43.55218" lon="6.64357">
        <ele>308.6</ele>
        <time>2020-03-01T13:17:35.000Z</time>
      </trkpt>
      <trkpt lat="43.55212" lon="6.64368">
        <ele>307.8</ele>
        <time>2020-03-01T13:17:44.000Z</time>
      </trkpt>
      <trkpt lat="43.55208" lon="6.6438">
        <ele>307.5</ele>
        <time>2020-03-01T13:17:51.000Z</time>
      </trkpt>
      <trkpt lat="43.55206" lon="6.64393">
        <ele>307.7</ele>
        <time>2020-03-01T13:17:57.000Z</time>
      </trkpt>
      <trkpt lat="43.55204" lon="6.64407">
        <ele>307.5</ele>
        <time>2020-03-01T13:18:05.000Z</time>
      </trkpt>
      <trkpt lat="43.55204" lon="6.6442">
        <ele>307.1</ele>
        <time>2020-03-01T13:18:12.000Z</time>
      </trkpt>
      <trkpt lat="43.55205" lon="6.64433">
        <ele>306.7</ele>
        <time>2020-03-01T13:18:19.000Z</time>
      </trkpt>
      <trkpt lat="43.55205" lon="6.64447">
        <ele>306</ele>
        <time>2020-03-01T13:18:27.000Z</time>
      </trkpt>
      <trkpt lat="43.55207" lon="6.6446">
        <ele>305.9</ele>
        <time>2020-03-01T13:18:33.000Z</time>
      </trkpt>
      <trkpt lat="43.55209" lon="6.64474">
        <ele>305.6</ele>
        <time>2020-03-01T13:18:39.000Z</time>
      </trkpt>
      <trkpt lat="43.55207" lon="6.64488">
        <ele>305.3</ele>
        <time>2020-03-01T13:18:45.000Z</time>
      </trkpt>
      <trkpt lat="43.55202" lon="6.64499">
        <ele>304.8</ele>
        <time>2020-03-01T13:18:51.000Z</time>
      </trkpt>
      <trkpt lat="43.55193" lon="6.64507">
        <ele>303.7</ele>
        <time>2020-03-01T13:18:57.000Z</time>
      </trkpt>
      <trkpt lat="43.55185" lon="6.64515">
        <ele>303.3</ele>
        <time>2020-03-01T13:19:03.000Z</time>
      </trkpt>
      <trkpt lat="43.55176" lon="6.64522">
        <ele>303.2</ele>
        <time>2020-03-01T13:19:11.000Z</time>
      </trkpt>
      <trkpt lat="43.55171" lon="6.64533">
        <ele>303.2</ele>
        <time>2020-03-01T13:19:18.000Z</time>
      </trkpt>
      <trkpt lat="43.55168" lon="6.64546">
        <ele>303</ele>
        <time>2020-03-01T13:19:25.000Z</time>
      </trkpt>
      <trkpt lat="43.55167" lon="6.6456">
        <ele>303</ele>
        <time>2020-03-01T13:19:31.000Z</time>
      </trkpt>
      <trkpt lat="43.55172" lon="6.64572">
        <ele>302.6</ele>
        <time>2020-03-01T13:19:37.000Z</time>
      </trkpt>
      <trkpt lat="43.5518" lon="6.64579">
        <ele>302.8</ele>
        <time>2020-03-01T13:19:43.000Z</time>
      </trkpt>
      <trkpt lat="43.55188" lon="6.64585">
        <ele>302.5</ele>
        <time>2020-03-01T13:19:50.000Z</time>
      </trkpt>
      <trkpt lat="43.55196" lon="6.64591">
        <ele>302.3</ele>
        <time>2020-03-01T13:20:02.000Z</time>
      </trkpt>
      <trkpt lat="43.55204" lon="6.64599">
        <ele>302.8</ele>
        <time>2020-03-01T13:20:10.000Z</time>
      </trkpt>
      <trkpt lat="43.5521" lon="6.64609">
        <ele>302.5</ele>
        <time>2020-03-01T13:20:18.000Z</time>
      </trkpt>
      <trkpt lat="43.55212" lon="6.64621">
        <ele>301.7</ele>
        <time>2020-03-01T13:20:27.000Z</time>
      </trkpt>
      <trkpt lat="43.55215" lon="6.64635">
        <ele>301.5</ele>
        <time>2020-03-01T13:20:35.000Z</time>
      </trkpt>
      <trkpt lat="43.55216" lon="6.64647">
        <ele>300.5</ele>
        <time>2020-03-01T13:20:42.000Z</time>
      </trkpt>
      <trkpt lat="43.55215" lon="6.6466">
        <ele>300.7</ele>
        <time>2020-03-01T13:20:49.000Z</time>
      </trkpt>
      <trkpt lat="43.55214" lon="6.64673">
        <ele>300.3</ele>
        <time>2020-03-01T13:20:56.000Z</time>
      </trkpt>
      <trkpt lat="43.55211" lon="6.64686">
        <ele>300</ele>
        <time>2020-03-01T13:21:04.000Z</time>
      </trkpt>
      <trkpt lat="43.55207" lon="6.64698">
        <ele>299.7</ele>
        <time>2020-03-01T13:21:11.000Z</time>
      </trkpt>
      <trkpt lat="43.55201" lon="6.64708">
        <ele>299.5</ele>
        <time>2020-03-01T13:21:20.000Z</time>
      </trkpt>
      <trkpt lat="43.55194" lon="6.64717">
        <ele>299.2</ele>
        <time>2020-03-01T13:21:28.000Z</time>
      </trkpt>
      <trkpt lat="43.55186" lon="6.64725">
        <ele>299</ele>
        <time>2020-03-01T13:21:35.000Z</time>
      </trkpt>
      <trkpt lat="43.55178" lon="6.64733">
        <ele>298.9</ele>
        <time>2020-03-01T13:21:41.000Z</time>
      </trkpt>
      <trkpt lat="43.55173" lon="6.64743">
        <ele>298.6</ele>
        <time>2020-03-01T13:21:47.000Z</time>
      </trkpt>
      <trkpt lat="43.55168" lon="6.64754">
        <ele>298.1</ele>
        <time>2020-03-01T13:21:53.000Z</time>
      </trkpt>
      <trkpt lat="43.55163" lon="6.64765">
        <ele>297.6</ele>
        <time>2020-03-01T13:22:01.000Z</time>
      </trkpt>
      <trkpt lat="43.55156" lon="6.64776">
        <ele>297.5</ele>
        <time>2020-03-01T13:22:07.000Z</time>
      </trkpt>
      <trkpt lat="43.55151" lon="6.64786">
        <ele>297.5</ele>
        <time>2020-03-01T13:22:13.000Z</time>
      </trkpt>
      <trkpt lat="43.55145" lon="6.64795">
        <ele>297.5</ele>
        <time>2020-03-01T13:22:20.000Z</time>
      </trkpt>
      <trkpt lat="43.55136" lon="6.64803">
        <ele>297.6</ele>
        <time>2020-03-01T13:22:28.000Z</time>
      </trkpt>
      <trkpt lat="43.55129" lon="6.64809">
        <ele>298.1</ele>
        <time>2020-03-01T13:22:35.000Z</time>
      </trkpt>
      <trkpt lat="43.55121" lon="6.64815">
        <ele>298.1</ele>
        <time>2020-03-01T13:22:42.000Z</time>
      </trkpt>
      <trkpt lat="43.55111" lon="6.64818">
        <ele>298.1</ele>
        <time>2020-03-01T13:22:51.000Z</time>
      </trkpt>
      <trkpt lat="43.55102" lon="6.64824">
        <ele>297.8</ele>
        <time>2020-03-01T13:22:58.000Z</time>
      </trkpt>
      <trkpt lat="43.551" lon="6.64837">
        <ele>297.7</ele>
        <time>2020-03-01T13:23:06.000Z</time>
      </trkpt>
      <trkpt lat="43.55105" lon="6.64847">
        <ele>298</ele>
        <time>2020-03-01T13:23:13.000Z</time>
      </trkpt>
      <trkpt lat="43.55112" lon="6.64856">
        <ele>298.2</ele>
        <time>2020-03-01T13:23:24.000Z</time>
      </trkpt>
      <trkpt lat="43.5512" lon="6.64863">
        <ele>298.7</ele>
        <time>2020-03-01T13:25:34.000Z</time>
      </trkpt>
      <trkpt lat="43.55126" lon="6.64872">
        <ele>298.9</ele>
        <time>2020-03-01T13:27:33.000Z</time>
      </trkpt>
      <trkpt lat="43.55132" lon="6.64883">
        <ele>298.1</ele>
        <time>2020-03-01T13:27:44.000Z</time>
      </trkpt>
      <trkpt lat="43.55138" lon="6.64892">
        <ele>297.8</ele>
        <time>2020-03-01T13:27:53.000Z</time>
      </trkpt>
      <trkpt lat="43.55146" lon="6.64898">
        <ele>297.7</ele>
        <time>2020-03-01T13:28:01.000Z</time>
      </trkpt>
      <trkpt lat="43.55155" lon="6.64904">
        <ele>297.4</ele>
        <time>2020-03-01T13:28:09.000Z</time>
      </trkpt>
      <trkpt lat="43.55165" lon="6.64905">
        <ele>297.3</ele>
        <time>2020-03-01T13:28:18.000Z</time>
      </trkpt>
      <trkpt lat="43.55174" lon="6.64904">
        <ele>297.4</ele>
        <time>2020-03-01T13:28:26.000Z</time>
      </trkpt>
      <trkpt lat="43.55183" lon="6.649">
        <ele>297.8</ele>
        <time>2020-03-01T13:28:34.000Z</time>
      </trkpt>
      <trkpt lat="43.55192" lon="6.64897">
        <ele>298.2</ele>
        <time>2020-03-01T13:28:42.000Z</time>
      </trkpt>
      <trkpt lat="43.552" lon="6.64894">
        <ele>298.4</ele>
        <time>2020-03-01T13:28:49.000Z</time>
      </trkpt>
      <trkpt lat="43.5521" lon="6.6489">
        <ele>298.9</ele>
        <time>2020-03-01T13:28:57.000Z</time>
      </trkpt>
      <trkpt lat="43.55219" lon="6.64886">
        <ele>299.5</ele>
        <time>2020-03-01T13:29:04.000Z</time>
      </trkpt>
      <trkpt lat="43.55228" lon="6.64882">
        <ele>300</ele>
        <time>2020-03-01T13:29:11.000Z</time>
      </trkpt>
      <trkpt lat="43.55238" lon="6.64878">
        <ele>300.3</ele>
        <time>2020-03-01T13:29:19.000Z</time>
      </trkpt>
      <trkpt lat="43.55246" lon="6.64874">
        <ele>301.5</ele>
        <time>2020-03-01T13:29:27.000Z</time>
      </trkpt>
      <trkpt lat="43.55255" lon="6.64871">
        <ele>302.7</ele>
        <time>2020-03-01T13:29:36.000Z</time>
      </trkpt>
      <trkpt lat="43.55264" lon="6.64875">
        <ele>303.3</ele>
        <time>2020-03-01T13:29:44.000Z</time>
      </trkpt>
      <trkpt lat="43.55271" lon="6.64885">
        <ele>303.9</ele>
        <time>2020-03-01T13:29:52.000Z</time>
      </trkpt>
      <trkpt lat="43.55277" lon="6.64895">
        <ele>304</ele>
        <time>2020-03-01T13:30:00.000Z</time>
      </trkpt>
      <trkpt lat="43.55282" lon="6.64907">
        <ele>304.4</ele>
        <time>2020-03-01T13:30:07.000Z</time>
      </trkpt>
      <trkpt lat="43.55287" lon="6.6492">
        <ele>305</ele>
        <time>2020-03-01T13:30:15.000Z</time>
      </trkpt>
      <trkpt lat="43.55289" lon="6.64933">
        <ele>304.9</ele>
        <time>2020-03-01T13:30:22.000Z</time>
      </trkpt>
      <trkpt lat="43.55293" lon="6.64946">
        <ele>304.9</ele>
        <time>2020-03-01T13:30:29.000Z</time>
      </trkpt>
      <trkpt lat="43.55297" lon="6.64958">
        <ele>305.3</ele>
        <time>2020-03-01T13:30:37.000Z</time>
      </trkpt>
      <trkpt lat="43.55303" lon="6.64967">
        <ele>305.3</ele>
        <time>2020-03-01T13:30:45.000Z</time>
      </trkpt>
      <trkpt lat="43.5531" lon="6.64977">
        <ele>305.4</ele>
        <time>2020-03-01T13:30:53.000Z</time>
      </trkpt>
      <trkpt lat="43.55316" lon="6.64987">
        <ele>305.7</ele>
        <time>2020-03-01T13:31:01.000Z</time>
      </trkpt>
      <trkpt lat="43.55321" lon="6.64999">
        <ele>306.2</ele>
        <time>2020-03-01T13:31:09.000Z</time>
      </trkpt>
      <trkpt lat="43.55325" lon="6.6501">
        <ele>307</ele>
        <time>2020-03-01T13:31:17.000Z</time>
      </trkpt>
      <trkpt lat="43.5533" lon="6.65021">
        <ele>307.7</ele>
        <time>2020-03-01T13:31:25.000Z</time>
      </trkpt>
      <trkpt lat="43.55335" lon="6.65034">
        <ele>308.4</ele>
        <time>2020-03-01T13:31:33.000Z</time>
      </trkpt>
      <trkpt lat="43.5534" lon="6.65044">
        <ele>308.8</ele>
        <time>2020-03-01T13:31:41.000Z</time>
      </trkpt>
      <trkpt lat="43.55346" lon="6.65054">
        <ele>309.7</ele>
        <time>2020-03-01T13:31:49.000Z</time>
      </trkpt>
      <trkpt lat="43.55354" lon="6.6506">
        <ele>311.1</ele>
        <time>2020-03-01T13:32:23.000Z</time>
      </trkpt>
      <trkpt lat="43.55358" lon="6.65072">
        <ele>310.6</ele>
        <time>2020-03-01T13:32:33.000Z</time>
      </trkpt>
      <trkpt lat="43.55363" lon="6.65082">
        <ele>310.8</ele>
        <time>2020-03-01T13:32:48.000Z</time>
      </trkpt>
      <trkpt lat="43.55372" lon="6.65089">
        <ele>310.3</ele>
        <time>2020-03-01T13:32:57.000Z</time>
      </trkpt>
      <trkpt lat="43.5538" lon="6.65095">
        <ele>308.6</ele>
        <time>2020-03-01T13:33:11.000Z</time>
      </trkpt>
      <trkpt lat="43.55388" lon="6.65102">
        <ele>307.2</ele>
        <time>2020-03-01T13:33:24.000Z</time>
      </trkpt>
      <trkpt lat="43.55396" lon="6.65109">
        <ele>304.9</ele>
        <time>2020-03-01T13:33:35.000Z</time>
      </trkpt>
      <trkpt lat="43.55404" lon="6.65114">
        <ele>302.9</ele>
        <time>2020-03-01T13:33:44.000Z</time>
      </trkpt>
      <trkpt lat="43.55414" lon="6.6512">
        <ele>301.4</ele>
        <time>2020-03-01T13:33:52.000Z</time>
      </trkpt>
      <trkpt lat="43.55423" lon="6.65126">
        <ele>299.4</ele>
        <time>2020-03-01T13:34:02.000Z</time>
      </trkpt>
      <trkpt lat="43.55429" lon="6.65134">
        <ele>298.3</ele>
        <time>2020-03-01T13:34:27.000Z</time>
      </trkpt>
      <trkpt lat="43.55438" lon="6.6514">
        <ele>297.3</ele>
        <time>2020-03-01T13:34:40.000Z</time>
      </trkpt>
      <trkpt lat="43.55447" lon="6.6514">
        <ele>297.1</ele>
        <time>2020-03-01T13:35:07.000Z</time>
      </trkpt>
      <trkpt lat="43.55455" lon="6.65148">
        <ele>296.9</ele>
        <time>2020-03-01T13:35:17.000Z</time>
      </trkpt>
      <trkpt lat="43.55464" lon="6.65154">
        <ele>298</ele>
        <time>2020-03-01T13:35:26.000Z</time>
      </trkpt>
      <trkpt lat="43.55473" lon="6.6516">
        <ele>299.8</ele>
        <time>2020-03-01T13:35:35.000Z</time>
      </trkpt>
      <trkpt lat="43.55481" lon="6.65167">
        <ele>302.4</ele>
        <time>2020-03-01T13:35:44.000Z</time>
      </trkpt>
      <trkpt lat="43.5549" lon="6.65171">
        <ele>303.9</ele>
        <time>2020-03-01T13:35:53.000Z</time>
      </trkpt>
      <trkpt lat="43.55499" lon="6.65177">
        <ele>304.3</ele>
        <time>2020-03-01T13:36:03.000Z</time>
      </trkpt>
      <trkpt lat="43.55507" lon="6.65182">
        <ele>305.5</ele>
        <time>2020-03-01T13:36:12.000Z</time>
      </trkpt>
      <trkpt lat="43.55516" lon="6.65187">
        <ele>306.1</ele>
        <time>2020-03-01T13:36:20.000Z</time>
      </trkpt>
      <trkpt lat="43.55523" lon="6.65196">
        <ele>303.6</ele>
        <time>2020-03-01T13:36:31.000Z</time>
      </trkpt>
      <trkpt lat="43.55529" lon="6.65207">
        <ele>300.7</ele>
        <time>2020-03-01T13:36:41.000Z</time>
      </trkpt>
      <trkpt lat="43.55537" lon="6.65215">
        <ele>297.6</ele>
        <time>2020-03-01T13:36:51.000Z</time>
      </trkpt>
      <trkpt lat="43.55543" lon="6.65225">
        <ele>296</ele>
        <time>2020-03-01T13:36:58.000Z</time>
      </trkpt>
      <trkpt lat="43.55549" lon="6.65235">
        <ele>296.5</ele>
        <time>2020-03-01T13:37:08.000Z</time>
      </trkpt>
      <trkpt lat="43.55555" lon="6.65246">
        <ele>298</ele>
        <time>2020-03-01T13:37:20.000Z</time>
      </trkpt>
      <trkpt lat="43.55562" lon="6.65255">
        <ele>299.7</ele>
        <time>2020-03-01T13:37:30.000Z</time>
      </trkpt>
      <trkpt lat="43.5557" lon="6.65261">
        <ele>302.8</ele>
        <time>2020-03-01T13:37:40.000Z</time>
      </trkpt>
      <trkpt lat="43.55573" lon="6.65273">
        <ele>303.4</ele>
        <time>2020-03-01T13:37:48.000Z</time>
      </trkpt>
      <trkpt lat="43.55578" lon="6.65286">
        <ele>303.5</ele>
        <time>2020-03-01T13:37:56.000Z</time>
      </trkpt>
      <trkpt lat="43.55581" lon="6.65297">
        <ele>303.4</ele>
        <time>2020-03-01T13:38:03.000Z</time>
      </trkpt>
      <trkpt lat="43.55585" lon="6.6531">
        <ele>302.6</ele>
        <time>2020-03-01T13:38:10.000Z</time>
      </trkpt>
      <trkpt lat="43.5559" lon="6.65321">
        <ele>301.6</ele>
        <time>2020-03-01T13:38:18.000Z</time>
      </trkpt>
      <trkpt lat="43.55596" lon="6.65332">
        <ele>300.1</ele>
        <time>2020-03-01T13:38:27.000Z</time>
      </trkpt>
      <trkpt lat="43.556" lon="6.65345">
        <ele>298.3</ele>
        <time>2020-03-01T13:38:35.000Z</time>
      </trkpt>
      <trkpt lat="43.55604" lon="6.65357">
        <ele>297.3</ele>
        <time>2020-03-01T13:38:42.000Z</time>
      </trkpt>
      <trkpt lat="43.55609" lon="6.65368">
        <ele>297</ele>
        <time>2020-03-01T13:38:49.000Z</time>
      </trkpt>
      <trkpt lat="43.55613" lon="6.65381">
        <ele>296.2</ele>
        <time>2020-03-01T13:38:57.000Z</time>
      </trkpt>
      <trkpt lat="43.5562" lon="6.6539">
        <ele>294.8</ele>
        <time>2020-03-01T13:39:07.000Z</time>
      </trkpt>
      <trkpt lat="43.55627" lon="6.65398">
        <ele>293.1</ele>
        <time>2020-03-01T13:39:18.000Z</time>
      </trkpt>
      <trkpt lat="43.55635" lon="6.65406">
        <ele>290.1</ele>
        <time>2020-03-01T13:39:32.000Z</time>
      </trkpt>
      <trkpt lat="43.55642" lon="6.65414">
        <ele>288.9</ele>
        <time>2020-03-01T13:39:41.000Z</time>
      </trkpt>
      <trkpt lat="43.5565" lon="6.65421">
        <ele>287.8</ele>
        <time>2020-03-01T13:39:50.000Z</time>
      </trkpt>
      <trkpt lat="43.55659" lon="6.65429">
        <ele>286.8</ele>
        <time>2020-03-01T13:39:58.000Z</time>
      </trkpt>
      <trkpt lat="43.55667" lon="6.65435">
        <ele>285.4</ele>
        <time>2020-03-01T13:40:07.000Z</time>
      </trkpt>
      <trkpt lat="43.55674" lon="6.65443">
        <ele>283.7</ele>
        <time>2020-03-01T13:40:15.000Z</time>
      </trkpt>
      <trkpt lat="43.5568" lon="6.65453">
        <ele>283</ele>
        <time>2020-03-01T13:40:23.000Z</time>
      </trkpt>
      <trkpt lat="43.55688" lon="6.65459">
        <ele>281.3</ele>
        <time>2020-03-01T13:40:32.000Z</time>
      </trkpt>
      <trkpt lat="43.55696" lon="6.65467">
        <ele>280.3</ele>
        <time>2020-03-01T13:40:41.000Z</time>
      </trkpt>
      <trkpt lat="43.55704" lon="6.65473">
        <ele>279.3</ele>
        <time>2020-03-01T13:40:51.000Z</time>
      </trkpt>
      <trkpt lat="43.55713" lon="6.65477">
        <ele>277.1</ele>
        <time>2020-03-01T13:41:04.000Z</time>
      </trkpt>
      <trkpt lat="43.55721" lon="6.65483">
        <ele>274.8</ele>
        <time>2020-03-01T13:41:15.000Z</time>
      </trkpt>
      <trkpt lat="43.5573" lon="6.65487">
        <ele>272.5</ele>
        <time>2020-03-01T13:41:24.000Z</time>
      </trkpt>
      <trkpt lat="43.5574" lon="6.65488">
        <ele>270.7</ele>
        <time>2020-03-01T13:41:35.000Z</time>
      </trkpt>
      <trkpt lat="43.55749" lon="6.65493">
        <ele>268.9</ele>
        <time>2020-03-01T13:41:44.000Z</time>
      </trkpt>
      <trkpt lat="43.55758" lon="6.65497">
        <ele>267.5</ele>
        <time>2020-03-01T13:41:53.000Z</time>
      </trkpt>
      <trkpt lat="43.55767" lon="6.65501">
        <ele>265.5</ele>
        <time>2020-03-01T13:42:02.000Z</time>
      </trkpt>
      <trkpt lat="43.55777" lon="6.65504">
        <ele>264.7</ele>
        <time>2020-03-01T13:42:09.000Z</time>
      </trkpt>
      <trkpt lat="43.55786" lon="6.65508">
        <ele>263.4</ele>
        <time>2020-03-01T13:42:17.000Z</time>
      </trkpt>
      <trkpt lat="43.55795" lon="6.65511">
        <ele>262.3</ele>
        <time>2020-03-01T13:42:26.000Z</time>
      </trkpt>
      <trkpt lat="43.55804" lon="6.65512">
        <ele>261.3</ele>
        <time>2020-03-01T13:42:40.000Z</time>
      </trkpt>
      <trkpt lat="43.55814" lon="6.65512">
        <ele>260.8</ele>
        <time>2020-03-01T13:42:47.000Z</time>
      </trkpt>
      <trkpt lat="43.55824" lon="6.65515">
        <ele>259.2</ele>
        <time>2020-03-01T13:42:55.000Z</time>
      </trkpt>
      <trkpt lat="43.55833" lon="6.65519">
        <ele>258.4</ele>
        <time>2020-03-01T13:43:03.000Z</time>
      </trkpt>
      <trkpt lat="43.55842" lon="6.6552">
        <ele>257.4</ele>
        <time>2020-03-01T13:43:11.000Z</time>
      </trkpt>
      <trkpt lat="43.55852" lon="6.65522">
        <ele>256.7</ele>
        <time>2020-03-01T13:43:18.000Z</time>
      </trkpt>
      <trkpt lat="43.55861" lon="6.65519">
        <ele>256.7</ele>
        <time>2020-03-01T13:43:26.000Z</time>
      </trkpt>
      <trkpt lat="43.55869" lon="6.65514">
        <ele>256.8</ele>
        <time>2020-03-01T13:44:40.000Z</time>
      </trkpt>
      <trkpt lat="43.55871" lon="6.65526">
        <ele>257.1</ele>
        <time>2020-03-01T13:48:47.000Z</time>
      </trkpt>
      <trkpt lat="43.55881" lon="6.65529">
        <ele>256.5</ele>
        <time>2020-03-01T13:48:59.000Z</time>
      </trkpt>
      <trkpt lat="43.5589" lon="6.65533">
        <ele>256.5</ele>
        <time>2020-03-01T13:49:08.000Z</time>
      </trkpt>
      <trkpt lat="43.559" lon="6.65535">
        <ele>255.9</ele>
        <time>2020-03-01T13:49:16.000Z</time>
      </trkpt>
      <trkpt lat="43.55908" lon="6.6553">
        <ele>254.4</ele>
        <time>2020-03-01T13:49:24.000Z</time>
      </trkpt>
      <trkpt lat="43.55917" lon="6.65534">
        <ele>252.8</ele>
        <time>2020-03-01T13:49:32.000Z</time>
      </trkpt>
      <trkpt lat="43.55927" lon="6.65536">
        <ele>250.3</ele>
        <time>2020-03-01T13:49:46.000Z</time>
      </trkpt>
      <trkpt lat="43.55936" lon="6.65538">
        <ele>248.3</ele>
        <time>2020-03-01T13:49:56.000Z</time>
      </trkpt>
      <trkpt lat="43.55945" lon="6.65542">
        <ele>247.2</ele>
        <time>2020-03-01T13:50:04.000Z</time>
      </trkpt>
      <trkpt lat="43.55954" lon="6.65543">
        <ele>245.7</ele>
        <time>2020-03-01T13:50:13.000Z</time>
      </trkpt>
      <trkpt lat="43.55964" lon="6.65547">
        <ele>243.5</ele>
        <time>2020-03-01T13:50:20.000Z</time>
      </trkpt>
      <trkpt lat="43.55973" lon="6.65552">
        <ele>241.6</ele>
        <time>2020-03-01T13:50:26.000Z</time>
      </trkpt>
      <trkpt lat="43.55983" lon="6.65552">
        <ele>236.6</ele>
        <time>2020-03-01T13:50:44.000Z</time>
      </trkpt>
      <trkpt lat="43.55992" lon="6.65555">
        <ele>234.8</ele>
        <time>2020-03-01T13:50:52.000Z</time>
      </trkpt>
      <trkpt lat="43.56001" lon="6.65561">
        <ele>233.5</ele>
        <time>2020-03-01T13:51:02.000Z</time>
      </trkpt>
      <trkpt lat="43.5601" lon="6.6556">
        <ele>231.8</ele>
        <time>2020-03-01T13:51:15.000Z</time>
      </trkpt>
      <trkpt lat="43.56019" lon="6.65562">
        <ele>230.1</ele>
        <time>2020-03-01T13:51:36.000Z</time>
      </trkpt>
      <trkpt lat="43.56028" lon="6.65565">
        <ele>229</ele>
        <time>2020-03-01T13:51:46.000Z</time>
      </trkpt>
      <trkpt lat="43.56037" lon="6.65569">
        <ele>227.1</ele>
        <time>2020-03-01T13:51:55.000Z</time>
      </trkpt>
      <trkpt lat="43.56047" lon="6.65573">
        <ele>225.1</ele>
        <time>2020-03-01T13:52:07.000Z</time>
      </trkpt>
      <trkpt lat="43.56056" lon="6.65576">
        <ele>225</ele>
        <time>2020-03-01T13:52:14.000Z</time>
      </trkpt>
      <trkpt lat="43.56065" lon="6.65578">
        <ele>223.5</ele>
        <time>2020-03-01T13:52:22.000Z</time>
      </trkpt>
      <trkpt lat="43.56075" lon="6.65577">
        <ele>222.1</ele>
        <time>2020-03-01T13:52:31.000Z</time>
      </trkpt>
      <trkpt lat="43.56084" lon="6.65576">
        <ele>220.7</ele>
        <time>2020-03-01T13:52:39.000Z</time>
      </trkpt>
      <trkpt lat="43.56093" lon="6.65576">
        <ele>218.8</ele>
        <time>2020-03-01T13:52:47.000Z</time>
      </trkpt>
      <trkpt lat="43.56104" lon="6.65578">
        <ele>217.3</ele>
        <time>2020-03-01T13:52:54.000Z</time>
      </trkpt>
      <trkpt lat="43.56114" lon="6.6558">
        <ele>215.6</ele>
        <time>2020-03-01T13:53:01.000Z</time>
      </trkpt>
      <trkpt lat="43.56123" lon="6.65581">
        <ele>214.3</ele>
        <time>2020-03-01T13:53:08.000Z</time>
      </trkpt>
      <trkpt lat="43.56132" lon="6.65583">
        <ele>213.2</ele>
        <time>2020-03-01T13:53:15.000Z</time>
      </trkpt>
      <trkpt lat="43.56141" lon="6.65578">
        <ele>211.6</ele>
        <time>2020-03-01T13:53:23.000Z</time>
      </trkpt>
      <trkpt lat="43.5615" lon="6.65579">
        <ele>209.6</ele>
        <time>2020-03-01T13:53:34.000Z</time>
      </trkpt>
      <trkpt lat="43.56141" lon="6.65581">
        <ele>208.7</ele>
        <time>2020-03-01T13:54:16.000Z</time>
      </trkpt>
      <trkpt lat="43.56136" lon="6.65592">
        <ele>207.4</ele>
        <time>2020-03-01T13:54:29.000Z</time>
      </trkpt>
      <trkpt lat="43.56143" lon="6.65599">
        <ele>206.3</ele>
        <time>2020-03-01T13:54:47.000Z</time>
      </trkpt>
      <trkpt lat="43.56153" lon="6.65598">
        <ele>205.3</ele>
        <time>2020-03-01T13:55:37.000Z</time>
      </trkpt>
      <trkpt lat="43.56162" lon="6.65597">
        <ele>204.1</ele>
        <time>2020-03-01T13:55:48.000Z</time>
      </trkpt>
      <trkpt lat="43.56171" lon="6.65594">
        <ele>202.8</ele>
        <time>2020-03-01T13:55:58.000Z</time>
      </trkpt>
      <trkpt lat="43.56181" lon="6.65594">
        <ele>201.8</ele>
        <time>2020-03-01T13:56:06.000Z</time>
      </trkpt>
      <trkpt lat="43.5619" lon="6.65592">
        <ele>200.9</ele>
        <time>2020-03-01T13:56:15.000Z</time>
      </trkpt>
      <trkpt lat="43.562" lon="6.65591">
        <ele>199.9</ele>
        <time>2020-03-01T13:56:23.000Z</time>
      </trkpt>
      <trkpt lat="43.56209" lon="6.6559">
        <ele>198.8</ele>
        <time>2020-03-01T13:56:30.000Z</time>
      </trkpt>
      <trkpt lat="43.56218" lon="6.6559">
        <ele>197.3</ele>
        <time>2020-03-01T13:56:39.000Z</time>
      </trkpt>
      <trkpt lat="43.56227" lon="6.65591">
        <ele>196.7</ele>
        <time>2020-03-01T13:56:46.000Z</time>
      </trkpt>
      <trkpt lat="43.56237" lon="6.6559">
        <ele>196.8</ele>
        <time>2020-03-01T13:56:54.000Z</time>
      </trkpt>
      <trkpt lat="43.56246" lon="6.6559">
        <ele>196.3</ele>
        <time>2020-03-01T13:57:02.000Z</time>
      </trkpt>
      <trkpt lat="43.56256" lon="6.65589">
        <ele>196</ele>
        <time>2020-03-01T13:57:10.000Z</time>
      </trkpt>
      <trkpt lat="43.56265" lon="6.65588">
        <ele>196.1</ele>
        <time>2020-03-01T13:57:16.000Z</time>
      </trkpt>
      <trkpt lat="43.56275" lon="6.65588">
        <ele>195.9</ele>
        <time>2020-03-01T13:57:23.000Z</time>
      </trkpt>
      <trkpt lat="43.56284" lon="6.65589">
        <ele>195.5</ele>
        <time>2020-03-01T13:57:32.000Z</time>
      </trkpt>
      <trkpt lat="43.56294" lon="6.65591">
        <ele>195.7</ele>
        <time>2020-03-01T13:57:42.000Z</time>
      </trkpt>
      <trkpt lat="43.56303" lon="6.65592">
        <ele>196</ele>
        <time>2020-03-01T13:57:50.000Z</time>
      </trkpt>
      <trkpt lat="43.56313" lon="6.65592">
        <ele>196.1</ele>
        <time>2020-03-01T13:57:58.000Z</time>
      </trkpt>
      <trkpt lat="43.56323" lon="6.65594">
        <ele>196.5</ele>
        <time>2020-03-01T13:58:06.000Z</time>
      </trkpt>
      <trkpt lat="43.56332" lon="6.65597">
        <ele>197</ele>
        <time>2020-03-01T13:58:15.000Z</time>
      </trkpt>
      <trkpt lat="43.56342" lon="6.656">
        <ele>197.2</ele>
        <time>2020-03-01T13:58:27.000Z</time>
      </trkpt>
      <trkpt lat="43.56351" lon="6.65599">
        <ele>197.2</ele>
        <time>2020-03-01T13:58:37.000Z</time>
      </trkpt>
      <trkpt lat="43.56361" lon="6.65601">
        <ele>197.1</ele>
        <time>2020-03-01T13:58:47.000Z</time>
      </trkpt>
      <trkpt lat="43.56371" lon="6.65603">
        <ele>196.4</ele>
        <time>2020-03-01T13:58:56.000Z</time>
      </trkpt>
      <trkpt lat="43.5638" lon="6.65604">
        <ele>195.8</ele>
        <time>2020-03-01T13:59:06.000Z</time>
      </trkpt>
      <trkpt lat="43.56389" lon="6.65605">
        <ele>195.3</ele>
        <time>2020-03-01T13:59:15.000Z</time>
      </trkpt>
      <trkpt lat="43.56398" lon="6.65609">
        <ele>194.8</ele>
        <time>2020-03-01T13:59:24.000Z</time>
      </trkpt>
      <trkpt lat="43.56407" lon="6.65613">
        <ele>193.8</ele>
        <time>2020-03-01T13:59:36.000Z</time>
      </trkpt>
      <trkpt lat="43.56416" lon="6.65612">
        <ele>194.6</ele>
        <time>2020-03-01T14:01:04.000Z</time>
      </trkpt>
      <trkpt lat="43.56423" lon="6.65619">
        <ele>194.8</ele>
        <time>2020-03-01T14:01:29.000Z</time>
      </trkpt>
      <trkpt lat="43.56432" lon="6.65624">
        <ele>195.8</ele>
        <time>2020-03-01T14:01:40.000Z</time>
      </trkpt>
      <trkpt lat="43.56439" lon="6.65631">
        <ele>195.9</ele>
        <time>2020-03-01T14:01:51.000Z</time>
      </trkpt>
      <trkpt lat="43.56447" lon="6.6564">
        <ele>195.8</ele>
        <time>2020-03-01T14:02:03.000Z</time>
      </trkpt>
      <trkpt lat="43.56454" lon="6.65647">
        <ele>196.5</ele>
        <time>2020-03-01T14:02:13.000Z</time>
      </trkpt>
      <trkpt lat="43.56462" lon="6.65655">
        <ele>197.1</ele>
        <time>2020-03-01T14:02:23.000Z</time>
      </trkpt>
      <trkpt lat="43.56469" lon="6.65663">
        <ele>197.2</ele>
        <time>2020-03-01T14:02:33.000Z</time>
      </trkpt>
      <trkpt lat="43.56477" lon="6.65668">
        <ele>197.2</ele>
        <time>2020-03-01T14:02:43.000Z</time>
      </trkpt>
      <trkpt lat="43.56486" lon="6.65675">
        <ele>197.7</ele>
        <time>2020-03-01T14:02:52.000Z</time>
      </trkpt>
      <trkpt lat="43.56495" lon="6.6568">
        <ele>198</ele>
        <time>2020-03-01T14:03:03.000Z</time>
      </trkpt>
      <trkpt lat="43.56502" lon="6.65688">
        <ele>198</ele>
        <time>2020-03-01T14:03:14.000Z</time>
      </trkpt>
      <trkpt lat="43.5651" lon="6.65694">
        <ele>197.5</ele>
        <time>2020-03-01T14:03:24.000Z</time>
      </trkpt>
      <trkpt lat="43.56518" lon="6.65701">
        <ele>197.1</ele>
        <time>2020-03-01T14:03:37.000Z</time>
      </trkpt>
      <trkpt lat="43.56525" lon="6.6571">
        <ele>197.3</ele>
        <time>2020-03-01T14:03:46.000Z</time>
      </trkpt>
      <trkpt lat="43.56532" lon="6.65718">
        <ele>197.5</ele>
        <time>2020-03-01T14:03:56.000Z</time>
      </trkpt>
      <trkpt lat="43.56541" lon="6.65715">
        <ele>197.5</ele>
        <time>2020-03-01T14:04:04.000Z</time>
      </trkpt>
      <trkpt lat="43.56551" lon="6.65718">
        <ele>197.6</ele>
        <time>2020-03-01T14:04:16.000Z</time>
      </trkpt>
      <trkpt lat="43.5656" lon="6.65719">
        <ele>198.1</ele>
        <time>2020-03-01T14:04:31.000Z</time>
      </trkpt>
      <trkpt lat="43.56569" lon="6.65724">
        <ele>198.5</ele>
        <time>2020-03-01T14:04:44.000Z</time>
      </trkpt>
      <trkpt lat="43.56574" lon="6.65735">
        <ele>199.1</ele>
        <time>2020-03-01T14:04:58.000Z</time>
      </trkpt>
      <trkpt lat="43.56579" lon="6.65746">
        <ele>198.4</ele>
        <time>2020-03-01T14:05:10.000Z</time>
      </trkpt>
      <trkpt lat="43.56585" lon="6.65755">
        <ele>198.8</ele>
        <time>2020-03-01T14:05:21.000Z</time>
      </trkpt>
      <trkpt lat="43.56595" lon="6.65758">
        <ele>198.9</ele>
        <time>2020-03-01T14:05:30.000Z</time>
      </trkpt>
      <trkpt lat="43.56605" lon="6.65758">
        <ele>199.6</ele>
        <time>2020-03-01T14:05:37.000Z</time>
      </trkpt>
      <trkpt lat="43.56613" lon="6.65764">
        <ele>200.2</ele>
        <time>2020-03-01T14:05:45.000Z</time>
      </trkpt>
      <trkpt lat="43.5662" lon="6.65772">
        <ele>200.9</ele>
        <time>2020-03-01T14:05:59.000Z</time>
      </trkpt>
      <trkpt lat="43.56627" lon="6.65782">
        <ele>201.6</ele>
        <time>2020-03-01T14:06:09.000Z</time>
      </trkpt>
      <trkpt lat="43.56635" lon="6.6579">
        <ele>202</ele>
        <time>2020-03-01T14:06:19.000Z</time>
      </trkpt>
      <trkpt lat="43.56642" lon="6.65798">
        <ele>202.7</ele>
        <time>2020-03-01T14:06:30.000Z</time>
      </trkpt>
      <trkpt lat="43.5665" lon="6.65805">
        <ele>203.1</ele>
        <time>2020-03-01T14:06:38.000Z</time>
      </trkpt>
      <trkpt lat="43.56657" lon="6.65813">
        <ele>203.9</ele>
        <time>2020-03-01T14:06:50.000Z</time>
      </trkpt>
      <trkpt lat="43.56666" lon="6.65821">
        <ele>204.6</ele>
        <time>2020-03-01T14:06:59.000Z</time>
      </trkpt>
      <trkpt lat="43.56674" lon="6.65828">
        <ele>205.2</ele>
        <time>2020-03-01T14:07:07.000Z</time>
      </trkpt>
      <trkpt lat="43.56682" lon="6.65835">
        <ele>205.5</ele>
        <time>2020-03-01T14:07:16.000Z</time>
      </trkpt>
      <trkpt lat="43.56689" lon="6.65843">
        <ele>206.2</ele>
        <time>2020-03-01T14:07:24.000Z</time>
      </trkpt>
      <trkpt lat="43.56697" lon="6.65851">
        <ele>207.2</ele>
        <time>2020-03-01T14:07:33.000Z</time>
      </trkpt>
      <trkpt lat="43.56704" lon="6.6586">
        <ele>207.6</ele>
        <time>2020-03-01T14:07:42.000Z</time>
      </trkpt>
      <trkpt lat="43.56712" lon="6.65868">
        <ele>208.1</ele>
        <time>2020-03-01T14:07:52.000Z</time>
      </trkpt>
      <trkpt lat="43.5672" lon="6.65876">
        <ele>208.4</ele>
        <time>2020-03-01T14:08:00.000Z</time>
      </trkpt>
      <trkpt lat="43.56726" lon="6.65884">
        <ele>209.1</ele>
        <time>2020-03-01T14:08:09.000Z</time>
      </trkpt>
      <trkpt lat="43.56734" lon="6.65892">
        <ele>209.9</ele>
        <time>2020-03-01T14:08:17.000Z</time>
      </trkpt>
      <trkpt lat="43.56742" lon="6.659">
        <ele>211</ele>
        <time>2020-03-01T14:08:26.000Z</time>
      </trkpt>
      <trkpt lat="43.56748" lon="6.6591">
        <ele>211.8</ele>
        <time>2020-03-01T14:08:33.000Z</time>
      </trkpt>
      <trkpt lat="43.56753" lon="6.65922">
        <ele>212.6</ele>
        <time>2020-03-01T14:08:42.000Z</time>
      </trkpt>
      <trkpt lat="43.56757" lon="6.65934">
        <ele>213</ele>
        <time>2020-03-01T14:08:51.000Z</time>
      </trkpt>
      <trkpt lat="43.56761" lon="6.65946">
        <ele>213.5</ele>
        <time>2020-03-01T14:09:00.000Z</time>
      </trkpt>
      <trkpt lat="43.56764" lon="6.65958">
        <ele>214.5</ele>
        <time>2020-03-01T14:09:09.000Z</time>
      </trkpt>
      <trkpt lat="43.56768" lon="6.65971">
        <ele>214.8</ele>
        <time>2020-03-01T14:09:17.000Z</time>
      </trkpt>
      <trkpt lat="43.56774" lon="6.65982">
        <ele>215.3</ele>
        <time>2020-03-01T14:09:26.000Z</time>
      </trkpt>
      <trkpt lat="43.5678" lon="6.65993">
        <ele>216.4</ele>
        <time>2020-03-01T14:09:35.000Z</time>
      </trkpt>
      <trkpt lat="43.56788" lon="6.65998">
        <ele>217.2</ele>
        <time>2020-03-01T14:09:44.000Z</time>
      </trkpt>
      <trkpt lat="43.56796" lon="6.66006">
        <ele>217.8</ele>
        <time>2020-03-01T14:09:53.000Z</time>
      </trkpt>
      <trkpt lat="43.56801" lon="6.66017">
        <ele>219</ele>
        <time>2020-03-01T14:10:02.000Z</time>
      </trkpt>
      <trkpt lat="43.56807" lon="6.66028">
        <ele>219.5</ele>
        <time>2020-03-01T14:10:11.000Z</time>
      </trkpt>
      <trkpt lat="43.56816" lon="6.66033">
        <ele>219.9</ele>
        <time>2020-03-01T14:10:19.000Z</time>
      </trkpt>
      <trkpt lat="43.56825" lon="6.66037">
        <ele>220.3</ele>
        <time>2020-03-01T14:10:27.000Z</time>
      </trkpt>
      <trkpt lat="43.56834" lon="6.66042">
        <ele>220</ele>
        <time>2020-03-01T14:10:35.000Z</time>
      </trkpt>
      <trkpt lat="43.56845" lon="6.66044">
        <ele>220.1</ele>
        <time>2020-03-01T14:10:44.000Z</time>
      </trkpt>
      <trkpt lat="43.56853" lon="6.6604">
        <ele>219.7</ele>
        <time>2020-03-01T14:10:51.000Z</time>
      </trkpt>
      <trkpt lat="43.56862" lon="6.66036">
        <ele>219.2</ele>
        <time>2020-03-01T14:10:59.000Z</time>
      </trkpt>
      <trkpt lat="43.56869" lon="6.66044">
        <ele>218.5</ele>
        <time>2020-03-01T14:11:09.000Z</time>
      </trkpt>
      <trkpt lat="43.56872" lon="6.66056">
        <ele>218.2</ele>
        <time>2020-03-01T14:11:17.000Z</time>
      </trkpt>
      <trkpt lat="43.56875" lon="6.66069">
        <ele>218.3</ele>
        <time>2020-03-01T14:11:25.000Z</time>
      </trkpt>
      <trkpt lat="43.5688" lon="6.6608">
        <ele>218.1</ele>
        <time>2020-03-01T14:11:33.000Z</time>
      </trkpt>
      <trkpt lat="43.56889" lon="6.66085">
        <ele>217.8</ele>
        <time>2020-03-01T14:11:41.000Z</time>
      </trkpt>
      <trkpt lat="43.56898" lon="6.66087">
        <ele>217.2</ele>
        <time>2020-03-01T14:11:50.000Z</time>
      </trkpt>
      <trkpt lat="43.56908" lon="6.6609">
        <ele>217.1</ele>
        <time>2020-03-01T14:11:59.000Z</time>
      </trkpt>
      <trkpt lat="43.56918" lon="6.66092">
        <ele>216.1</ele>
        <time>2020-03-01T14:12:08.000Z</time>
      </trkpt>
      <trkpt lat="43.56928" lon="6.66094">
        <ele>215.9</ele>
        <time>2020-03-01T14:12:16.000Z</time>
      </trkpt>
      <trkpt lat="43.56937" lon="6.66096">
        <ele>215.7</ele>
        <time>2020-03-01T14:12:25.000Z</time>
      </trkpt>
      <trkpt lat="43.56946" lon="6.66099">
        <ele>215.2</ele>
        <time>2020-03-01T14:12:34.000Z</time>
      </trkpt>
      <trkpt lat="43.56957" lon="6.66102">
        <ele>214.7</ele>
        <time>2020-03-01T14:12:43.000Z</time>
      </trkpt>
      <trkpt lat="43.56966" lon="6.66103">
        <ele>214.1</ele>
        <time>2020-03-01T14:12:51.000Z</time>
      </trkpt>
      <trkpt lat="43.56975" lon="6.66107">
        <ele>213.4</ele>
        <time>2020-03-01T14:13:00.000Z</time>
      </trkpt>
      <trkpt lat="43.56975" lon="6.66107">
        <ele>213.3</ele>
        <time>2020-03-01T14:13:00.000Z</time>
      </trkpt>
      <trkpt lat="43.56975" lon="6.66107">
        <ele>213.3</ele>
        <time>2020-03-01T14:13:00.000Z</time>
      </trkpt>
    </trkseg>
  </trk>
</gpx>